<?xml version="1.0" encoding="UTF-8" standalone="no" ?>
<gpx xmlns="http://www.topografix.com/GPX/1/1" xmlns:xsi="http://www.w3.org/2001/XMLSchema-instance" xsi:schemaLocation="http://www.topografix.com/GPX/1/1 http://www.topografix.com/GPX/1/1/gpx.xsd" version="1.1" creator="VisuGPX - https://www.visugpx.com">
  <metadata>
    <name>La Grand Dent par Les Araux</name>
  </metadata>
  <trk>
    <name><![CDATA[2019-03-31 16:14:08]]></name>
    <trkseg>
      <trkpt lat="44.87451" lon="5.07719">
        <ele>363.1</ele>
        <time>2019-03-31T07:46:43Z</time>
      </trkpt>
      <trkpt lat="44.87451" lon="5.07719">
        <ele>363.1</ele>
        <time>2019-03-31T07:46:43Z</time>
      </trkpt>
      <trkpt lat="44.87472" lon="5.07726">
        <ele>363.04</ele>
        <time>2019-03-31T07:47:01Z</time>
      </trkpt>
      <trkpt lat="44.87482" lon="5.07732">
        <ele>363.04</ele>
        <time>2019-03-31T07:47:16Z</time>
      </trkpt>
      <trkpt lat="44.87481" lon="5.07735">
        <ele>363.04</ele>
        <time>2019-03-31T07:47:19Z</time>
      </trkpt>
      <trkpt lat="44.87471" lon="5.07747">
        <ele>363.04</ele>
        <time>2019-03-31T07:47:34Z</time>
      </trkpt>
      <trkpt lat="44.8746" lon="5.07759">
        <ele>363.04</ele>
        <time>2019-03-31T07:47:46Z</time>
      </trkpt>
      <trkpt lat="44.87449" lon="5.07771">
        <ele>363.04</ele>
        <time>2019-03-31T07:47:58Z</time>
      </trkpt>
      <trkpt lat="44.8743" lon="5.07788">
        <ele>363.04</ele>
        <time>2019-03-31T07:48:18Z</time>
      </trkpt>
      <trkpt lat="44.8742" lon="5.07796">
        <ele>363.04</ele>
        <time>2019-03-31T07:48:28Z</time>
      </trkpt>
      <trkpt lat="44.87404" lon="5.07804">
        <ele>363.04</ele>
        <time>2019-03-31T07:48:42Z</time>
      </trkpt>
      <trkpt lat="44.87396" lon="5.0781">
        <ele>363.04</ele>
        <time>2019-03-31T07:48:50Z</time>
      </trkpt>
      <trkpt lat="44.87394" lon="5.07814">
        <ele>363.04</ele>
        <time>2019-03-31T07:48:53Z</time>
      </trkpt>
      <trkpt lat="44.87396" lon="5.07823">
        <ele>363.04</ele>
        <time>2019-03-31T07:49:00Z</time>
      </trkpt>
      <trkpt lat="44.87411" lon="5.07834">
        <ele>365.44</ele>
        <time>2019-03-31T07:49:16Z</time>
      </trkpt>
      <trkpt lat="44.87423" lon="5.07847">
        <ele>366.4</ele>
        <time>2019-03-31T07:49:29Z</time>
      </trkpt>
      <trkpt lat="44.87432" lon="5.07853">
        <ele>366.88</ele>
        <time>2019-03-31T07:49:37Z</time>
      </trkpt>
      <trkpt lat="44.87436" lon="5.07854">
        <ele>367.36</ele>
        <time>2019-03-31T07:49:40Z</time>
      </trkpt>
      <trkpt lat="44.87444" lon="5.0786">
        <ele>367.84</ele>
        <time>2019-03-31T07:49:52Z</time>
      </trkpt>
      <trkpt lat="44.87448" lon="5.07862">
        <ele>367.84</ele>
        <time>2019-03-31T07:49:56Z</time>
      </trkpt>
      <trkpt lat="44.87452" lon="5.07864">
        <ele>368.32</ele>
        <time>2019-03-31T07:49:59Z</time>
      </trkpt>
      <trkpt lat="44.87456" lon="5.07866">
        <ele>368.32</ele>
        <time>2019-03-31T07:50:04Z</time>
      </trkpt>
      <trkpt lat="44.87479" lon="5.07869">
        <ele>369.28</ele>
        <time>2019-03-31T07:50:22Z</time>
      </trkpt>
      <trkpt lat="44.87497" lon="5.07868">
        <ele>370.24</ele>
        <time>2019-03-31T07:50:36Z</time>
      </trkpt>
      <trkpt lat="44.87499" lon="5.07867">
        <ele>370.24</ele>
        <time>2019-03-31T07:50:38Z</time>
      </trkpt>
      <trkpt lat="44.87513" lon="5.07852">
        <ele>371.21</ele>
        <time>2019-03-31T07:50:53Z</time>
      </trkpt>
      <trkpt lat="44.87515" lon="5.07848">
        <ele>371.21</ele>
        <time>2019-03-31T07:50:56Z</time>
      </trkpt>
      <trkpt lat="44.87532" lon="5.07836">
        <ele>373.61</ele>
        <time>2019-03-31T07:51:13Z</time>
      </trkpt>
      <trkpt lat="44.87546" lon="5.07839">
        <ele>376.49</ele>
        <time>2019-03-31T07:51:29Z</time>
      </trkpt>
      <trkpt lat="44.87558" lon="5.07844">
        <ele>377.94</ele>
        <time>2019-03-31T07:51:37Z</time>
      </trkpt>
      <trkpt lat="44.87568" lon="5.07851">
        <ele>380.82</ele>
        <time>2019-03-31T07:51:51Z</time>
      </trkpt>
      <trkpt lat="44.87577" lon="5.07859">
        <ele>383.7</ele>
        <time>2019-03-31T07:52:04Z</time>
      </trkpt>
      <trkpt lat="44.87588" lon="5.07866">
        <ele>386.59</ele>
        <time>2019-03-31T07:52:17Z</time>
      </trkpt>
      <trkpt lat="44.87596" lon="5.07875">
        <ele>387.07</ele>
        <time>2019-03-31T07:52:29Z</time>
      </trkpt>
      <trkpt lat="44.87597" lon="5.07889">
        <ele>387.55</ele>
        <time>2019-03-31T07:52:41Z</time>
      </trkpt>
      <trkpt lat="44.87598" lon="5.07908">
        <ele>389.95</ele>
        <time>2019-03-31T07:52:56Z</time>
      </trkpt>
      <trkpt lat="44.87595" lon="5.07926">
        <ele>391.87</ele>
        <time>2019-03-31T07:53:10Z</time>
      </trkpt>
      <trkpt lat="44.87594" lon="5.0793">
        <ele>391.87</ele>
        <time>2019-03-31T07:53:13Z</time>
      </trkpt>
      <trkpt lat="44.87586" lon="5.07949">
        <ele>393.32</ele>
        <time>2019-03-31T07:53:27Z</time>
      </trkpt>
      <trkpt lat="44.87578" lon="5.07965">
        <ele>395.72</ele>
        <time>2019-03-31T07:53:42Z</time>
      </trkpt>
      <trkpt lat="44.87572" lon="5.07982">
        <ele>398.6</ele>
        <time>2019-03-31T07:53:57Z</time>
      </trkpt>
      <trkpt lat="44.87567" lon="5.07997">
        <ele>401.49</ele>
        <time>2019-03-31T07:54:11Z</time>
      </trkpt>
      <trkpt lat="44.87561" lon="5.08012">
        <ele>403.41</ele>
        <time>2019-03-31T07:54:25Z</time>
      </trkpt>
      <trkpt lat="44.87553" lon="5.08028">
        <ele>405.81</ele>
        <time>2019-03-31T07:54:41Z</time>
      </trkpt>
      <trkpt lat="44.87545" lon="5.08047">
        <ele>406.29</ele>
        <time>2019-03-31T07:54:55Z</time>
      </trkpt>
      <trkpt lat="44.8754" lon="5.08067">
        <ele>407.26</ele>
        <time>2019-03-31T07:55:09Z</time>
      </trkpt>
      <trkpt lat="44.87538" lon="5.08082">
        <ele>408.7</ele>
        <time>2019-03-31T07:55:22Z</time>
      </trkpt>
      <trkpt lat="44.87536" lon="5.08098">
        <ele>410.62</ele>
        <time>2019-03-31T07:55:35Z</time>
      </trkpt>
      <trkpt lat="44.87534" lon="5.08114">
        <ele>412.06</ele>
        <time>2019-03-31T07:55:47Z</time>
      </trkpt>
      <trkpt lat="44.87535" lon="5.08129">
        <ele>413.02</ele>
        <time>2019-03-31T07:55:59Z</time>
      </trkpt>
      <trkpt lat="44.87538" lon="5.08146">
        <ele>414.95</ele>
        <time>2019-03-31T07:56:13Z</time>
      </trkpt>
      <trkpt lat="44.87537" lon="5.08159">
        <ele>415.43</ele>
        <time>2019-03-31T07:56:22Z</time>
      </trkpt>
      <trkpt lat="44.87538" lon="5.08179">
        <ele>416.39</ele>
        <time>2019-03-31T07:56:36Z</time>
      </trkpt>
      <trkpt lat="44.87536" lon="5.08194">
        <ele>417.35</ele>
        <time>2019-03-31T07:56:49Z</time>
      </trkpt>
      <trkpt lat="44.87531" lon="5.08217">
        <ele>418.79</ele>
        <time>2019-03-31T07:57:02Z</time>
      </trkpt>
      <trkpt lat="44.8753" lon="5.08231">
        <ele>420.71</ele>
        <time>2019-03-31T07:57:14Z</time>
      </trkpt>
      <trkpt lat="44.87533" lon="5.08243">
        <ele>422.64</ele>
        <time>2019-03-31T07:57:29Z</time>
      </trkpt>
      <trkpt lat="44.87534" lon="5.08261">
        <ele>425.52</ele>
        <time>2019-03-31T07:57:43Z</time>
      </trkpt>
      <trkpt lat="44.87535" lon="5.08276">
        <ele>428.4</ele>
        <time>2019-03-31T07:57:57Z</time>
      </trkpt>
      <trkpt lat="44.87539" lon="5.08289">
        <ele>430.81</ele>
        <time>2019-03-31T07:58:10Z</time>
      </trkpt>
      <trkpt lat="44.87541" lon="5.08304">
        <ele>432.25</ele>
        <time>2019-03-31T07:58:22Z</time>
      </trkpt>
      <trkpt lat="44.87544" lon="5.08316">
        <ele>433.21</ele>
        <time>2019-03-31T07:58:31Z</time>
      </trkpt>
      <trkpt lat="44.87548" lon="5.08336">
        <ele>435.61</ele>
        <time>2019-03-31T07:58:47Z</time>
      </trkpt>
      <trkpt lat="44.87547" lon="5.08352">
        <ele>438.98</ele>
        <time>2019-03-31T07:59:01Z</time>
      </trkpt>
      <trkpt lat="44.87545" lon="5.08367">
        <ele>442.34</ele>
        <time>2019-03-31T07:59:15Z</time>
      </trkpt>
      <trkpt lat="44.87544" lon="5.08379">
        <ele>445.71</ele>
        <time>2019-03-31T07:59:28Z</time>
      </trkpt>
      <trkpt lat="44.87541" lon="5.08395">
        <ele>448.59</ele>
        <time>2019-03-31T07:59:43Z</time>
      </trkpt>
      <trkpt lat="44.87537" lon="5.0841">
        <ele>451.48</ele>
        <time>2019-03-31T07:59:58Z</time>
      </trkpt>
      <trkpt lat="44.8753" lon="5.08415">
        <ele>453.4</ele>
        <time>2019-03-31T08:00:09Z</time>
      </trkpt>
      <trkpt lat="44.87529" lon="5.08415">
        <ele>453.4</ele>
        <time>2019-03-31T08:00:10Z</time>
      </trkpt>
      <trkpt lat="44.87518" lon="5.0842">
        <ele>455.32</ele>
        <time>2019-03-31T08:00:22Z</time>
      </trkpt>
      <trkpt lat="44.87508" lon="5.08427">
        <ele>456.28</ele>
        <time>2019-03-31T08:00:33Z</time>
      </trkpt>
      <trkpt lat="44.875" lon="5.08439">
        <ele>456.76</ele>
        <time>2019-03-31T08:00:48Z</time>
      </trkpt>
      <trkpt lat="44.87496" lon="5.08449">
        <ele>457.24</ele>
        <time>2019-03-31T08:00:56Z</time>
      </trkpt>
      <trkpt lat="44.8749" lon="5.08465">
        <ele>459.65</ele>
        <time>2019-03-31T08:01:09Z</time>
      </trkpt>
      <trkpt lat="44.87481" lon="5.08478">
        <ele>462.05</ele>
        <time>2019-03-31T08:01:24Z</time>
      </trkpt>
      <trkpt lat="44.87478" lon="5.08489">
        <ele>463.97</ele>
        <time>2019-03-31T08:01:32Z</time>
      </trkpt>
      <trkpt lat="44.87477" lon="5.08507">
        <ele>466.38</ele>
        <time>2019-03-31T08:01:46Z</time>
      </trkpt>
      <trkpt lat="44.87476" lon="5.08519">
        <ele>469.74</ele>
        <time>2019-03-31T08:01:59Z</time>
      </trkpt>
      <trkpt lat="44.87476" lon="5.08537">
        <ele>471.66</ele>
        <time>2019-03-31T08:02:14Z</time>
      </trkpt>
      <trkpt lat="44.87478" lon="5.08546">
        <ele>472.63</ele>
        <time>2019-03-31T08:02:22Z</time>
      </trkpt>
      <trkpt lat="44.8748" lon="5.08559">
        <ele>474.07</ele>
        <time>2019-03-31T08:02:33Z</time>
      </trkpt>
      <trkpt lat="44.87477" lon="5.08575">
        <ele>475.99</ele>
        <time>2019-03-31T08:02:46Z</time>
      </trkpt>
      <trkpt lat="44.87474" lon="5.08588">
        <ele>478.39</ele>
        <time>2019-03-31T08:02:59Z</time>
      </trkpt>
      <trkpt lat="44.8747" lon="5.08602">
        <ele>479.84</ele>
        <time>2019-03-31T08:03:10Z</time>
      </trkpt>
      <trkpt lat="44.87466" lon="5.08612">
        <ele>480.8</ele>
        <time>2019-03-31T08:03:21Z</time>
      </trkpt>
      <trkpt lat="44.87463" lon="5.08626">
        <ele>483.2</ele>
        <time>2019-03-31T08:03:34Z</time>
      </trkpt>
      <trkpt lat="44.87462" lon="5.08639">
        <ele>485.6</ele>
        <time>2019-03-31T08:03:47Z</time>
      </trkpt>
      <trkpt lat="44.87462" lon="5.08654">
        <ele>488.49</ele>
        <time>2019-03-31T08:04:02Z</time>
      </trkpt>
      <trkpt lat="44.87459" lon="5.08663">
        <ele>490.89</ele>
        <time>2019-03-31T08:04:16Z</time>
      </trkpt>
      <trkpt lat="44.87457" lon="5.08682">
        <ele>492.33</ele>
        <time>2019-03-31T08:04:32Z</time>
      </trkpt>
      <trkpt lat="44.87452" lon="5.08693">
        <ele>493.77</ele>
        <time>2019-03-31T08:04:46Z</time>
      </trkpt>
      <trkpt lat="44.87448" lon="5.08709">
        <ele>495.7</ele>
        <time>2019-03-31T08:04:59Z</time>
      </trkpt>
      <trkpt lat="44.87445" lon="5.08722">
        <ele>498.1</ele>
        <time>2019-03-31T08:05:11Z</time>
      </trkpt>
      <trkpt lat="44.87445" lon="5.08734">
        <ele>500.5</ele>
        <time>2019-03-31T08:05:24Z</time>
      </trkpt>
      <trkpt lat="44.87442" lon="5.08748">
        <ele>503.39</ele>
        <time>2019-03-31T08:05:38Z</time>
      </trkpt>
      <trkpt lat="44.87441" lon="5.0876">
        <ele>504.83</ele>
        <time>2019-03-31T08:05:52Z</time>
      </trkpt>
      <trkpt lat="44.87437" lon="5.08774">
        <ele>504.83</ele>
        <time>2019-03-31T08:06:06Z</time>
      </trkpt>
      <trkpt lat="44.8743" lon="5.08792">
        <ele>504.83</ele>
        <time>2019-03-31T08:06:18Z</time>
      </trkpt>
      <trkpt lat="44.87425" lon="5.08805">
        <ele>504.83</ele>
        <time>2019-03-31T08:06:32Z</time>
      </trkpt>
      <trkpt lat="44.87418" lon="5.08819">
        <ele>504.83</ele>
        <time>2019-03-31T08:06:46Z</time>
      </trkpt>
      <trkpt lat="44.87409" lon="5.08843">
        <ele>505.79</ele>
        <time>2019-03-31T08:07:00Z</time>
      </trkpt>
      <trkpt lat="44.87408" lon="5.08848">
        <ele>505.79</ele>
        <time>2019-03-31T08:07:05Z</time>
      </trkpt>
      <trkpt lat="44.874" lon="5.08875">
        <ele>506.27</ele>
        <time>2019-03-31T08:07:22Z</time>
      </trkpt>
      <trkpt lat="44.87395" lon="5.08895">
        <ele>507.23</ele>
        <time>2019-03-31T08:07:36Z</time>
      </trkpt>
      <trkpt lat="44.87393" lon="5.08918">
        <ele>507.23</ele>
        <time>2019-03-31T08:07:51Z</time>
      </trkpt>
      <trkpt lat="44.87389" lon="5.08927">
        <ele>507.23</ele>
        <time>2019-03-31T08:08:03Z</time>
      </trkpt>
      <trkpt lat="44.87389" lon="5.08933">
        <ele>507.23</ele>
        <time>2019-03-31T08:08:17Z</time>
      </trkpt>
      <trkpt lat="44.87389" lon="5.08937">
        <ele>505.79</ele>
        <time>2019-03-31T08:08:21Z</time>
      </trkpt>
      <trkpt lat="44.87388" lon="5.08953">
        <ele>503.39</ele>
        <time>2019-03-31T08:08:38Z</time>
      </trkpt>
      <trkpt lat="44.87386" lon="5.08971">
        <ele>500.98</ele>
        <time>2019-03-31T08:08:51Z</time>
      </trkpt>
      <trkpt lat="44.87384" lon="5.08993">
        <ele>498.58</ele>
        <time>2019-03-31T08:09:06Z</time>
      </trkpt>
      <trkpt lat="44.87382" lon="5.09008">
        <ele>497.62</ele>
        <time>2019-03-31T08:09:19Z</time>
      </trkpt>
      <trkpt lat="44.87379" lon="5.09025">
        <ele>496.66</ele>
        <time>2019-03-31T08:09:34Z</time>
      </trkpt>
      <trkpt lat="44.87376" lon="5.09032">
        <ele>495.7</ele>
        <time>2019-03-31T08:09:50Z</time>
      </trkpt>
      <trkpt lat="44.87374" lon="5.09036">
        <ele>496.66</ele>
        <time>2019-03-31T08:10:09Z</time>
      </trkpt>
      <trkpt lat="44.87373" lon="5.09039">
        <ele>497.14</ele>
        <time>2019-03-31T08:12:57Z</time>
      </trkpt>
      <trkpt lat="44.87372" lon="5.09048">
        <ele>497.62</ele>
        <time>2019-03-31T08:13:10Z</time>
      </trkpt>
      <trkpt lat="44.87369" lon="5.09064">
        <ele>499.06</ele>
        <time>2019-03-31T08:13:23Z</time>
      </trkpt>
      <trkpt lat="44.87365" lon="5.09076">
        <ele>501.95</ele>
        <time>2019-03-31T08:13:37Z</time>
      </trkpt>
      <trkpt lat="44.87362" lon="5.0909">
        <ele>505.31</ele>
        <time>2019-03-31T08:13:49Z</time>
      </trkpt>
      <trkpt lat="44.87358" lon="5.09103">
        <ele>507.71</ele>
        <time>2019-03-31T08:14:01Z</time>
      </trkpt>
      <trkpt lat="44.87359" lon="5.09113">
        <ele>510.12</ele>
        <time>2019-03-31T08:14:13Z</time>
      </trkpt>
      <trkpt lat="44.87357" lon="5.09122">
        <ele>513.48</ele>
        <time>2019-03-31T08:14:28Z</time>
      </trkpt>
      <trkpt lat="44.87355" lon="5.0913">
        <ele>516.37</ele>
        <time>2019-03-31T08:14:42Z</time>
      </trkpt>
      <trkpt lat="44.87354" lon="5.09142">
        <ele>520.21</ele>
        <time>2019-03-31T08:14:57Z</time>
      </trkpt>
      <trkpt lat="44.87354" lon="5.09152">
        <ele>522.61</ele>
        <time>2019-03-31T08:15:11Z</time>
      </trkpt>
      <trkpt lat="44.87352" lon="5.09161">
        <ele>525.98</ele>
        <time>2019-03-31T08:15:26Z</time>
      </trkpt>
      <trkpt lat="44.87347" lon="5.09167">
        <ele>528.38</ele>
        <time>2019-03-31T08:15:40Z</time>
      </trkpt>
      <trkpt lat="44.87343" lon="5.09179">
        <ele>530.79</ele>
        <time>2019-03-31T08:15:54Z</time>
      </trkpt>
      <trkpt lat="44.87339" lon="5.0919">
        <ele>534.15</ele>
        <time>2019-03-31T08:16:08Z</time>
      </trkpt>
      <trkpt lat="44.87335" lon="5.09201">
        <ele>536.07</ele>
        <time>2019-03-31T08:16:22Z</time>
      </trkpt>
      <trkpt lat="44.87332" lon="5.09206">
        <ele>537.03</ele>
        <time>2019-03-31T08:16:27Z</time>
      </trkpt>
      <trkpt lat="44.87325" lon="5.09221">
        <ele>537.99</ele>
        <time>2019-03-31T08:16:41Z</time>
      </trkpt>
      <trkpt lat="44.87322" lon="5.09228">
        <ele>538.96</ele>
        <time>2019-03-31T08:17:02Z</time>
      </trkpt>
      <trkpt lat="44.8732" lon="5.09232">
        <ele>538.96</ele>
        <time>2019-03-31T08:17:06Z</time>
      </trkpt>
      <trkpt lat="44.8732" lon="5.09254">
        <ele>538.96</ele>
        <time>2019-03-31T08:17:22Z</time>
      </trkpt>
      <trkpt lat="44.87326" lon="5.09261">
        <ele>537.51</ele>
        <time>2019-03-31T08:19:40Z</time>
      </trkpt>
      <trkpt lat="44.87335" lon="5.0927">
        <ele>535.11</ele>
        <time>2019-03-31T08:19:52Z</time>
      </trkpt>
      <trkpt lat="44.87338" lon="5.09276">
        <ele>534.15</ele>
        <time>2019-03-31T08:19:57Z</time>
      </trkpt>
      <trkpt lat="44.87347" lon="5.0929">
        <ele>531.27</ele>
        <time>2019-03-31T08:20:12Z</time>
      </trkpt>
      <trkpt lat="44.87349" lon="5.09295">
        <ele>531.27</ele>
        <time>2019-03-31T08:20:14Z</time>
      </trkpt>
      <trkpt lat="44.87349" lon="5.09318">
        <ele>530.79</ele>
        <time>2019-03-31T08:20:27Z</time>
      </trkpt>
      <trkpt lat="44.87347" lon="5.09326">
        <ele>530.79</ele>
        <time>2019-03-31T08:20:34Z</time>
      </trkpt>
      <trkpt lat="44.87347" lon="5.0934">
        <ele>530.79</ele>
        <time>2019-03-31T08:20:45Z</time>
      </trkpt>
      <trkpt lat="44.87354" lon="5.09375">
        <ele>527.9</ele>
        <time>2019-03-31T08:21:05Z</time>
      </trkpt>
      <trkpt lat="44.87361" lon="5.09403">
        <ele>525.02</ele>
        <time>2019-03-31T08:21:23Z</time>
      </trkpt>
      <trkpt lat="44.87367" lon="5.09431">
        <ele>523.09</ele>
        <time>2019-03-31T08:21:39Z</time>
      </trkpt>
      <trkpt lat="44.87373" lon="5.09459">
        <ele>521.65</ele>
        <time>2019-03-31T08:21:54Z</time>
      </trkpt>
      <trkpt lat="44.87377" lon="5.09474">
        <ele>520.21</ele>
        <time>2019-03-31T08:22:05Z</time>
      </trkpt>
      <trkpt lat="44.87382" lon="5.09508">
        <ele>517.33</ele>
        <time>2019-03-31T08:22:25Z</time>
      </trkpt>
      <trkpt lat="44.87383" lon="5.0951">
        <ele>517.33</ele>
        <time>2019-03-31T08:22:26Z</time>
      </trkpt>
      <trkpt lat="44.87386" lon="5.09531">
        <ele>515.4</ele>
        <time>2019-03-31T08:22:42Z</time>
      </trkpt>
      <trkpt lat="44.87387" lon="5.09543">
        <ele>514.44</ele>
        <time>2019-03-31T08:22:53Z</time>
      </trkpt>
      <trkpt lat="44.87388" lon="5.09545">
        <ele>513.96</ele>
        <time>2019-03-31T08:22:55Z</time>
      </trkpt>
      <trkpt lat="44.87393" lon="5.09571">
        <ele>513.48</ele>
        <time>2019-03-31T08:23:10Z</time>
      </trkpt>
      <trkpt lat="44.87393" lon="5.09597">
        <ele>513.48</ele>
        <time>2019-03-31T08:23:24Z</time>
      </trkpt>
      <trkpt lat="44.87393" lon="5.09622">
        <ele>515.88</ele>
        <time>2019-03-31T08:23:38Z</time>
      </trkpt>
      <trkpt lat="44.87392" lon="5.09632">
        <ele>515.88</ele>
        <time>2019-03-31T08:23:44Z</time>
      </trkpt>
      <trkpt lat="44.87391" lon="5.09653">
        <ele>516.85</ele>
        <time>2019-03-31T08:23:56Z</time>
      </trkpt>
      <trkpt lat="44.87393" lon="5.09685">
        <ele>516.85</ele>
        <time>2019-03-31T08:24:12Z</time>
      </trkpt>
      <trkpt lat="44.87392" lon="5.09712">
        <ele>513.96</ele>
        <time>2019-03-31T08:24:28Z</time>
      </trkpt>
      <trkpt lat="44.87382" lon="5.09732">
        <ele>512.04</ele>
        <time>2019-03-31T08:24:42Z</time>
      </trkpt>
      <trkpt lat="44.87366" lon="5.09753">
        <ele>509.64</ele>
        <time>2019-03-31T08:24:59Z</time>
      </trkpt>
      <trkpt lat="44.87348" lon="5.09765">
        <ele>507.71</ele>
        <time>2019-03-31T08:25:14Z</time>
      </trkpt>
      <trkpt lat="44.87328" lon="5.09779">
        <ele>506.27</ele>
        <time>2019-03-31T08:25:31Z</time>
      </trkpt>
      <trkpt lat="44.87318" lon="5.0979">
        <ele>506.27</ele>
        <time>2019-03-31T08:25:41Z</time>
      </trkpt>
      <trkpt lat="44.87316" lon="5.09793">
        <ele>507.71</ele>
        <time>2019-03-31T08:25:43Z</time>
      </trkpt>
      <trkpt lat="44.87313" lon="5.09808">
        <ele>506.27</ele>
        <time>2019-03-31T08:25:55Z</time>
      </trkpt>
      <trkpt lat="44.87306" lon="5.09824">
        <ele>502.91</ele>
        <time>2019-03-31T08:26:10Z</time>
      </trkpt>
      <trkpt lat="44.87299" lon="5.09843">
        <ele>500.02</ele>
        <time>2019-03-31T08:26:25Z</time>
      </trkpt>
      <trkpt lat="44.87286" lon="5.09875">
        <ele>497.62</ele>
        <time>2019-03-31T08:26:40Z</time>
      </trkpt>
      <trkpt lat="44.87282" lon="5.099">
        <ele>495.22</ele>
        <time>2019-03-31T08:26:54Z</time>
      </trkpt>
      <trkpt lat="44.87277" lon="5.0993">
        <ele>493.77</ele>
        <time>2019-03-31T08:27:10Z</time>
      </trkpt>
      <trkpt lat="44.87278" lon="5.09943">
        <ele>492.33</ele>
        <time>2019-03-31T08:27:17Z</time>
      </trkpt>
      <trkpt lat="44.87294" lon="5.09961">
        <ele>489.45</ele>
        <time>2019-03-31T08:27:34Z</time>
      </trkpt>
      <trkpt lat="44.87311" lon="5.09966">
        <ele>486.08</ele>
        <time>2019-03-31T08:27:47Z</time>
      </trkpt>
      <trkpt lat="44.87332" lon="5.09964">
        <ele>482.72</ele>
        <time>2019-03-31T08:28:02Z</time>
      </trkpt>
      <trkpt lat="44.87346" lon="5.09964">
        <ele>479.84</ele>
        <time>2019-03-31T08:28:14Z</time>
      </trkpt>
      <trkpt lat="44.87361" lon="5.09964">
        <ele>476.47</ele>
        <time>2019-03-31T08:28:26Z</time>
      </trkpt>
      <trkpt lat="44.87361" lon="5.09964">
        <ele>476.47</ele>
        <time>2019-03-31T08:28:29Z</time>
      </trkpt>
      <trkpt lat="44.87358" lon="5.09961">
        <ele>475.99</ele>
        <time>2019-03-31T08:28:33Z</time>
      </trkpt>
      <trkpt lat="44.87356" lon="5.09959">
        <ele>475.99</ele>
        <time>2019-03-31T08:28:35Z</time>
      </trkpt>
      <trkpt lat="44.87351" lon="5.09953">
        <ele>475.03</ele>
        <time>2019-03-31T08:28:42Z</time>
      </trkpt>
      <trkpt lat="44.8735" lon="5.09945">
        <ele>474.07</ele>
        <time>2019-03-31T08:28:45Z</time>
      </trkpt>
      <trkpt lat="44.87353" lon="5.09941">
        <ele>473.59</ele>
        <time>2019-03-31T08:28:49Z</time>
      </trkpt>
      <trkpt lat="44.87368" lon="5.09945">
        <ele>470.22</ele>
        <time>2019-03-31T08:29:04Z</time>
      </trkpt>
      <trkpt lat="44.87383" lon="5.09951">
        <ele>467.34</ele>
        <time>2019-03-31T08:29:16Z</time>
      </trkpt>
      <trkpt lat="44.87384" lon="5.09952">
        <ele>467.34</ele>
        <time>2019-03-31T08:29:17Z</time>
      </trkpt>
      <trkpt lat="44.87399" lon="5.09967">
        <ele>463.97</ele>
        <time>2019-03-31T08:29:30Z</time>
      </trkpt>
      <trkpt lat="44.87403" lon="5.09974">
        <ele>463.01</ele>
        <time>2019-03-31T08:29:35Z</time>
      </trkpt>
      <trkpt lat="44.8742" lon="5.0999">
        <ele>460.13</ele>
        <time>2019-03-31T08:29:50Z</time>
      </trkpt>
      <trkpt lat="44.87437" lon="5.10009">
        <ele>457.72</ele>
        <time>2019-03-31T08:30:06Z</time>
      </trkpt>
      <trkpt lat="44.87438" lon="5.10012">
        <ele>457.72</ele>
        <time>2019-03-31T08:30:09Z</time>
      </trkpt>
      <trkpt lat="44.8744" lon="5.10017">
        <ele>457.72</ele>
        <time>2019-03-31T08:30:12Z</time>
      </trkpt>
      <trkpt lat="44.87443" lon="5.10026">
        <ele>456.76</ele>
        <time>2019-03-31T08:30:17Z</time>
      </trkpt>
      <trkpt lat="44.87442" lon="5.10037">
        <ele>454.84</ele>
        <time>2019-03-31T08:30:23Z</time>
      </trkpt>
      <trkpt lat="44.87427" lon="5.10055">
        <ele>451.48</ele>
        <time>2019-03-31T08:30:38Z</time>
      </trkpt>
      <trkpt lat="44.8741" lon="5.10067">
        <ele>447.63</ele>
        <time>2019-03-31T08:30:54Z</time>
      </trkpt>
      <trkpt lat="44.87393" lon="5.10076">
        <ele>444.75</ele>
        <time>2019-03-31T08:31:08Z</time>
      </trkpt>
      <trkpt lat="44.87392" lon="5.1008">
        <ele>443.79</ele>
        <time>2019-03-31T08:31:11Z</time>
      </trkpt>
      <trkpt lat="44.87399" lon="5.10085">
        <ele>442.34</ele>
        <time>2019-03-31T08:31:18Z</time>
      </trkpt>
      <trkpt lat="44.87417" lon="5.10089">
        <ele>439.46</ele>
        <time>2019-03-31T08:31:32Z</time>
      </trkpt>
      <trkpt lat="44.87433" lon="5.10091">
        <ele>436.1</ele>
        <time>2019-03-31T08:31:44Z</time>
      </trkpt>
      <trkpt lat="44.87447" lon="5.10091">
        <ele>433.21</ele>
        <time>2019-03-31T08:31:56Z</time>
      </trkpt>
      <trkpt lat="44.8745" lon="5.1009">
        <ele>432.73</ele>
        <time>2019-03-31T08:31:58Z</time>
      </trkpt>
      <trkpt lat="44.87456" lon="5.10095">
        <ele>430.81</ele>
        <time>2019-03-31T08:32:05Z</time>
      </trkpt>
      <trkpt lat="44.87441" lon="5.10099">
        <ele>430.81</ele>
        <time>2019-03-31T08:32:22Z</time>
      </trkpt>
      <trkpt lat="44.87421" lon="5.101">
        <ele>432.25</ele>
        <time>2019-03-31T08:32:38Z</time>
      </trkpt>
      <trkpt lat="44.87401" lon="5.10102">
        <ele>432.73</ele>
        <time>2019-03-31T08:32:52Z</time>
      </trkpt>
      <trkpt lat="44.87389" lon="5.10107">
        <ele>433.69</ele>
        <time>2019-03-31T08:33:03Z</time>
      </trkpt>
      <trkpt lat="44.87375" lon="5.10115">
        <ele>435.13</ele>
        <time>2019-03-31T08:33:17Z</time>
      </trkpt>
      <trkpt lat="44.87355" lon="5.10126">
        <ele>436.58</ele>
        <time>2019-03-31T08:33:34Z</time>
      </trkpt>
      <trkpt lat="44.8734" lon="5.10136">
        <ele>438.02</ele>
        <time>2019-03-31T08:33:49Z</time>
      </trkpt>
      <trkpt lat="44.87322" lon="5.10145">
        <ele>439.94</ele>
        <time>2019-03-31T08:34:07Z</time>
      </trkpt>
      <trkpt lat="44.87311" lon="5.10148">
        <ele>441.38</ele>
        <time>2019-03-31T08:34:18Z</time>
      </trkpt>
      <trkpt lat="44.87303" lon="5.10152">
        <ele>442.34</ele>
        <time>2019-03-31T08:34:26Z</time>
      </trkpt>
      <trkpt lat="44.87287" lon="5.10156">
        <ele>443.79</ele>
        <time>2019-03-31T08:34:42Z</time>
      </trkpt>
      <trkpt lat="44.87273" lon="5.10156">
        <ele>445.23</ele>
        <time>2019-03-31T08:34:55Z</time>
      </trkpt>
      <trkpt lat="44.87257" lon="5.10159">
        <ele>446.67</ele>
        <time>2019-03-31T08:35:11Z</time>
      </trkpt>
      <trkpt lat="44.87241" lon="5.10164">
        <ele>448.59</ele>
        <time>2019-03-31T08:35:26Z</time>
      </trkpt>
      <trkpt lat="44.8723" lon="5.10172">
        <ele>449.55</ele>
        <time>2019-03-31T08:35:38Z</time>
      </trkpt>
      <trkpt lat="44.87227" lon="5.10174">
        <ele>450.52</ele>
        <time>2019-03-31T08:35:41Z</time>
      </trkpt>
      <trkpt lat="44.87211" lon="5.10182">
        <ele>451.96</ele>
        <time>2019-03-31T08:35:57Z</time>
      </trkpt>
      <trkpt lat="44.87198" lon="5.1019">
        <ele>453.4</ele>
        <time>2019-03-31T08:36:09Z</time>
      </trkpt>
      <trkpt lat="44.87181" lon="5.10192">
        <ele>454.36</ele>
        <time>2019-03-31T08:36:24Z</time>
      </trkpt>
      <trkpt lat="44.87171" lon="5.10195">
        <ele>455.32</ele>
        <time>2019-03-31T08:36:33Z</time>
      </trkpt>
      <trkpt lat="44.8717" lon="5.10215">
        <ele>455.32</ele>
        <time>2019-03-31T08:36:47Z</time>
      </trkpt>
      <trkpt lat="44.87171" lon="5.10235">
        <ele>457.24</ele>
        <time>2019-03-31T08:37:02Z</time>
      </trkpt>
      <trkpt lat="44.87172" lon="5.1024">
        <ele>458.21</ele>
        <time>2019-03-31T08:37:06Z</time>
      </trkpt>
      <trkpt lat="44.87172" lon="5.10244">
        <ele>458.69</ele>
        <time>2019-03-31T08:37:09Z</time>
      </trkpt>
      <trkpt lat="44.8717" lon="5.10267">
        <ele>461.09</ele>
        <time>2019-03-31T08:37:23Z</time>
      </trkpt>
      <trkpt lat="44.87163" lon="5.10284">
        <ele>463.01</ele>
        <time>2019-03-31T08:37:37Z</time>
      </trkpt>
      <trkpt lat="44.87154" lon="5.10301">
        <ele>465.42</ele>
        <time>2019-03-31T08:37:52Z</time>
      </trkpt>
      <trkpt lat="44.87148" lon="5.10314">
        <ele>467.34</ele>
        <time>2019-03-31T08:38:04Z</time>
      </trkpt>
      <trkpt lat="44.87138" lon="5.1033">
        <ele>470.22</ele>
        <time>2019-03-31T08:38:20Z</time>
      </trkpt>
      <trkpt lat="44.87128" lon="5.10345">
        <ele>472.63</ele>
        <time>2019-03-31T08:38:35Z</time>
      </trkpt>
      <trkpt lat="44.87116" lon="5.10352">
        <ele>474.55</ele>
        <time>2019-03-31T08:38:48Z</time>
      </trkpt>
      <trkpt lat="44.87114" lon="5.10353">
        <ele>474.55</ele>
        <time>2019-03-31T08:38:50Z</time>
      </trkpt>
      <trkpt lat="44.87112" lon="5.10355">
        <ele>475.03</ele>
        <time>2019-03-31T08:38:52Z</time>
      </trkpt>
      <trkpt lat="44.871" lon="5.10361">
        <ele>476.95</ele>
        <time>2019-03-31T08:39:06Z</time>
      </trkpt>
      <trkpt lat="44.87091" lon="5.10365">
        <ele>478.39</ele>
        <time>2019-03-31T08:39:22Z</time>
      </trkpt>
      <trkpt lat="44.87082" lon="5.10368">
        <ele>481.28</ele>
        <time>2019-03-31T08:39:35Z</time>
      </trkpt>
      <trkpt lat="44.8707" lon="5.10375">
        <ele>483.68</ele>
        <time>2019-03-31T08:39:50Z</time>
      </trkpt>
      <trkpt lat="44.87062" lon="5.10383">
        <ele>485.6</ele>
        <time>2019-03-31T08:40:02Z</time>
      </trkpt>
      <trkpt lat="44.87053" lon="5.10394">
        <ele>487.53</ele>
        <time>2019-03-31T08:40:16Z</time>
      </trkpt>
      <trkpt lat="44.87043" lon="5.10407">
        <ele>489.93</ele>
        <time>2019-03-31T08:40:29Z</time>
      </trkpt>
      <trkpt lat="44.87034" lon="5.10421">
        <ele>492.33</ele>
        <time>2019-03-31T08:40:43Z</time>
      </trkpt>
      <trkpt lat="44.87031" lon="5.10436">
        <ele>494.26</ele>
        <time>2019-03-31T08:40:57Z</time>
      </trkpt>
      <trkpt lat="44.8703" lon="5.10438">
        <ele>495.22</ele>
        <time>2019-03-31T08:40:59Z</time>
      </trkpt>
      <trkpt lat="44.87027" lon="5.10457">
        <ele>497.14</ele>
        <time>2019-03-31T08:41:12Z</time>
      </trkpt>
      <trkpt lat="44.87029" lon="5.10476">
        <ele>500.02</ele>
        <time>2019-03-31T08:41:25Z</time>
      </trkpt>
      <trkpt lat="44.8703" lon="5.10492">
        <ele>502.43</ele>
        <time>2019-03-31T08:41:39Z</time>
      </trkpt>
      <trkpt lat="44.87031" lon="5.10504">
        <ele>504.35</ele>
        <time>2019-03-31T08:41:52Z</time>
      </trkpt>
      <trkpt lat="44.87033" lon="5.10516">
        <ele>506.75</ele>
        <time>2019-03-31T08:42:05Z</time>
      </trkpt>
      <trkpt lat="44.87035" lon="5.10527">
        <ele>510.12</ele>
        <time>2019-03-31T08:42:19Z</time>
      </trkpt>
      <trkpt lat="44.87041" lon="5.10537">
        <ele>512.52</ele>
        <time>2019-03-31T08:42:35Z</time>
      </trkpt>
      <trkpt lat="44.87045" lon="5.10547">
        <ele>515.4</ele>
        <time>2019-03-31T08:42:49Z</time>
      </trkpt>
      <trkpt lat="44.8705" lon="5.10554">
        <ele>518.29</ele>
        <time>2019-03-31T08:43:04Z</time>
      </trkpt>
      <trkpt lat="44.87056" lon="5.10564">
        <ele>521.65</ele>
        <time>2019-03-31T08:43:18Z</time>
      </trkpt>
      <trkpt lat="44.87058" lon="5.10577">
        <ele>523.58</ele>
        <time>2019-03-31T08:43:32Z</time>
      </trkpt>
      <trkpt lat="44.87055" lon="5.10588">
        <ele>525.98</ele>
        <time>2019-03-31T08:43:46Z</time>
      </trkpt>
      <trkpt lat="44.87052" lon="5.10597">
        <ele>528.86</ele>
        <time>2019-03-31T08:44:00Z</time>
      </trkpt>
      <trkpt lat="44.87049" lon="5.10608">
        <ele>530.79</ele>
        <time>2019-03-31T08:44:15Z</time>
      </trkpt>
      <trkpt lat="44.87044" lon="5.10617">
        <ele>533.67</ele>
        <time>2019-03-31T08:44:30Z</time>
      </trkpt>
      <trkpt lat="44.87042" lon="5.10629">
        <ele>536.55</ele>
        <time>2019-03-31T08:44:46Z</time>
      </trkpt>
      <trkpt lat="44.87036" lon="5.10639">
        <ele>539.44</ele>
        <time>2019-03-31T08:45:02Z</time>
      </trkpt>
      <trkpt lat="44.87034" lon="5.10648">
        <ele>542.32</ele>
        <time>2019-03-31T08:45:17Z</time>
      </trkpt>
      <trkpt lat="44.8703" lon="5.10658">
        <ele>544.72</ele>
        <time>2019-03-31T08:45:31Z</time>
      </trkpt>
      <trkpt lat="44.87028" lon="5.10668">
        <ele>547.61</ele>
        <time>2019-03-31T08:45:47Z</time>
      </trkpt>
      <trkpt lat="44.87025" lon="5.10677">
        <ele>549.05</ele>
        <time>2019-03-31T08:46:00Z</time>
      </trkpt>
      <trkpt lat="44.87024" lon="5.10687">
        <ele>551.93</ele>
        <time>2019-03-31T08:46:13Z</time>
      </trkpt>
      <trkpt lat="44.87023" lon="5.10698">
        <ele>554.34</ele>
        <time>2019-03-31T08:46:28Z</time>
      </trkpt>
      <trkpt lat="44.8702" lon="5.1071">
        <ele>557.22</ele>
        <time>2019-03-31T08:46:44Z</time>
      </trkpt>
      <trkpt lat="44.87019" lon="5.10719">
        <ele>560.11</ele>
        <time>2019-03-31T08:46:58Z</time>
      </trkpt>
      <trkpt lat="44.87017" lon="5.10728">
        <ele>562.51</ele>
        <time>2019-03-31T08:47:13Z</time>
      </trkpt>
      <trkpt lat="44.87014" lon="5.10736">
        <ele>565.39</ele>
        <time>2019-03-31T08:47:28Z</time>
      </trkpt>
      <trkpt lat="44.8701" lon="5.10747">
        <ele>567.32</ele>
        <time>2019-03-31T08:47:42Z</time>
      </trkpt>
      <trkpt lat="44.87009" lon="5.10754">
        <ele>570.2</ele>
        <time>2019-03-31T08:47:57Z</time>
      </trkpt>
      <trkpt lat="44.87006" lon="5.10762">
        <ele>572.12</ele>
        <time>2019-03-31T08:48:11Z</time>
      </trkpt>
      <trkpt lat="44.87007" lon="5.10773">
        <ele>575.49</ele>
        <time>2019-03-31T08:48:28Z</time>
      </trkpt>
      <trkpt lat="44.87007" lon="5.10779">
        <ele>577.89</ele>
        <time>2019-03-31T08:48:44Z</time>
      </trkpt>
      <trkpt lat="44.87007" lon="5.10786">
        <ele>580.77</ele>
        <time>2019-03-31T08:48:59Z</time>
      </trkpt>
      <trkpt lat="44.87004" lon="5.10797">
        <ele>583.66</ele>
        <time>2019-03-31T08:49:14Z</time>
      </trkpt>
      <trkpt lat="44.87002" lon="5.10804">
        <ele>586.06</ele>
        <time>2019-03-31T08:49:27Z</time>
      </trkpt>
      <trkpt lat="44.86999" lon="5.10806">
        <ele>587.98</ele>
        <time>2019-03-31T08:49:38Z</time>
      </trkpt>
      <trkpt lat="44.86995" lon="5.10815">
        <ele>590.87</ele>
        <time>2019-03-31T08:49:53Z</time>
      </trkpt>
      <trkpt lat="44.86994" lon="5.10825">
        <ele>593.75</ele>
        <time>2019-03-31T08:50:06Z</time>
      </trkpt>
      <trkpt lat="44.8699" lon="5.10835">
        <ele>596.64</ele>
        <time>2019-03-31T08:50:23Z</time>
      </trkpt>
      <trkpt lat="44.86989" lon="5.10835">
        <ele>597.12</ele>
        <time>2019-03-31T08:50:27Z</time>
      </trkpt>
      <trkpt lat="44.86986" lon="5.10844">
        <ele>599.52</ele>
        <time>2019-03-31T08:50:41Z</time>
      </trkpt>
      <trkpt lat="44.86984" lon="5.10851">
        <ele>602.4</ele>
        <time>2019-03-31T08:50:56Z</time>
      </trkpt>
      <trkpt lat="44.8698" lon="5.10861">
        <ele>604.81</ele>
        <time>2019-03-31T08:51:10Z</time>
      </trkpt>
      <trkpt lat="44.8698" lon="5.1087">
        <ele>608.17</ele>
        <time>2019-03-31T08:51:26Z</time>
      </trkpt>
      <trkpt lat="44.86977" lon="5.10876">
        <ele>611.54</ele>
        <time>2019-03-31T08:51:41Z</time>
      </trkpt>
      <trkpt lat="44.86974" lon="5.10886">
        <ele>614.42</ele>
        <time>2019-03-31T08:52:00Z</time>
      </trkpt>
      <trkpt lat="44.86973" lon="5.10892">
        <ele>617.3</ele>
        <time>2019-03-31T08:52:14Z</time>
      </trkpt>
      <trkpt lat="44.8697" lon="5.10899">
        <ele>620.19</ele>
        <time>2019-03-31T08:52:30Z</time>
      </trkpt>
      <trkpt lat="44.86973" lon="5.10907">
        <ele>622.59</ele>
        <time>2019-03-31T08:52:43Z</time>
      </trkpt>
      <trkpt lat="44.86974" lon="5.10916">
        <ele>625.47</ele>
        <time>2019-03-31T08:52:57Z</time>
      </trkpt>
      <trkpt lat="44.86973" lon="5.10928">
        <ele>628.36</ele>
        <time>2019-03-31T08:53:13Z</time>
      </trkpt>
      <trkpt lat="44.8697" lon="5.10936">
        <ele>629.8</ele>
        <time>2019-03-31T08:53:25Z</time>
      </trkpt>
      <trkpt lat="44.8697" lon="5.10938">
        <ele>633.17</ele>
        <time>2019-03-31T08:53:39Z</time>
      </trkpt>
      <trkpt lat="44.86973" lon="5.10948">
        <ele>635.09</ele>
        <time>2019-03-31T08:53:55Z</time>
      </trkpt>
      <trkpt lat="44.86972" lon="5.10954">
        <ele>637.49</ele>
        <time>2019-03-31T08:54:10Z</time>
      </trkpt>
      <trkpt lat="44.8697" lon="5.10959">
        <ele>639.89</ele>
        <time>2019-03-31T08:54:27Z</time>
      </trkpt>
      <trkpt lat="44.8697" lon="5.10961">
        <ele>642.3</ele>
        <time>2019-03-31T08:54:43Z</time>
      </trkpt>
      <trkpt lat="44.86969" lon="5.1097">
        <ele>643.74</ele>
        <time>2019-03-31T08:54:58Z</time>
      </trkpt>
      <trkpt lat="44.86974" lon="5.10974">
        <ele>645.18</ele>
        <time>2019-03-31T09:04:00Z</time>
      </trkpt>
      <trkpt lat="44.86981" lon="5.10989">
        <ele>647.59</ele>
        <time>2019-03-31T09:04:17Z</time>
      </trkpt>
      <trkpt lat="44.86983" lon="5.11005">
        <ele>649.03</ele>
        <time>2019-03-31T09:04:30Z</time>
      </trkpt>
      <trkpt lat="44.86989" lon="5.11016">
        <ele>650.95</ele>
        <time>2019-03-31T09:04:43Z</time>
      </trkpt>
      <trkpt lat="44.87002" lon="5.11022">
        <ele>652.39</ele>
        <time>2019-03-31T09:04:55Z</time>
      </trkpt>
      <trkpt lat="44.87014" lon="5.11029">
        <ele>654.31</ele>
        <time>2019-03-31T09:05:09Z</time>
      </trkpt>
      <trkpt lat="44.87021" lon="5.11041">
        <ele>656.24</ele>
        <time>2019-03-31T09:05:24Z</time>
      </trkpt>
      <trkpt lat="44.87024" lon="5.11048">
        <ele>657.2</ele>
        <time>2019-03-31T09:05:31Z</time>
      </trkpt>
      <trkpt lat="44.87032" lon="5.11058">
        <ele>659.12</ele>
        <time>2019-03-31T09:05:43Z</time>
      </trkpt>
      <trkpt lat="44.87039" lon="5.11065">
        <ele>660.56</ele>
        <time>2019-03-31T09:05:54Z</time>
      </trkpt>
      <trkpt lat="44.87047" lon="5.11073">
        <ele>662.01</ele>
        <time>2019-03-31T09:06:07Z</time>
      </trkpt>
      <trkpt lat="44.87062" lon="5.11079">
        <ele>663.45</ele>
        <time>2019-03-31T09:06:22Z</time>
      </trkpt>
      <trkpt lat="44.87074" lon="5.11091">
        <ele>665.85</ele>
        <time>2019-03-31T09:06:37Z</time>
      </trkpt>
      <trkpt lat="44.87083" lon="5.11097">
        <ele>667.29</ele>
        <time>2019-03-31T09:06:49Z</time>
      </trkpt>
      <trkpt lat="44.87094" lon="5.11102">
        <ele>668.25</ele>
        <time>2019-03-31T09:07:02Z</time>
      </trkpt>
      <trkpt lat="44.87101" lon="5.11112">
        <ele>669.7</ele>
        <time>2019-03-31T09:07:15Z</time>
      </trkpt>
      <trkpt lat="44.87103" lon="5.11114">
        <ele>669.7</ele>
        <time>2019-03-31T09:07:18Z</time>
      </trkpt>
      <trkpt lat="44.87111" lon="5.11126">
        <ele>671.14</ele>
        <time>2019-03-31T09:07:29Z</time>
      </trkpt>
      <trkpt lat="44.87115" lon="5.11139">
        <ele>672.58</ele>
        <time>2019-03-31T09:07:42Z</time>
      </trkpt>
      <trkpt lat="44.87123" lon="5.11143">
        <ele>674.02</ele>
        <time>2019-03-31T09:07:51Z</time>
      </trkpt>
      <trkpt lat="44.87138" lon="5.11146">
        <ele>675.46</ele>
        <time>2019-03-31T09:08:04Z</time>
      </trkpt>
      <trkpt lat="44.87147" lon="5.11154">
        <ele>676.42</ele>
        <time>2019-03-31T09:08:16Z</time>
      </trkpt>
      <trkpt lat="44.87157" lon="5.11164">
        <ele>678.35</ele>
        <time>2019-03-31T09:08:30Z</time>
      </trkpt>
      <trkpt lat="44.87173" lon="5.11173">
        <ele>680.75</ele>
        <time>2019-03-31T09:08:48Z</time>
      </trkpt>
      <trkpt lat="44.87183" lon="5.11186">
        <ele>682.19</ele>
        <time>2019-03-31T09:09:01Z</time>
      </trkpt>
      <trkpt lat="44.87189" lon="5.11192">
        <ele>683.15</ele>
        <time>2019-03-31T09:09:09Z</time>
      </trkpt>
      <trkpt lat="44.87198" lon="5.11205">
        <ele>684.6</ele>
        <time>2019-03-31T09:09:23Z</time>
      </trkpt>
      <trkpt lat="44.87212" lon="5.11217">
        <ele>686.52</ele>
        <time>2019-03-31T09:09:38Z</time>
      </trkpt>
      <trkpt lat="44.87225" lon="5.11231">
        <ele>688.44</ele>
        <time>2019-03-31T09:09:53Z</time>
      </trkpt>
      <trkpt lat="44.87231" lon="5.11238">
        <ele>689.88</ele>
        <time>2019-03-31T09:10:02Z</time>
      </trkpt>
      <trkpt lat="44.8724" lon="5.11245">
        <ele>691.81</ele>
        <time>2019-03-31T09:10:14Z</time>
      </trkpt>
      <trkpt lat="44.87248" lon="5.11252">
        <ele>693.25</ele>
        <time>2019-03-31T09:10:26Z</time>
      </trkpt>
      <trkpt lat="44.87251" lon="5.11258">
        <ele>693.25</ele>
        <time>2019-03-31T09:10:40Z</time>
      </trkpt>
      <trkpt lat="44.87255" lon="5.11255">
        <ele>693.25</ele>
        <time>2019-03-31T09:10:54Z</time>
      </trkpt>
      <trkpt lat="44.87259" lon="5.11263">
        <ele>693.73</ele>
        <time>2019-03-31T09:11:06Z</time>
      </trkpt>
      <trkpt lat="44.87264" lon="5.11273">
        <ele>696.13</ele>
        <time>2019-03-31T09:11:20Z</time>
      </trkpt>
      <trkpt lat="44.8727" lon="5.11285">
        <ele>699.02</ele>
        <time>2019-03-31T09:11:34Z</time>
      </trkpt>
      <trkpt lat="44.87273" lon="5.11296">
        <ele>701.42</ele>
        <time>2019-03-31T09:11:48Z</time>
      </trkpt>
      <trkpt lat="44.87276" lon="5.11309">
        <ele>704.3</ele>
        <time>2019-03-31T09:12:06Z</time>
      </trkpt>
      <trkpt lat="44.87277" lon="5.11318">
        <ele>706.71</ele>
        <time>2019-03-31T09:12:19Z</time>
      </trkpt>
      <trkpt lat="44.87277" lon="5.11334">
        <ele>709.59</ele>
        <time>2019-03-31T09:12:35Z</time>
      </trkpt>
      <trkpt lat="44.87281" lon="5.11346">
        <ele>712.47</ele>
        <time>2019-03-31T09:12:52Z</time>
      </trkpt>
      <trkpt lat="44.87284" lon="5.11356">
        <ele>714.4</ele>
        <time>2019-03-31T09:13:05Z</time>
      </trkpt>
      <trkpt lat="44.87284" lon="5.11371">
        <ele>716.8</ele>
        <time>2019-03-31T09:13:21Z</time>
      </trkpt>
      <trkpt lat="44.87285" lon="5.11382">
        <ele>720.16</ele>
        <time>2019-03-31T09:13:37Z</time>
      </trkpt>
      <trkpt lat="44.87289" lon="5.11397">
        <ele>723.05</ele>
        <time>2019-03-31T09:13:53Z</time>
      </trkpt>
      <trkpt lat="44.8729" lon="5.11407">
        <ele>724.01</ele>
        <time>2019-03-31T09:14:04Z</time>
      </trkpt>
      <trkpt lat="44.87295" lon="5.11417">
        <ele>725.45</ele>
        <time>2019-03-31T09:14:18Z</time>
      </trkpt>
      <trkpt lat="44.87295" lon="5.11424">
        <ele>725.93</ele>
        <time>2019-03-31T09:14:24Z</time>
      </trkpt>
      <trkpt lat="44.873" lon="5.11444">
        <ele>726.89</ele>
        <time>2019-03-31T09:14:38Z</time>
      </trkpt>
      <trkpt lat="44.87301" lon="5.11449">
        <ele>726.89</ele>
        <time>2019-03-31T09:14:41Z</time>
      </trkpt>
      <trkpt lat="44.87304" lon="5.11463">
        <ele>727.86</ele>
        <time>2019-03-31T09:14:53Z</time>
      </trkpt>
      <trkpt lat="44.87309" lon="5.11479">
        <ele>728.34</ele>
        <time>2019-03-31T09:15:06Z</time>
      </trkpt>
      <trkpt lat="44.87313" lon="5.11493">
        <ele>730.74</ele>
        <time>2019-03-31T09:15:18Z</time>
      </trkpt>
      <trkpt lat="44.87314" lon="5.1151">
        <ele>732.66</ele>
        <time>2019-03-31T09:15:32Z</time>
      </trkpt>
      <trkpt lat="44.87316" lon="5.11523">
        <ele>735.07</ele>
        <time>2019-03-31T09:15:46Z</time>
      </trkpt>
      <trkpt lat="44.87314" lon="5.11538">
        <ele>737.95</ele>
        <time>2019-03-31T09:15:59Z</time>
      </trkpt>
      <trkpt lat="44.87313" lon="5.11552">
        <ele>739.87</ele>
        <time>2019-03-31T09:16:13Z</time>
      </trkpt>
      <trkpt lat="44.87311" lon="5.11558">
        <ele>741.79</ele>
        <time>2019-03-31T09:16:26Z</time>
      </trkpt>
      <trkpt lat="44.87308" lon="5.11564">
        <ele>743.72</ele>
        <time>2019-03-31T09:16:39Z</time>
      </trkpt>
      <trkpt lat="44.87306" lon="5.11574">
        <ele>746.12</ele>
        <time>2019-03-31T09:16:54Z</time>
      </trkpt>
      <trkpt lat="44.87306" lon="5.1159">
        <ele>749</ele>
        <time>2019-03-31T09:17:10Z</time>
      </trkpt>
      <trkpt lat="44.87307" lon="5.11603">
        <ele>751.89</ele>
        <time>2019-03-31T09:17:24Z</time>
      </trkpt>
      <trkpt lat="44.87306" lon="5.11609">
        <ele>754.77</ele>
        <time>2019-03-31T09:17:42Z</time>
      </trkpt>
      <trkpt lat="44.87303" lon="5.11604">
        <ele>757.18</ele>
        <time>2019-03-31T09:17:55Z</time>
      </trkpt>
      <trkpt lat="44.87299" lon="5.11604">
        <ele>759.58</ele>
        <time>2019-03-31T09:18:09Z</time>
      </trkpt>
      <trkpt lat="44.87297" lon="5.1161">
        <ele>761.98</ele>
        <time>2019-03-31T09:18:24Z</time>
      </trkpt>
      <trkpt lat="44.87297" lon="5.11617">
        <ele>764.39</ele>
        <time>2019-03-31T09:18:38Z</time>
      </trkpt>
      <trkpt lat="44.87298" lon="5.11626">
        <ele>766.79</ele>
        <time>2019-03-31T09:18:55Z</time>
      </trkpt>
      <trkpt lat="44.87302" lon="5.1164">
        <ele>769.67</ele>
        <time>2019-03-31T09:19:11Z</time>
      </trkpt>
      <trkpt lat="44.87311" lon="5.11652">
        <ele>772.08</ele>
        <time>2019-03-31T09:19:29Z</time>
      </trkpt>
      <trkpt lat="44.87322" lon="5.11658">
        <ele>774.48</ele>
        <time>2019-03-31T09:19:44Z</time>
      </trkpt>
      <trkpt lat="44.87325" lon="5.11664">
        <ele>777.36</ele>
        <time>2019-03-31T09:19:58Z</time>
      </trkpt>
      <trkpt lat="44.87332" lon="5.11667">
        <ele>779.77</ele>
        <time>2019-03-31T09:20:12Z</time>
      </trkpt>
      <trkpt lat="44.87335" lon="5.11681">
        <ele>782.65</ele>
        <time>2019-03-31T09:20:28Z</time>
      </trkpt>
      <trkpt lat="44.87337" lon="5.11689">
        <ele>786.02</ele>
        <time>2019-03-31T09:20:44Z</time>
      </trkpt>
      <trkpt lat="44.87337" lon="5.11701">
        <ele>788.42</ele>
        <time>2019-03-31T09:21:00Z</time>
      </trkpt>
      <trkpt lat="44.87335" lon="5.11711">
        <ele>791.78</ele>
        <time>2019-03-31T09:21:16Z</time>
      </trkpt>
      <trkpt lat="44.87334" lon="5.1172">
        <ele>794.19</ele>
        <time>2019-03-31T09:21:33Z</time>
      </trkpt>
      <trkpt lat="44.87334" lon="5.11739">
        <ele>796.59</ele>
        <time>2019-03-31T09:21:52Z</time>
      </trkpt>
      <trkpt lat="44.87333" lon="5.11754">
        <ele>798.99</ele>
        <time>2019-03-31T09:22:10Z</time>
      </trkpt>
      <trkpt lat="44.87332" lon="5.11768">
        <ele>801.4</ele>
        <time>2019-03-31T09:22:26Z</time>
      </trkpt>
      <trkpt lat="44.87329" lon="5.11779">
        <ele>803.32</ele>
        <time>2019-03-31T09:22:40Z</time>
      </trkpt>
      <trkpt lat="44.8733" lon="5.11791">
        <ele>805.72</ele>
        <time>2019-03-31T09:22:54Z</time>
      </trkpt>
      <trkpt lat="44.8733" lon="5.11806">
        <ele>808.13</ele>
        <time>2019-03-31T09:23:09Z</time>
      </trkpt>
      <trkpt lat="44.87325" lon="5.11818">
        <ele>811.01</ele>
        <time>2019-03-31T09:23:25Z</time>
      </trkpt>
      <trkpt lat="44.87324" lon="5.11831">
        <ele>813.41</ele>
        <time>2019-03-31T09:23:39Z</time>
      </trkpt>
      <trkpt lat="44.87322" lon="5.11843">
        <ele>815.82</ele>
        <time>2019-03-31T09:23:54Z</time>
      </trkpt>
      <trkpt lat="44.87322" lon="5.11844">
        <ele>818.22</ele>
        <time>2019-03-31T09:24:08Z</time>
      </trkpt>
      <trkpt lat="44.87316" lon="5.11839">
        <ele>820.62</ele>
        <time>2019-03-31T09:24:23Z</time>
      </trkpt>
      <trkpt lat="44.8731" lon="5.11841">
        <ele>823.51</ele>
        <time>2019-03-31T09:24:40Z</time>
      </trkpt>
      <trkpt lat="44.87303" lon="5.11838">
        <ele>826.39</ele>
        <time>2019-03-31T09:24:55Z</time>
      </trkpt>
      <trkpt lat="44.87303" lon="5.1185">
        <ele>832.64</ele>
        <time>2019-03-31T09:25:36Z</time>
      </trkpt>
      <trkpt lat="44.87306" lon="5.11856">
        <ele>834.56</ele>
        <time>2019-03-31T09:25:48Z</time>
      </trkpt>
      <trkpt lat="44.87304" lon="5.1186">
        <ele>834.56</ele>
        <time>2019-03-31T09:26:03Z</time>
      </trkpt>
      <trkpt lat="44.87302" lon="5.11861">
        <ele>835.52</ele>
        <time>2019-03-31T09:26:15Z</time>
      </trkpt>
      <trkpt lat="44.87295" lon="5.11861">
        <ele>836.96</ele>
        <time>2019-03-31T09:26:28Z</time>
      </trkpt>
      <trkpt lat="44.87295" lon="5.11873">
        <ele>837.45</ele>
        <time>2019-03-31T09:26:44Z</time>
      </trkpt>
      <trkpt lat="44.8729" lon="5.11879">
        <ele>837.93</ele>
        <time>2019-03-31T09:26:57Z</time>
      </trkpt>
      <trkpt lat="44.87283" lon="5.11883">
        <ele>838.89</ele>
        <time>2019-03-31T09:27:11Z</time>
      </trkpt>
      <trkpt lat="44.87279" lon="5.11886">
        <ele>839.85</ele>
        <time>2019-03-31T09:27:27Z</time>
      </trkpt>
      <trkpt lat="44.87277" lon="5.11891">
        <ele>839.37</ele>
        <time>2019-03-31T09:35:07Z</time>
      </trkpt>
      <trkpt lat="44.87271" lon="5.11899">
        <ele>839.37</ele>
        <time>2019-03-31T09:35:21Z</time>
      </trkpt>
      <trkpt lat="44.87264" lon="5.1191">
        <ele>840.81</ele>
        <time>2019-03-31T09:35:36Z</time>
      </trkpt>
      <trkpt lat="44.87261" lon="5.11917">
        <ele>840.81</ele>
        <time>2019-03-31T09:35:43Z</time>
      </trkpt>
      <trkpt lat="44.87245" lon="5.11922">
        <ele>841.77</ele>
        <time>2019-03-31T09:35:58Z</time>
      </trkpt>
      <trkpt lat="44.87231" lon="5.11929">
        <ele>842.25</ele>
        <time>2019-03-31T09:36:12Z</time>
      </trkpt>
      <trkpt lat="44.87213" lon="5.11933">
        <ele>843.21</ele>
        <time>2019-03-31T09:36:28Z</time>
      </trkpt>
      <trkpt lat="44.87199" lon="5.11937">
        <ele>844.66</ele>
        <time>2019-03-31T09:36:42Z</time>
      </trkpt>
      <trkpt lat="44.87187" lon="5.11936">
        <ele>846.58</ele>
        <time>2019-03-31T09:36:56Z</time>
      </trkpt>
      <trkpt lat="44.87173" lon="5.11936">
        <ele>848.98</ele>
        <time>2019-03-31T09:37:10Z</time>
      </trkpt>
      <trkpt lat="44.87167" lon="5.11937">
        <ele>849.46</ele>
        <time>2019-03-31T09:37:16Z</time>
      </trkpt>
      <trkpt lat="44.87157" lon="5.1194">
        <ele>851.87</ele>
        <time>2019-03-31T09:37:28Z</time>
      </trkpt>
      <trkpt lat="44.87146" lon="5.11948">
        <ele>853.31</ele>
        <time>2019-03-31T09:37:42Z</time>
      </trkpt>
      <trkpt lat="44.87136" lon="5.11953">
        <ele>854.75</ele>
        <time>2019-03-31T09:37:55Z</time>
      </trkpt>
      <trkpt lat="44.87122" lon="5.11958">
        <ele>856.19</ele>
        <time>2019-03-31T09:38:10Z</time>
      </trkpt>
      <trkpt lat="44.87111" lon="5.11964">
        <ele>857.63</ele>
        <time>2019-03-31T09:38:25Z</time>
      </trkpt>
      <trkpt lat="44.87108" lon="5.11964">
        <ele>858.59</ele>
        <time>2019-03-31T09:38:30Z</time>
      </trkpt>
      <trkpt lat="44.87104" lon="5.11963">
        <ele>859.08</ele>
        <time>2019-03-31T09:38:34Z</time>
      </trkpt>
      <trkpt lat="44.87101" lon="5.11949">
        <ele>861.96</ele>
        <time>2019-03-31T09:38:49Z</time>
      </trkpt>
      <trkpt lat="44.87099" lon="5.11931">
        <ele>864.36</ele>
        <time>2019-03-31T09:39:05Z</time>
      </trkpt>
      <trkpt lat="44.87096" lon="5.11918">
        <ele>866.77</ele>
        <time>2019-03-31T09:39:19Z</time>
      </trkpt>
      <trkpt lat="44.87093" lon="5.11905">
        <ele>868.69</ele>
        <time>2019-03-31T09:39:34Z</time>
      </trkpt>
      <trkpt lat="44.87088" lon="5.11893">
        <ele>869.65</ele>
        <time>2019-03-31T09:39:48Z</time>
      </trkpt>
      <trkpt lat="44.87086" lon="5.11883">
        <ele>870.61</ele>
        <time>2019-03-31T09:40:03Z</time>
      </trkpt>
      <trkpt lat="44.87082" lon="5.11882">
        <ele>870.61</ele>
        <time>2019-03-31T09:40:23Z</time>
      </trkpt>
      <trkpt lat="44.87072" lon="5.11881">
        <ele>871.09</ele>
        <time>2019-03-31T09:40:33Z</time>
      </trkpt>
      <trkpt lat="44.87059" lon="5.11875">
        <ele>871.57</ele>
        <time>2019-03-31T09:40:43Z</time>
      </trkpt>
      <trkpt lat="44.87042" lon="5.11866">
        <ele>873.01</ele>
        <time>2019-03-31T09:40:58Z</time>
      </trkpt>
      <trkpt lat="44.87031" lon="5.11861">
        <ele>873.98</ele>
        <time>2019-03-31T09:41:10Z</time>
      </trkpt>
      <trkpt lat="44.87025" lon="5.11856">
        <ele>874.94</ele>
        <time>2019-03-31T09:41:17Z</time>
      </trkpt>
      <trkpt lat="44.87011" lon="5.11847">
        <ele>876.86</ele>
        <time>2019-03-31T09:41:32Z</time>
      </trkpt>
      <trkpt lat="44.87009" lon="5.11845">
        <ele>877.34</ele>
        <time>2019-03-31T09:41:35Z</time>
      </trkpt>
      <trkpt lat="44.86996" lon="5.11838">
        <ele>879.74</ele>
        <time>2019-03-31T09:41:50Z</time>
      </trkpt>
      <trkpt lat="44.86987" lon="5.11829">
        <ele>881.19</ele>
        <time>2019-03-31T09:42:04Z</time>
      </trkpt>
      <trkpt lat="44.86976" lon="5.1182">
        <ele>884.07</ele>
        <time>2019-03-31T09:42:20Z</time>
      </trkpt>
      <trkpt lat="44.86967" lon="5.11811">
        <ele>886.47</ele>
        <time>2019-03-31T09:42:35Z</time>
      </trkpt>
      <trkpt lat="44.86958" lon="5.11804">
        <ele>889.84</ele>
        <time>2019-03-31T09:42:52Z</time>
      </trkpt>
      <trkpt lat="44.8695" lon="5.11794">
        <ele>892.24</ele>
        <time>2019-03-31T09:43:05Z</time>
      </trkpt>
      <trkpt lat="44.86944" lon="5.11782">
        <ele>894.64</ele>
        <time>2019-03-31T09:43:18Z</time>
      </trkpt>
      <trkpt lat="44.86941" lon="5.11773">
        <ele>896.09</ele>
        <time>2019-03-31T09:43:27Z</time>
      </trkpt>
      <trkpt lat="44.86938" lon="5.11764">
        <ele>897.53</ele>
        <time>2019-03-31T09:43:35Z</time>
      </trkpt>
      <trkpt lat="44.86937" lon="5.11759">
        <ele>898.49</ele>
        <time>2019-03-31T09:43:40Z</time>
      </trkpt>
      <trkpt lat="44.8693" lon="5.11742">
        <ele>900.89</ele>
        <time>2019-03-31T09:43:57Z</time>
      </trkpt>
      <trkpt lat="44.86926" lon="5.11728">
        <ele>903.3</ele>
        <time>2019-03-31T09:44:12Z</time>
      </trkpt>
      <trkpt lat="44.86921" lon="5.11713">
        <ele>906.18</ele>
        <time>2019-03-31T09:44:28Z</time>
      </trkpt>
      <trkpt lat="44.86917" lon="5.11695">
        <ele>907.14</ele>
        <time>2019-03-31T09:44:43Z</time>
      </trkpt>
      <trkpt lat="44.86917" lon="5.11681">
        <ele>907.62</ele>
        <time>2019-03-31T09:44:57Z</time>
      </trkpt>
      <trkpt lat="44.86918" lon="5.11673">
        <ele>908.1</ele>
        <time>2019-03-31T09:45:14Z</time>
      </trkpt>
      <trkpt lat="44.86917" lon="5.11668">
        <ele>908.58</ele>
        <time>2019-03-31T09:46:56Z</time>
      </trkpt>
      <trkpt lat="44.86912" lon="5.11651">
        <ele>908.58</ele>
        <time>2019-03-31T09:47:10Z</time>
      </trkpt>
      <trkpt lat="44.86906" lon="5.11629">
        <ele>908.58</ele>
        <time>2019-03-31T09:47:25Z</time>
      </trkpt>
      <trkpt lat="44.86898" lon="5.11609">
        <ele>910.03</ele>
        <time>2019-03-31T09:47:39Z</time>
      </trkpt>
      <trkpt lat="44.86885" lon="5.11592">
        <ele>911.95</ele>
        <time>2019-03-31T09:47:55Z</time>
      </trkpt>
      <trkpt lat="44.86872" lon="5.11582">
        <ele>914.35</ele>
        <time>2019-03-31T09:48:10Z</time>
      </trkpt>
      <trkpt lat="44.86859" lon="5.11571">
        <ele>916.27</ele>
        <time>2019-03-31T09:48:26Z</time>
      </trkpt>
      <trkpt lat="44.86847" lon="5.11558">
        <ele>916.27</ele>
        <time>2019-03-31T09:48:41Z</time>
      </trkpt>
      <trkpt lat="44.86843" lon="5.11554">
        <ele>916.75</ele>
        <time>2019-03-31T09:48:58Z</time>
      </trkpt>
      <trkpt lat="44.86831" lon="5.11545">
        <ele>915.79</ele>
        <time>2019-03-31T09:49:12Z</time>
      </trkpt>
      <trkpt lat="44.86811" lon="5.11532">
        <ele>915.79</ele>
        <time>2019-03-31T09:49:30Z</time>
      </trkpt>
      <trkpt lat="44.86794" lon="5.11524">
        <ele>917.72</ele>
        <time>2019-03-31T09:49:47Z</time>
      </trkpt>
      <trkpt lat="44.86781" lon="5.11518">
        <ele>919.16</ele>
        <time>2019-03-31T09:50:01Z</time>
      </trkpt>
      <trkpt lat="44.86766" lon="5.11509">
        <ele>921.56</ele>
        <time>2019-03-31T09:50:18Z</time>
      </trkpt>
      <trkpt lat="44.8675" lon="5.115">
        <ele>923.96</ele>
        <time>2019-03-31T09:50:35Z</time>
      </trkpt>
      <trkpt lat="44.86746" lon="5.11498">
        <ele>924.93</ele>
        <time>2019-03-31T09:50:40Z</time>
      </trkpt>
      <trkpt lat="44.86732" lon="5.11495">
        <ele>927.33</ele>
        <time>2019-03-31T09:50:54Z</time>
      </trkpt>
      <trkpt lat="44.86718" lon="5.11493">
        <ele>929.25</ele>
        <time>2019-03-31T09:51:10Z</time>
      </trkpt>
      <trkpt lat="44.86705" lon="5.11494">
        <ele>932.14</ele>
        <time>2019-03-31T09:51:24Z</time>
      </trkpt>
      <trkpt lat="44.86692" lon="5.11492">
        <ele>933.1</ele>
        <time>2019-03-31T09:51:38Z</time>
      </trkpt>
      <trkpt lat="44.86679" lon="5.11487">
        <ele>935.02</ele>
        <time>2019-03-31T09:51:52Z</time>
      </trkpt>
      <trkpt lat="44.86666" lon="5.11486">
        <ele>935.98</ele>
        <time>2019-03-31T09:52:06Z</time>
      </trkpt>
      <trkpt lat="44.86657" lon="5.11488">
        <ele>936.94</ele>
        <time>2019-03-31T09:52:15Z</time>
      </trkpt>
      <trkpt lat="44.8664" lon="5.11489">
        <ele>939.35</ele>
        <time>2019-03-31T09:52:32Z</time>
      </trkpt>
      <trkpt lat="44.86627" lon="5.11488">
        <ele>940.79</ele>
        <time>2019-03-31T09:52:46Z</time>
      </trkpt>
      <trkpt lat="44.86613" lon="5.11488">
        <ele>942.23</ele>
        <time>2019-03-31T09:53:00Z</time>
      </trkpt>
      <trkpt lat="44.86602" lon="5.11489">
        <ele>942.71</ele>
        <time>2019-03-31T09:53:14Z</time>
      </trkpt>
      <trkpt lat="44.86599" lon="5.11487">
        <ele>943.19</ele>
        <time>2019-03-31T09:53:17Z</time>
      </trkpt>
      <trkpt lat="44.86585" lon="5.11485">
        <ele>945.11</ele>
        <time>2019-03-31T09:53:31Z</time>
      </trkpt>
      <trkpt lat="44.86583" lon="5.11484">
        <ele>945.11</ele>
        <time>2019-03-31T09:53:33Z</time>
      </trkpt>
      <trkpt lat="44.8657" lon="5.11481">
        <ele>946.56</ele>
        <time>2019-03-31T09:53:46Z</time>
      </trkpt>
      <trkpt lat="44.86559" lon="5.11477">
        <ele>947.52</ele>
        <time>2019-03-31T09:53:59Z</time>
      </trkpt>
      <trkpt lat="44.8655" lon="5.11485">
        <ele>949.44</ele>
        <time>2019-03-31T09:54:14Z</time>
      </trkpt>
      <trkpt lat="44.86539" lon="5.11485">
        <ele>950.88</ele>
        <time>2019-03-31T09:54:26Z</time>
      </trkpt>
      <trkpt lat="44.86527" lon="5.11479">
        <ele>951.84</ele>
        <time>2019-03-31T09:54:41Z</time>
      </trkpt>
      <trkpt lat="44.86519" lon="5.11474">
        <ele>952.32</ele>
        <time>2019-03-31T09:54:54Z</time>
      </trkpt>
      <trkpt lat="44.86507" lon="5.11472">
        <ele>952.8</ele>
        <time>2019-03-31T09:55:08Z</time>
      </trkpt>
      <trkpt lat="44.86494" lon="5.1147">
        <ele>953.28</ele>
        <time>2019-03-31T09:55:21Z</time>
      </trkpt>
      <trkpt lat="44.8648" lon="5.11468">
        <ele>953.77</ele>
        <time>2019-03-31T09:55:36Z</time>
      </trkpt>
      <trkpt lat="44.86469" lon="5.11463">
        <ele>953.77</ele>
        <time>2019-03-31T09:55:51Z</time>
      </trkpt>
      <trkpt lat="44.86459" lon="5.11463">
        <ele>955.21</ele>
        <time>2019-03-31T09:56:04Z</time>
      </trkpt>
      <trkpt lat="44.8645" lon="5.11461">
        <ele>955.69</ele>
        <time>2019-03-31T09:56:23Z</time>
      </trkpt>
      <trkpt lat="44.86447" lon="5.11463">
        <ele>956.17</ele>
        <time>2019-03-31T09:56:41Z</time>
      </trkpt>
      <trkpt lat="44.86441" lon="5.11467">
        <ele>957.61</ele>
        <time>2019-03-31T09:56:56Z</time>
      </trkpt>
      <trkpt lat="44.86437" lon="5.11464">
        <ele>958.57</ele>
        <time>2019-03-31T09:57:13Z</time>
      </trkpt>
      <trkpt lat="44.86431" lon="5.11466">
        <ele>962.42</ele>
        <time>2019-03-31T09:57:28Z</time>
      </trkpt>
      <trkpt lat="44.86425" lon="5.11469">
        <ele>964.82</ele>
        <time>2019-03-31T09:57:45Z</time>
      </trkpt>
      <trkpt lat="44.86423" lon="5.11468">
        <ele>964.34</ele>
        <time>2019-03-31T09:58:01Z</time>
      </trkpt>
      <trkpt lat="44.86423" lon="5.11469">
        <ele>964.82</ele>
        <time>2019-03-31T09:58:25Z</time>
      </trkpt>
      <trkpt lat="44.86419" lon="5.11475">
        <ele>967.22</ele>
        <time>2019-03-31T09:58:45Z</time>
      </trkpt>
      <trkpt lat="44.8642" lon="5.11482">
        <ele>970.59</ele>
        <time>2019-03-31T09:59:01Z</time>
      </trkpt>
      <trkpt lat="44.86419" lon="5.11487">
        <ele>972.51</ele>
        <time>2019-03-31T09:59:15Z</time>
      </trkpt>
      <trkpt lat="44.86419" lon="5.11494">
        <ele>973.47</ele>
        <time>2019-03-31T09:59:29Z</time>
      </trkpt>
      <trkpt lat="44.86418" lon="5.11502">
        <ele>975.39</ele>
        <time>2019-03-31T09:59:47Z</time>
      </trkpt>
      <trkpt lat="44.86418" lon="5.11511">
        <ele>976.36</ele>
        <time>2019-03-31T10:00:01Z</time>
      </trkpt>
      <trkpt lat="44.86419" lon="5.11513">
        <ele>976.84</ele>
        <time>2019-03-31T10:00:15Z</time>
      </trkpt>
      <trkpt lat="44.86418" lon="5.11514">
        <ele>976.84</ele>
        <time>2019-03-31T10:00:33Z</time>
      </trkpt>
      <trkpt lat="44.86417" lon="5.11516">
        <ele>976.84</ele>
        <time>2019-03-31T10:00:53Z</time>
      </trkpt>
      <trkpt lat="44.86414" lon="5.11517">
        <ele>976.84</ele>
        <time>2019-03-31T10:01:12Z</time>
      </trkpt>
      <trkpt lat="44.86414" lon="5.11518">
        <ele>976.84</ele>
        <time>2019-03-31T10:02:58Z</time>
      </trkpt>
      <trkpt lat="44.86414" lon="5.11521">
        <ele>976.84</ele>
        <time>2019-03-31T10:03:14Z</time>
      </trkpt>
      <trkpt lat="44.86414" lon="5.11523">
        <ele>975.88</ele>
        <time>2019-03-31T10:03:19Z</time>
      </trkpt>
      <trkpt lat="44.86417" lon="5.11526">
        <ele>975.39</ele>
        <time>2019-03-31T10:03:34Z</time>
      </trkpt>
      <trkpt lat="44.86416" lon="5.11533">
        <ele>973.95</ele>
        <time>2019-03-31T10:03:50Z</time>
      </trkpt>
      <trkpt lat="44.86416" lon="5.11543">
        <ele>972.03</ele>
        <time>2019-03-31T10:04:03Z</time>
      </trkpt>
      <trkpt lat="44.86412" lon="5.11552">
        <ele>971.07</ele>
        <time>2019-03-31T10:04:17Z</time>
      </trkpt>
      <trkpt lat="44.86404" lon="5.11555">
        <ele>970.59</ele>
        <time>2019-03-31T10:04:33Z</time>
      </trkpt>
      <trkpt lat="44.86394" lon="5.11559">
        <ele>969.63</ele>
        <time>2019-03-31T10:04:49Z</time>
      </trkpt>
      <trkpt lat="44.86388" lon="5.11557">
        <ele>969.15</ele>
        <time>2019-03-31T10:05:02Z</time>
      </trkpt>
      <trkpt lat="44.86371" lon="5.11557">
        <ele>968.18</ele>
        <time>2019-03-31T10:05:18Z</time>
      </trkpt>
      <trkpt lat="44.8636" lon="5.11548">
        <ele>967.7</ele>
        <time>2019-03-31T10:05:32Z</time>
      </trkpt>
      <trkpt lat="44.86352" lon="5.11547">
        <ele>967.7</ele>
        <time>2019-03-31T10:05:39Z</time>
      </trkpt>
      <trkpt lat="44.86338" lon="5.11547">
        <ele>966.74</ele>
        <time>2019-03-31T10:05:54Z</time>
      </trkpt>
      <trkpt lat="44.86323" lon="5.11548">
        <ele>965.3</ele>
        <time>2019-03-31T10:06:08Z</time>
      </trkpt>
      <trkpt lat="44.86314" lon="5.11551">
        <ele>963.38</ele>
        <time>2019-03-31T10:06:19Z</time>
      </trkpt>
      <trkpt lat="44.86298" lon="5.11543">
        <ele>962.9</ele>
        <time>2019-03-31T10:06:35Z</time>
      </trkpt>
      <trkpt lat="44.86277" lon="5.11536">
        <ele>962.42</ele>
        <time>2019-03-31T10:06:53Z</time>
      </trkpt>
      <trkpt lat="44.86262" lon="5.11529">
        <ele>961.94</ele>
        <time>2019-03-31T10:07:08Z</time>
      </trkpt>
      <trkpt lat="44.8625" lon="5.11528">
        <ele>961.46</ele>
        <time>2019-03-31T10:07:19Z</time>
      </trkpt>
      <trkpt lat="44.86236" lon="5.11527">
        <ele>960.01</ele>
        <time>2019-03-31T10:07:35Z</time>
      </trkpt>
      <trkpt lat="44.86235" lon="5.11528">
        <ele>959.53</ele>
        <time>2019-03-31T10:07:37Z</time>
      </trkpt>
      <trkpt lat="44.86226" lon="5.11531">
        <ele>958.09</ele>
        <time>2019-03-31T10:07:46Z</time>
      </trkpt>
      <trkpt lat="44.86206" lon="5.11528">
        <ele>956.17</ele>
        <time>2019-03-31T10:08:05Z</time>
      </trkpt>
      <trkpt lat="44.8619" lon="5.11517">
        <ele>955.21</ele>
        <time>2019-03-31T10:08:22Z</time>
      </trkpt>
      <trkpt lat="44.86186" lon="5.11515">
        <ele>954.73</ele>
        <time>2019-03-31T10:08:26Z</time>
      </trkpt>
      <trkpt lat="44.86166" lon="5.11512">
        <ele>951.84</ele>
        <time>2019-03-31T10:08:44Z</time>
      </trkpt>
      <trkpt lat="44.86149" lon="5.11508">
        <ele>950.4</ele>
        <time>2019-03-31T10:09:00Z</time>
      </trkpt>
      <trkpt lat="44.86147" lon="5.11508">
        <ele>950.4</ele>
        <time>2019-03-31T10:09:02Z</time>
      </trkpt>
      <trkpt lat="44.86143" lon="5.11508">
        <ele>949.92</ele>
        <time>2019-03-31T10:09:06Z</time>
      </trkpt>
      <trkpt lat="44.8612" lon="5.11504">
        <ele>948</ele>
        <time>2019-03-31T10:09:26Z</time>
      </trkpt>
      <trkpt lat="44.86103" lon="5.11501">
        <ele>946.07</ele>
        <time>2019-03-31T10:09:44Z</time>
      </trkpt>
      <trkpt lat="44.86096" lon="5.11497">
        <ele>944.63</ele>
        <time>2019-03-31T10:09:53Z</time>
      </trkpt>
      <trkpt lat="44.86094" lon="5.11491">
        <ele>944.15</ele>
        <time>2019-03-31T10:09:58Z</time>
      </trkpt>
      <trkpt lat="44.86077" lon="5.11491">
        <ele>941.27</ele>
        <time>2019-03-31T10:10:15Z</time>
      </trkpt>
      <trkpt lat="44.86065" lon="5.11488">
        <ele>939.35</ele>
        <time>2019-03-31T10:10:31Z</time>
      </trkpt>
      <trkpt lat="44.86049" lon="5.11485">
        <ele>936.94</ele>
        <time>2019-03-31T10:10:46Z</time>
      </trkpt>
      <trkpt lat="44.86042" lon="5.11489">
        <ele>936.46</ele>
        <time>2019-03-31T10:10:53Z</time>
      </trkpt>
      <trkpt lat="44.86029" lon="5.11486">
        <ele>934.54</ele>
        <time>2019-03-31T10:11:07Z</time>
      </trkpt>
      <trkpt lat="44.86014" lon="5.11479">
        <ele>933.58</ele>
        <time>2019-03-31T10:11:22Z</time>
      </trkpt>
      <trkpt lat="44.85995" lon="5.11471">
        <ele>930.21</ele>
        <time>2019-03-31T10:11:39Z</time>
      </trkpt>
      <trkpt lat="44.85976" lon="5.11469">
        <ele>927.81</ele>
        <time>2019-03-31T10:11:57Z</time>
      </trkpt>
      <trkpt lat="44.85957" lon="5.11465">
        <ele>926.85</ele>
        <time>2019-03-31T10:12:15Z</time>
      </trkpt>
      <trkpt lat="44.85939" lon="5.11466">
        <ele>925.89</ele>
        <time>2019-03-31T10:12:31Z</time>
      </trkpt>
      <trkpt lat="44.85922" lon="5.11462">
        <ele>923.48</ele>
        <time>2019-03-31T10:12:50Z</time>
      </trkpt>
      <trkpt lat="44.85903" lon="5.11462">
        <ele>922.04</ele>
        <time>2019-03-31T10:13:08Z</time>
      </trkpt>
      <trkpt lat="44.85885" lon="5.1146">
        <ele>921.56</ele>
        <time>2019-03-31T10:13:26Z</time>
      </trkpt>
      <trkpt lat="44.85867" lon="5.1146">
        <ele>921.08</ele>
        <time>2019-03-31T10:13:41Z</time>
      </trkpt>
      <trkpt lat="44.85849" lon="5.11467">
        <ele>920.6</ele>
        <time>2019-03-31T10:13:57Z</time>
      </trkpt>
      <trkpt lat="44.85843" lon="5.11467">
        <ele>920.6</ele>
        <time>2019-03-31T10:14:04Z</time>
      </trkpt>
      <trkpt lat="44.85842" lon="5.11465">
        <ele>920.6</ele>
        <time>2019-03-31T10:14:06Z</time>
      </trkpt>
      <trkpt lat="44.85834" lon="5.11459">
        <ele>920.6</ele>
        <time>2019-03-31T10:14:15Z</time>
      </trkpt>
      <trkpt lat="44.85819" lon="5.11454">
        <ele>920.6</ele>
        <time>2019-03-31T10:14:30Z</time>
      </trkpt>
      <trkpt lat="44.85807" lon="5.11444">
        <ele>922.04</ele>
        <time>2019-03-31T10:14:44Z</time>
      </trkpt>
      <trkpt lat="44.85794" lon="5.11441">
        <ele>923.96</ele>
        <time>2019-03-31T10:14:58Z</time>
      </trkpt>
      <trkpt lat="44.85785" lon="5.11441">
        <ele>924.93</ele>
        <time>2019-03-31T10:15:15Z</time>
      </trkpt>
      <trkpt lat="44.85785" lon="5.11441">
        <ele>925.41</ele>
        <time>2019-03-31T10:15:32Z</time>
      </trkpt>
      <trkpt lat="44.85783" lon="5.11443">
        <ele>925.89</ele>
        <time>2019-03-31T10:15:44Z</time>
      </trkpt>
      <trkpt lat="44.85781" lon="5.11444">
        <ele>926.37</ele>
        <time>2019-03-31T10:15:46Z</time>
      </trkpt>
      <trkpt lat="44.85778" lon="5.11444">
        <ele>927.81</ele>
        <time>2019-03-31T10:15:50Z</time>
      </trkpt>
      <trkpt lat="44.85775" lon="5.11443">
        <ele>927.81</ele>
        <time>2019-03-31T10:15:54Z</time>
      </trkpt>
      <trkpt lat="44.85764" lon="5.11445">
        <ele>928.77</ele>
        <time>2019-03-31T10:16:10Z</time>
      </trkpt>
      <trkpt lat="44.85763" lon="5.11446">
        <ele>928.77</ele>
        <time>2019-03-31T10:16:38Z</time>
      </trkpt>
      <trkpt lat="44.85769" lon="5.11458">
        <ele>929.25</ele>
        <time>2019-03-31T10:16:57Z</time>
      </trkpt>
      <trkpt lat="44.85777" lon="5.11468">
        <ele>929.25</ele>
        <time>2019-03-31T10:17:12Z</time>
      </trkpt>
      <trkpt lat="44.85777" lon="5.11475">
        <ele>929.25</ele>
        <time>2019-03-31T10:17:24Z</time>
      </trkpt>
      <trkpt lat="44.85787" lon="5.11482">
        <ele>926.85</ele>
        <time>2019-03-31T10:17:38Z</time>
      </trkpt>
      <trkpt lat="44.85787" lon="5.11484">
        <ele>926.85</ele>
        <time>2019-03-31T10:17:40Z</time>
      </trkpt>
      <trkpt lat="44.85789" lon="5.11497">
        <ele>926.85</ele>
        <time>2019-03-31T10:17:51Z</time>
      </trkpt>
      <trkpt lat="44.85787" lon="5.11507">
        <ele>926.85</ele>
        <time>2019-03-31T10:17:59Z</time>
      </trkpt>
      <trkpt lat="44.85789" lon="5.11529">
        <ele>926.37</ele>
        <time>2019-03-31T10:18:16Z</time>
      </trkpt>
      <trkpt lat="44.85791" lon="5.11534">
        <ele>925.89</ele>
        <time>2019-03-31T10:18:31Z</time>
      </trkpt>
      <trkpt lat="44.858" lon="5.11548">
        <ele>924.93</ele>
        <time>2019-03-31T10:18:45Z</time>
      </trkpt>
      <trkpt lat="44.85812" lon="5.11569">
        <ele>922.04</ele>
        <time>2019-03-31T10:19:02Z</time>
      </trkpt>
      <trkpt lat="44.85823" lon="5.11587">
        <ele>919.16</ele>
        <time>2019-03-31T10:19:16Z</time>
      </trkpt>
      <trkpt lat="44.85824" lon="5.11589">
        <ele>918.68</ele>
        <time>2019-03-31T10:19:18Z</time>
      </trkpt>
      <trkpt lat="44.8583" lon="5.11597">
        <ele>917.72</ele>
        <time>2019-03-31T10:19:35Z</time>
      </trkpt>
      <trkpt lat="44.85841" lon="5.11612">
        <ele>916.75</ele>
        <time>2019-03-31T10:19:49Z</time>
      </trkpt>
      <trkpt lat="44.85857" lon="5.11631">
        <ele>914.83</ele>
        <time>2019-03-31T10:20:06Z</time>
      </trkpt>
      <trkpt lat="44.8586" lon="5.11633">
        <ele>914.83</ele>
        <time>2019-03-31T10:20:09Z</time>
      </trkpt>
      <trkpt lat="44.85866" lon="5.11639">
        <ele>914.35</ele>
        <time>2019-03-31T10:20:15Z</time>
      </trkpt>
      <trkpt lat="44.85884" lon="5.11665">
        <ele>912.91</ele>
        <time>2019-03-31T10:20:36Z</time>
      </trkpt>
      <trkpt lat="44.85898" lon="5.1168">
        <ele>912.43</ele>
        <time>2019-03-31T10:20:51Z</time>
      </trkpt>
      <trkpt lat="44.859" lon="5.117">
        <ele>912.43</ele>
        <time>2019-03-31T10:21:05Z</time>
      </trkpt>
      <trkpt lat="44.859" lon="5.11709">
        <ele>912.43</ele>
        <time>2019-03-31T10:21:11Z</time>
      </trkpt>
      <trkpt lat="44.85902" lon="5.1173">
        <ele>911.95</ele>
        <time>2019-03-31T10:21:25Z</time>
      </trkpt>
      <trkpt lat="44.8591" lon="5.11754">
        <ele>913.39</ele>
        <time>2019-03-31T10:21:40Z</time>
      </trkpt>
      <trkpt lat="44.85917" lon="5.11774">
        <ele>914.35</ele>
        <time>2019-03-31T10:21:55Z</time>
      </trkpt>
      <trkpt lat="44.85919" lon="5.11799">
        <ele>915.31</ele>
        <time>2019-03-31T10:22:10Z</time>
      </trkpt>
      <trkpt lat="44.85919" lon="5.11822">
        <ele>916.75</ele>
        <time>2019-03-31T10:22:26Z</time>
      </trkpt>
      <trkpt lat="44.85918" lon="5.11842">
        <ele>917.72</ele>
        <time>2019-03-31T10:22:39Z</time>
      </trkpt>
      <trkpt lat="44.85917" lon="5.11844">
        <ele>917.72</ele>
        <time>2019-03-31T10:22:41Z</time>
      </trkpt>
      <trkpt lat="44.85912" lon="5.11854">
        <ele>918.2</ele>
        <time>2019-03-31T10:22:55Z</time>
      </trkpt>
      <trkpt lat="44.85902" lon="5.11854">
        <ele>919.16</ele>
        <time>2019-03-31T10:24:49Z</time>
      </trkpt>
      <trkpt lat="44.85883" lon="5.11854">
        <ele>923</ele>
        <time>2019-03-31T10:25:06Z</time>
      </trkpt>
      <trkpt lat="44.85871" lon="5.11856">
        <ele>925.89</ele>
        <time>2019-03-31T10:25:23Z</time>
      </trkpt>
      <trkpt lat="44.85863" lon="5.11854">
        <ele>928.29</ele>
        <time>2019-03-31T10:25:37Z</time>
      </trkpt>
      <trkpt lat="44.85854" lon="5.11851">
        <ele>931.17</ele>
        <time>2019-03-31T10:25:52Z</time>
      </trkpt>
      <trkpt lat="44.85847" lon="5.11848">
        <ele>933.58</ele>
        <time>2019-03-31T10:26:07Z</time>
      </trkpt>
      <trkpt lat="44.85836" lon="5.11843">
        <ele>935.98</ele>
        <time>2019-03-31T10:26:22Z</time>
      </trkpt>
      <trkpt lat="44.85827" lon="5.11838">
        <ele>937.9</ele>
        <time>2019-03-31T10:26:37Z</time>
      </trkpt>
      <trkpt lat="44.85818" lon="5.11826">
        <ele>939.83</ele>
        <time>2019-03-31T10:26:55Z</time>
      </trkpt>
      <trkpt lat="44.85811" lon="5.11818">
        <ele>942.23</ele>
        <time>2019-03-31T10:27:08Z</time>
      </trkpt>
      <trkpt lat="44.85803" lon="5.11806">
        <ele>944.63</ele>
        <time>2019-03-31T10:27:23Z</time>
      </trkpt>
      <trkpt lat="44.85795" lon="5.11794">
        <ele>946.56</ele>
        <time>2019-03-31T10:27:37Z</time>
      </trkpt>
      <trkpt lat="44.85792" lon="5.1179">
        <ele>947.04</ele>
        <time>2019-03-31T10:27:41Z</time>
      </trkpt>
      <trkpt lat="44.85791" lon="5.11787">
        <ele>947.04</ele>
        <time>2019-03-31T10:27:44Z</time>
      </trkpt>
      <trkpt lat="44.85781" lon="5.11776">
        <ele>948.96</ele>
        <time>2019-03-31T10:27:57Z</time>
      </trkpt>
      <trkpt lat="44.85773" lon="5.11765">
        <ele>950.4</ele>
        <time>2019-03-31T10:28:10Z</time>
      </trkpt>
      <trkpt lat="44.85764" lon="5.11752">
        <ele>950.88</ele>
        <time>2019-03-31T10:28:23Z</time>
      </trkpt>
      <trkpt lat="44.85754" lon="5.11738">
        <ele>952.32</ele>
        <time>2019-03-31T10:28:37Z</time>
      </trkpt>
      <trkpt lat="44.85745" lon="5.11724">
        <ele>953.77</ele>
        <time>2019-03-31T10:28:50Z</time>
      </trkpt>
      <trkpt lat="44.85736" lon="5.11714">
        <ele>955.69</ele>
        <time>2019-03-31T10:29:03Z</time>
      </trkpt>
      <trkpt lat="44.85726" lon="5.11702">
        <ele>958.09</ele>
        <time>2019-03-31T10:29:19Z</time>
      </trkpt>
      <trkpt lat="44.85718" lon="5.11694">
        <ele>960.01</ele>
        <time>2019-03-31T10:29:35Z</time>
      </trkpt>
      <trkpt lat="44.85716" lon="5.11686">
        <ele>960.98</ele>
        <time>2019-03-31T10:29:50Z</time>
      </trkpt>
      <trkpt lat="44.8571" lon="5.11681">
        <ele>962.42</ele>
        <time>2019-03-31T10:30:04Z</time>
      </trkpt>
      <trkpt lat="44.85705" lon="5.11671">
        <ele>963.38</ele>
        <time>2019-03-31T10:30:17Z</time>
      </trkpt>
      <trkpt lat="44.85699" lon="5.11658">
        <ele>965.3</ele>
        <time>2019-03-31T10:30:33Z</time>
      </trkpt>
      <trkpt lat="44.85693" lon="5.11641">
        <ele>965.78</ele>
        <time>2019-03-31T10:30:47Z</time>
      </trkpt>
      <trkpt lat="44.85684" lon="5.11627">
        <ele>968.18</ele>
        <time>2019-03-31T10:31:03Z</time>
      </trkpt>
      <trkpt lat="44.85678" lon="5.11608">
        <ele>969.15</ele>
        <time>2019-03-31T10:31:18Z</time>
      </trkpt>
      <trkpt lat="44.85674" lon="5.11596">
        <ele>970.11</ele>
        <time>2019-03-31T10:31:32Z</time>
      </trkpt>
      <trkpt lat="44.85674" lon="5.11587">
        <ele>971.07</ele>
        <time>2019-03-31T10:31:48Z</time>
      </trkpt>
      <trkpt lat="44.85675" lon="5.11578">
        <ele>968.67</ele>
        <time>2019-03-31T10:32:00Z</time>
      </trkpt>
      <trkpt lat="44.85675" lon="5.11562">
        <ele>968.67</ele>
        <time>2019-03-31T10:32:11Z</time>
      </trkpt>
      <trkpt lat="44.85675" lon="5.11554">
        <ele>968.67</ele>
        <time>2019-03-31T10:32:17Z</time>
      </trkpt>
      <trkpt lat="44.85672" lon="5.11537">
        <ele>968.18</ele>
        <time>2019-03-31T10:32:31Z</time>
      </trkpt>
      <trkpt lat="44.85671" lon="5.1153">
        <ele>968.18</ele>
        <time>2019-03-31T10:32:46Z</time>
      </trkpt>
      <trkpt lat="44.85671" lon="5.11527">
        <ele>969.15</ele>
        <time>2019-03-31T10:33:02Z</time>
      </trkpt>
      <trkpt lat="44.85668" lon="5.11524">
        <ele>970.11</ele>
        <time>2019-03-31T10:33:24Z</time>
      </trkpt>
      <trkpt lat="44.85666" lon="5.11519">
        <ele>971.55</ele>
        <time>2019-03-31T10:33:36Z</time>
      </trkpt>
      <trkpt lat="44.85663" lon="5.11522">
        <ele>973.47</ele>
        <time>2019-03-31T10:33:50Z</time>
      </trkpt>
      <trkpt lat="44.85658" lon="5.11527">
        <ele>975.88</ele>
        <time>2019-03-31T10:34:06Z</time>
      </trkpt>
      <trkpt lat="44.85655" lon="5.11533">
        <ele>977.8</ele>
        <time>2019-03-31T10:34:20Z</time>
      </trkpt>
      <trkpt lat="44.85649" lon="5.11535">
        <ele>980.68</ele>
        <time>2019-03-31T10:34:37Z</time>
      </trkpt>
      <trkpt lat="44.85647" lon="5.11537">
        <ele>981.16</ele>
        <time>2019-03-31T10:34:52Z</time>
      </trkpt>
      <trkpt lat="44.85645" lon="5.11537">
        <ele>981.64</ele>
        <time>2019-03-31T10:35:11Z</time>
      </trkpt>
      <trkpt lat="44.85645" lon="5.11535">
        <ele>982.12</ele>
        <time>2019-03-31T10:35:29Z</time>
      </trkpt>
      <trkpt lat="44.85641" lon="5.11533">
        <ele>983.57</ele>
        <time>2019-03-31T10:35:47Z</time>
      </trkpt>
      <trkpt lat="44.85639" lon="5.11531">
        <ele>984.53</ele>
        <time>2019-03-31T10:36:02Z</time>
      </trkpt>
      <trkpt lat="44.85638" lon="5.1153">
        <ele>985.01</ele>
        <time>2019-03-31T10:36:19Z</time>
      </trkpt>
      <trkpt lat="44.85639" lon="5.11529">
        <ele>985.01</ele>
        <time>2019-03-31T10:36:38Z</time>
      </trkpt>
      <trkpt lat="44.85638" lon="5.1153">
        <ele>984.53</ele>
        <time>2019-03-31T10:36:58Z</time>
      </trkpt>
      <trkpt lat="44.85629" lon="5.11533">
        <ele>986.45</ele>
        <time>2019-03-31T10:37:14Z</time>
      </trkpt>
      <trkpt lat="44.85623" lon="5.11538">
        <ele>988.85</ele>
        <time>2019-03-31T10:37:27Z</time>
      </trkpt>
      <trkpt lat="44.85616" lon="5.1155">
        <ele>991.74</ele>
        <time>2019-03-31T10:37:44Z</time>
      </trkpt>
      <trkpt lat="44.8561" lon="5.11556">
        <ele>993.18</ele>
        <time>2019-03-31T10:37:54Z</time>
      </trkpt>
      <trkpt lat="44.85608" lon="5.11566">
        <ele>995.1</ele>
        <time>2019-03-31T10:38:07Z</time>
      </trkpt>
      <trkpt lat="44.85602" lon="5.11578">
        <ele>997.02</ele>
        <time>2019-03-31T10:38:20Z</time>
      </trkpt>
      <trkpt lat="44.85595" lon="5.11584">
        <ele>998.95</ele>
        <time>2019-03-31T10:38:33Z</time>
      </trkpt>
      <trkpt lat="44.85587" lon="5.11596">
        <ele>999.91</ele>
        <time>2019-03-31T10:38:48Z</time>
      </trkpt>
      <trkpt lat="44.85581" lon="5.11606">
        <ele>1001.35</ele>
        <time>2019-03-31T10:39:04Z</time>
      </trkpt>
      <trkpt lat="44.85576" lon="5.11614">
        <ele>1002.31</ele>
        <time>2019-03-31T10:39:17Z</time>
      </trkpt>
      <trkpt lat="44.85573" lon="5.11622">
        <ele>1002.31</ele>
        <time>2019-03-31T10:39:34Z</time>
      </trkpt>
      <trkpt lat="44.85572" lon="5.11625">
        <ele>1002.79</ele>
        <time>2019-03-31T10:39:55Z</time>
      </trkpt>
      <trkpt lat="44.85573" lon="5.11627">
        <ele>1002.79</ele>
        <time>2019-03-31T10:40:13Z</time>
      </trkpt>
      <trkpt lat="44.85571" lon="5.11636">
        <ele>1002.79</ele>
        <time>2019-03-31T10:40:47Z</time>
      </trkpt>
      <trkpt lat="44.85563" lon="5.11653">
        <ele>1002.79</ele>
        <time>2019-03-31T10:41:02Z</time>
      </trkpt>
      <trkpt lat="44.85559" lon="5.11661">
        <ele>1001.35</ele>
        <time>2019-03-31T10:41:10Z</time>
      </trkpt>
      <trkpt lat="44.85552" lon="5.11666">
        <ele>1000.39</ele>
        <time>2019-03-31T10:41:26Z</time>
      </trkpt>
      <trkpt lat="44.85547" lon="5.11675">
        <ele>999.91</ele>
        <time>2019-03-31T10:41:39Z</time>
      </trkpt>
      <trkpt lat="44.85546" lon="5.11677">
        <ele>999.43</ele>
        <time>2019-03-31T10:41:41Z</time>
      </trkpt>
      <trkpt lat="44.8554" lon="5.11682">
        <ele>998.47</ele>
        <time>2019-03-31T10:41:54Z</time>
      </trkpt>
      <trkpt lat="44.85539" lon="5.1168">
        <ele>997.51</ele>
        <time>2019-03-31T11:41:58Z</time>
      </trkpt>
      <trkpt lat="44.85536" lon="5.11673">
        <ele>997.51</ele>
        <time>2019-03-31T11:42:19Z</time>
      </trkpt>
      <trkpt lat="44.85534" lon="5.11671">
        <ele>997.51</ele>
        <time>2019-03-31T11:42:22Z</time>
      </trkpt>
      <trkpt lat="44.85533" lon="5.11667">
        <ele>997.51</ele>
        <time>2019-03-31T11:42:25Z</time>
      </trkpt>
      <trkpt lat="44.85529" lon="5.11656">
        <ele>997.51</ele>
        <time>2019-03-31T11:42:39Z</time>
      </trkpt>
      <trkpt lat="44.85523" lon="5.11649">
        <ele>997.51</ele>
        <time>2019-03-31T11:42:48Z</time>
      </trkpt>
      <trkpt lat="44.85513" lon="5.11635">
        <ele>998.95</ele>
        <time>2019-03-31T11:43:03Z</time>
      </trkpt>
      <trkpt lat="44.85508" lon="5.11623">
        <ele>999.43</ele>
        <time>2019-03-31T11:43:14Z</time>
      </trkpt>
      <trkpt lat="44.85503" lon="5.11604">
        <ele>1000.39</ele>
        <time>2019-03-31T11:43:30Z</time>
      </trkpt>
      <trkpt lat="44.85499" lon="5.11585">
        <ele>1001.35</ele>
        <time>2019-03-31T11:43:44Z</time>
      </trkpt>
      <trkpt lat="44.85499" lon="5.11566">
        <ele>1001.83</ele>
        <time>2019-03-31T11:43:58Z</time>
      </trkpt>
      <trkpt lat="44.85497" lon="5.11562">
        <ele>1001.83</ele>
        <time>2019-03-31T11:44:01Z</time>
      </trkpt>
      <trkpt lat="44.85484" lon="5.11555">
        <ele>1001.83</ele>
        <time>2019-03-31T11:44:15Z</time>
      </trkpt>
      <trkpt lat="44.85473" lon="5.11548">
        <ele>1001.83</ele>
        <time>2019-03-31T11:44:30Z</time>
      </trkpt>
      <trkpt lat="44.85472" lon="5.11547">
        <ele>999.91</ele>
        <time>2019-03-31T11:44:32Z</time>
      </trkpt>
      <trkpt lat="44.85466" lon="5.11545">
        <ele>999.91</ele>
        <time>2019-03-31T11:44:42Z</time>
      </trkpt>
      <trkpt lat="44.85464" lon="5.11551">
        <ele>999.43</ele>
        <time>2019-03-31T11:44:49Z</time>
      </trkpt>
      <trkpt lat="44.85462" lon="5.11556">
        <ele>998.95</ele>
        <time>2019-03-31T11:44:54Z</time>
      </trkpt>
      <trkpt lat="44.85449" lon="5.11555">
        <ele>997.51</ele>
        <time>2019-03-31T11:45:09Z</time>
      </trkpt>
      <trkpt lat="44.85438" lon="5.11554">
        <ele>995.58</ele>
        <time>2019-03-31T11:45:26Z</time>
      </trkpt>
      <trkpt lat="44.85435" lon="5.11551">
        <ele>995.1</ele>
        <time>2019-03-31T11:45:35Z</time>
      </trkpt>
      <trkpt lat="44.85425" lon="5.11531">
        <ele>994.14</ele>
        <time>2019-03-31T11:45:50Z</time>
      </trkpt>
      <trkpt lat="44.85417" lon="5.11509">
        <ele>991.74</ele>
        <time>2019-03-31T11:46:06Z</time>
      </trkpt>
      <trkpt lat="44.85416" lon="5.11486">
        <ele>990.78</ele>
        <time>2019-03-31T11:46:21Z</time>
      </trkpt>
      <trkpt lat="44.85411" lon="5.11482">
        <ele>990.3</ele>
        <time>2019-03-31T11:46:27Z</time>
      </trkpt>
      <trkpt lat="44.85397" lon="5.11469">
        <ele>987.89</ele>
        <time>2019-03-31T11:46:43Z</time>
      </trkpt>
      <trkpt lat="44.8539" lon="5.11456">
        <ele>986.45</ele>
        <time>2019-03-31T11:46:57Z</time>
      </trkpt>
      <trkpt lat="44.85388" lon="5.11449">
        <ele>985.97</ele>
        <time>2019-03-31T11:47:03Z</time>
      </trkpt>
      <trkpt lat="44.8539" lon="5.11434">
        <ele>984.05</ele>
        <time>2019-03-31T11:47:15Z</time>
      </trkpt>
      <trkpt lat="44.85387" lon="5.11423">
        <ele>982.6</ele>
        <time>2019-03-31T11:47:23Z</time>
      </trkpt>
      <trkpt lat="44.85373" lon="5.11399">
        <ele>979.72</ele>
        <time>2019-03-31T11:47:42Z</time>
      </trkpt>
      <trkpt lat="44.85362" lon="5.11377">
        <ele>978.76</ele>
        <time>2019-03-31T11:47:59Z</time>
      </trkpt>
      <trkpt lat="44.85357" lon="5.11369">
        <ele>978.28</ele>
        <time>2019-03-31T11:48:11Z</time>
      </trkpt>
      <trkpt lat="44.85348" lon="5.11355">
        <ele>978.28</ele>
        <time>2019-03-31T11:48:24Z</time>
      </trkpt>
      <trkpt lat="44.85343" lon="5.11346">
        <ele>978.28</ele>
        <time>2019-03-31T11:48:32Z</time>
      </trkpt>
      <trkpt lat="44.85342" lon="5.1134">
        <ele>978.28</ele>
        <time>2019-03-31T11:48:37Z</time>
      </trkpt>
      <trkpt lat="44.85342" lon="5.11337">
        <ele>978.28</ele>
        <time>2019-03-31T11:48:40Z</time>
      </trkpt>
      <trkpt lat="44.85341" lon="5.11333">
        <ele>978.28</ele>
        <time>2019-03-31T11:48:43Z</time>
      </trkpt>
      <trkpt lat="44.85336" lon="5.1133">
        <ele>978.28</ele>
        <time>2019-03-31T11:48:48Z</time>
      </trkpt>
      <trkpt lat="44.85331" lon="5.11332">
        <ele>978.28</ele>
        <time>2019-03-31T11:48:57Z</time>
      </trkpt>
      <trkpt lat="44.85326" lon="5.11323">
        <ele>978.28</ele>
        <time>2019-03-31T11:49:05Z</time>
      </trkpt>
      <trkpt lat="44.8532" lon="5.11326">
        <ele>977.32</ele>
        <time>2019-03-31T11:49:21Z</time>
      </trkpt>
      <trkpt lat="44.8532" lon="5.11327">
        <ele>977.32</ele>
        <time>2019-03-31T11:49:22Z</time>
      </trkpt>
      <trkpt lat="44.85318" lon="5.11336">
        <ele>976.36</ele>
        <time>2019-03-31T11:49:29Z</time>
      </trkpt>
      <trkpt lat="44.85308" lon="5.11337">
        <ele>972.99</ele>
        <time>2019-03-31T11:49:44Z</time>
      </trkpt>
      <trkpt lat="44.85305" lon="5.11326">
        <ele>972.03</ele>
        <time>2019-03-31T11:49:59Z</time>
      </trkpt>
      <trkpt lat="44.85304" lon="5.11321">
        <ele>972.99</ele>
        <time>2019-03-31T11:50:20Z</time>
      </trkpt>
      <trkpt lat="44.85304" lon="5.11321">
        <ele>972.99</ele>
        <time>2019-03-31T11:50:23Z</time>
      </trkpt>
      <trkpt lat="44.85304" lon="5.11317">
        <ele>972.99</ele>
        <time>2019-03-31T11:50:37Z</time>
      </trkpt>
      <trkpt lat="44.85304" lon="5.11308">
        <ele>971.55</ele>
        <time>2019-03-31T11:50:43Z</time>
      </trkpt>
      <trkpt lat="44.85304" lon="5.11307">
        <ele>973.95</ele>
        <time>2019-03-31T11:50:45Z</time>
      </trkpt>
      <trkpt lat="44.85305" lon="5.11294">
        <ele>973.95</ele>
        <time>2019-03-31T11:50:56Z</time>
      </trkpt>
      <trkpt lat="44.85308" lon="5.11275">
        <ele>975.39</ele>
        <time>2019-03-31T11:51:09Z</time>
      </trkpt>
      <trkpt lat="44.85309" lon="5.11252">
        <ele>976.84</ele>
        <time>2019-03-31T11:51:24Z</time>
      </trkpt>
      <trkpt lat="44.85309" lon="5.11247">
        <ele>976.84</ele>
        <time>2019-03-31T11:51:27Z</time>
      </trkpt>
      <trkpt lat="44.85313" lon="5.11224">
        <ele>976.84</ele>
        <time>2019-03-31T11:51:43Z</time>
      </trkpt>
      <trkpt lat="44.85314" lon="5.11216">
        <ele>976.84</ele>
        <time>2019-03-31T11:51:56Z</time>
      </trkpt>
      <trkpt lat="44.85312" lon="5.11214">
        <ele>975.39</ele>
        <time>2019-03-31T11:51:59Z</time>
      </trkpt>
      <trkpt lat="44.85309" lon="5.11215">
        <ele>974.91</ele>
        <time>2019-03-31T11:52:11Z</time>
      </trkpt>
      <trkpt lat="44.85308" lon="5.11216">
        <ele>976.36</ele>
        <time>2019-03-31T11:53:23Z</time>
      </trkpt>
      <trkpt lat="44.85305" lon="5.11212">
        <ele>974.91</ele>
        <time>2019-03-31T11:53:32Z</time>
      </trkpt>
      <trkpt lat="44.85295" lon="5.11205">
        <ele>972.03</ele>
        <time>2019-03-31T11:53:45Z</time>
      </trkpt>
      <trkpt lat="44.85284" lon="5.11201">
        <ele>968.67</ele>
        <time>2019-03-31T11:53:57Z</time>
      </trkpt>
      <trkpt lat="44.85282" lon="5.11199">
        <ele>967.7</ele>
        <time>2019-03-31T11:53:59Z</time>
      </trkpt>
      <trkpt lat="44.85269" lon="5.11192">
        <ele>965.3</ele>
        <time>2019-03-31T11:54:14Z</time>
      </trkpt>
      <trkpt lat="44.85248" lon="5.11185">
        <ele>962.42</ele>
        <time>2019-03-31T11:54:32Z</time>
      </trkpt>
      <trkpt lat="44.85233" lon="5.11172">
        <ele>960.01</ele>
        <time>2019-03-31T11:54:47Z</time>
      </trkpt>
      <trkpt lat="44.85216" lon="5.1116">
        <ele>957.61</ele>
        <time>2019-03-31T11:55:04Z</time>
      </trkpt>
      <trkpt lat="44.85208" lon="5.11156">
        <ele>956.65</ele>
        <time>2019-03-31T11:55:17Z</time>
      </trkpt>
      <trkpt lat="44.85203" lon="5.11157">
        <ele>956.65</ele>
        <time>2019-03-31T11:55:30Z</time>
      </trkpt>
      <trkpt lat="44.85187" lon="5.11163">
        <ele>951.84</ele>
        <time>2019-03-31T11:55:46Z</time>
      </trkpt>
      <trkpt lat="44.85178" lon="5.11162">
        <ele>949.92</ele>
        <time>2019-03-31T11:55:56Z</time>
      </trkpt>
      <trkpt lat="44.8517" lon="5.11158">
        <ele>948.48</ele>
        <time>2019-03-31T11:56:07Z</time>
      </trkpt>
      <trkpt lat="44.85156" lon="5.11141">
        <ele>947.04</ele>
        <time>2019-03-31T11:56:25Z</time>
      </trkpt>
      <trkpt lat="44.85149" lon="5.11129">
        <ele>946.07</ele>
        <time>2019-03-31T11:56:38Z</time>
      </trkpt>
      <trkpt lat="44.85139" lon="5.11117">
        <ele>942.71</ele>
        <time>2019-03-31T11:56:50Z</time>
      </trkpt>
      <trkpt lat="44.85138" lon="5.11114">
        <ele>942.23</ele>
        <time>2019-03-31T11:56:52Z</time>
      </trkpt>
      <trkpt lat="44.85137" lon="5.11108">
        <ele>941.27</ele>
        <time>2019-03-31T11:57:55Z</time>
      </trkpt>
      <trkpt lat="44.85134" lon="5.11106">
        <ele>941.27</ele>
        <time>2019-03-31T11:58:02Z</time>
      </trkpt>
      <trkpt lat="44.85118" lon="5.11097">
        <ele>938.38</ele>
        <time>2019-03-31T11:58:19Z</time>
      </trkpt>
      <trkpt lat="44.851" lon="5.11089">
        <ele>935.5</ele>
        <time>2019-03-31T11:58:37Z</time>
      </trkpt>
      <trkpt lat="44.85088" lon="5.11078">
        <ele>932.62</ele>
        <time>2019-03-31T11:58:52Z</time>
      </trkpt>
      <trkpt lat="44.8508" lon="5.11072">
        <ele>931.17</ele>
        <time>2019-03-31T11:59:01Z</time>
      </trkpt>
      <trkpt lat="44.85078" lon="5.11069">
        <ele>930.69</ele>
        <time>2019-03-31T11:59:04Z</time>
      </trkpt>
      <trkpt lat="44.85074" lon="5.11068">
        <ele>930.21</ele>
        <time>2019-03-31T11:59:08Z</time>
      </trkpt>
      <trkpt lat="44.85066" lon="5.11071">
        <ele>930.21</ele>
        <time>2019-03-31T11:59:15Z</time>
      </trkpt>
      <trkpt lat="44.85064" lon="5.11074">
        <ele>930.21</ele>
        <time>2019-03-31T11:59:18Z</time>
      </trkpt>
      <trkpt lat="44.85062" lon="5.11074">
        <ele>930.21</ele>
        <time>2019-03-31T11:59:36Z</time>
      </trkpt>
      <trkpt lat="44.85039" lon="5.11072">
        <ele>930.69</ele>
        <time>2019-03-31T11:59:55Z</time>
      </trkpt>
      <trkpt lat="44.8502" lon="5.11063">
        <ele>930.69</ele>
        <time>2019-03-31T12:00:11Z</time>
      </trkpt>
      <trkpt lat="44.85003" lon="5.11053">
        <ele>930.69</ele>
        <time>2019-03-31T12:00:26Z</time>
      </trkpt>
      <trkpt lat="44.84988" lon="5.11048">
        <ele>932.14</ele>
        <time>2019-03-31T12:00:41Z</time>
      </trkpt>
      <trkpt lat="44.8497" lon="5.11038">
        <ele>931.17</ele>
        <time>2019-03-31T12:00:57Z</time>
      </trkpt>
      <trkpt lat="44.84957" lon="5.11032">
        <ele>928.77</ele>
        <time>2019-03-31T12:01:11Z</time>
      </trkpt>
      <trkpt lat="44.84939" lon="5.11019">
        <ele>926.37</ele>
        <time>2019-03-31T12:01:30Z</time>
      </trkpt>
      <trkpt lat="44.84923" lon="5.11004">
        <ele>923</ele>
        <time>2019-03-31T12:01:48Z</time>
      </trkpt>
      <trkpt lat="44.84907" lon="5.10991">
        <ele>920.12</ele>
        <time>2019-03-31T12:02:04Z</time>
      </trkpt>
      <trkpt lat="44.84902" lon="5.10986">
        <ele>918.68</ele>
        <time>2019-03-31T12:02:18Z</time>
      </trkpt>
      <trkpt lat="44.84899" lon="5.1098">
        <ele>918.68</ele>
        <time>2019-03-31T12:02:32Z</time>
      </trkpt>
      <trkpt lat="44.84897" lon="5.10975">
        <ele>918.68</ele>
        <time>2019-03-31T12:02:47Z</time>
      </trkpt>
      <trkpt lat="44.84897" lon="5.10968">
        <ele>918.2</ele>
        <time>2019-03-31T12:02:55Z</time>
      </trkpt>
      <trkpt lat="44.84898" lon="5.1094">
        <ele>916.75</ele>
        <time>2019-03-31T12:03:13Z</time>
      </trkpt>
      <trkpt lat="44.84899" lon="5.10918">
        <ele>913.87</ele>
        <time>2019-03-31T12:03:28Z</time>
      </trkpt>
      <trkpt lat="44.84901" lon="5.10893">
        <ele>912.91</ele>
        <time>2019-03-31T12:03:44Z</time>
      </trkpt>
      <trkpt lat="44.84902" lon="5.10864">
        <ele>910.51</ele>
        <time>2019-03-31T12:04:01Z</time>
      </trkpt>
      <trkpt lat="44.84905" lon="5.10838">
        <ele>907.62</ele>
        <time>2019-03-31T12:04:17Z</time>
      </trkpt>
      <trkpt lat="44.84907" lon="5.10814">
        <ele>905.22</ele>
        <time>2019-03-31T12:04:32Z</time>
      </trkpt>
      <trkpt lat="44.84908" lon="5.10796">
        <ele>904.74</ele>
        <time>2019-03-31T12:04:45Z</time>
      </trkpt>
      <trkpt lat="44.84908" lon="5.1077">
        <ele>902.82</ele>
        <time>2019-03-31T12:05:01Z</time>
      </trkpt>
      <trkpt lat="44.84909" lon="5.10753">
        <ele>901.37</ele>
        <time>2019-03-31T12:05:15Z</time>
      </trkpt>
      <trkpt lat="44.84907" lon="5.10755">
        <ele>902.82</ele>
        <time>2019-03-31T12:05:30Z</time>
      </trkpt>
      <trkpt lat="44.84905" lon="5.10757">
        <ele>902.82</ele>
        <time>2019-03-31T12:05:32Z</time>
      </trkpt>
      <trkpt lat="44.84903" lon="5.10758">
        <ele>902.82</ele>
        <time>2019-03-31T12:05:35Z</time>
      </trkpt>
      <trkpt lat="44.84899" lon="5.10757">
        <ele>903.3</ele>
        <time>2019-03-31T12:05:39Z</time>
      </trkpt>
      <trkpt lat="44.84885" lon="5.10753">
        <ele>904.74</ele>
        <time>2019-03-31T12:05:54Z</time>
      </trkpt>
      <trkpt lat="44.84872" lon="5.10746">
        <ele>906.66</ele>
        <time>2019-03-31T12:06:08Z</time>
      </trkpt>
      <trkpt lat="44.8486" lon="5.10738">
        <ele>908.1</ele>
        <time>2019-03-31T12:06:22Z</time>
      </trkpt>
      <trkpt lat="44.84846" lon="5.10727">
        <ele>909.54</ele>
        <time>2019-03-31T12:06:36Z</time>
      </trkpt>
      <trkpt lat="44.84839" lon="5.10708">
        <ele>908.1</ele>
        <time>2019-03-31T12:06:51Z</time>
      </trkpt>
      <trkpt lat="44.84832" lon="5.10692">
        <ele>907.14</ele>
        <time>2019-03-31T12:07:08Z</time>
      </trkpt>
      <trkpt lat="44.8483" lon="5.10692">
        <ele>908.58</ele>
        <time>2019-03-31T12:07:10Z</time>
      </trkpt>
      <trkpt lat="44.84823" lon="5.10687">
        <ele>909.06</ele>
        <time>2019-03-31T12:07:21Z</time>
      </trkpt>
      <trkpt lat="44.84821" lon="5.10676">
        <ele>907.62</ele>
        <time>2019-03-31T12:07:29Z</time>
      </trkpt>
      <trkpt lat="44.84821" lon="5.10669">
        <ele>906.66</ele>
        <time>2019-03-31T12:07:40Z</time>
      </trkpt>
      <trkpt lat="44.84819" lon="5.1066">
        <ele>906.18</ele>
        <time>2019-03-31T12:07:53Z</time>
      </trkpt>
      <trkpt lat="44.84817" lon="5.10659">
        <ele>905.7</ele>
        <time>2019-03-31T12:08:09Z</time>
      </trkpt>
      <trkpt lat="44.84812" lon="5.10658">
        <ele>906.66</ele>
        <time>2019-03-31T12:08:25Z</time>
      </trkpt>
      <trkpt lat="44.84812" lon="5.10657">
        <ele>906.66</ele>
        <time>2019-03-31T12:08:26Z</time>
      </trkpt>
      <trkpt lat="44.84812" lon="5.10653">
        <ele>906.66</ele>
        <time>2019-03-31T12:08:43Z</time>
      </trkpt>
      <trkpt lat="44.84809" lon="5.10645">
        <ele>907.14</ele>
        <time>2019-03-31T12:09:01Z</time>
      </trkpt>
      <trkpt lat="44.84802" lon="5.10638">
        <ele>907.14</ele>
        <time>2019-03-31T12:09:16Z</time>
      </trkpt>
      <trkpt lat="44.84795" lon="5.10628">
        <ele>907.14</ele>
        <time>2019-03-31T12:09:32Z</time>
      </trkpt>
      <trkpt lat="44.84794" lon="5.10626">
        <ele>905.7</ele>
        <time>2019-03-31T12:09:34Z</time>
      </trkpt>
      <trkpt lat="44.84793" lon="5.10616">
        <ele>904.26</ele>
        <time>2019-03-31T12:09:46Z</time>
      </trkpt>
      <trkpt lat="44.84799" lon="5.10608">
        <ele>901.85</ele>
        <time>2019-03-31T12:09:59Z</time>
      </trkpt>
      <trkpt lat="44.84801" lon="5.10596">
        <ele>898.97</ele>
        <time>2019-03-31T12:10:09Z</time>
      </trkpt>
      <trkpt lat="44.84803" lon="5.10592">
        <ele>897.53</ele>
        <time>2019-03-31T12:10:23Z</time>
      </trkpt>
      <trkpt lat="44.84805" lon="5.10589">
        <ele>897.53</ele>
        <time>2019-03-31T12:10:28Z</time>
      </trkpt>
      <trkpt lat="44.84812" lon="5.10578">
        <ele>893.2</ele>
        <time>2019-03-31T12:10:38Z</time>
      </trkpt>
      <trkpt lat="44.84813" lon="5.10572">
        <ele>891.28</ele>
        <time>2019-03-31T12:10:43Z</time>
      </trkpt>
      <trkpt lat="44.84802" lon="5.10553">
        <ele>889.84</ele>
        <time>2019-03-31T12:10:57Z</time>
      </trkpt>
      <trkpt lat="44.84801" lon="5.10552">
        <ele>889.84</ele>
        <time>2019-03-31T12:10:58Z</time>
      </trkpt>
      <trkpt lat="44.84792" lon="5.10536">
        <ele>891.28</ele>
        <time>2019-03-31T12:11:10Z</time>
      </trkpt>
      <trkpt lat="44.84782" lon="5.10524">
        <ele>893.68</ele>
        <time>2019-03-31T12:11:23Z</time>
      </trkpt>
      <trkpt lat="44.84773" lon="5.10517">
        <ele>896.09</ele>
        <time>2019-03-31T12:11:36Z</time>
      </trkpt>
      <trkpt lat="44.84762" lon="5.10508">
        <ele>898.01</ele>
        <time>2019-03-31T12:11:51Z</time>
      </trkpt>
      <trkpt lat="44.84759" lon="5.10499">
        <ele>898.97</ele>
        <time>2019-03-31T12:12:04Z</time>
      </trkpt>
      <trkpt lat="44.84763" lon="5.10492">
        <ele>898.97</ele>
        <time>2019-03-31T12:12:17Z</time>
      </trkpt>
      <trkpt lat="44.84764" lon="5.10492">
        <ele>898.97</ele>
        <time>2019-03-31T12:12:22Z</time>
      </trkpt>
      <trkpt lat="44.84767" lon="5.10487">
        <ele>897.53</ele>
        <time>2019-03-31T12:12:26Z</time>
      </trkpt>
      <trkpt lat="44.84776" lon="5.10471">
        <ele>895.61</ele>
        <time>2019-03-31T12:12:41Z</time>
      </trkpt>
      <trkpt lat="44.84785" lon="5.10453">
        <ele>893.68</ele>
        <time>2019-03-31T12:12:57Z</time>
      </trkpt>
      <trkpt lat="44.84799" lon="5.10439">
        <ele>891.28</ele>
        <time>2019-03-31T12:13:12Z</time>
      </trkpt>
      <trkpt lat="44.84798" lon="5.1044">
        <ele>891.28</ele>
        <time>2019-03-31T12:13:37Z</time>
      </trkpt>
      <trkpt lat="44.84799" lon="5.10438">
        <ele>891.28</ele>
        <time>2019-03-31T12:13:57Z</time>
      </trkpt>
      <trkpt lat="44.84804" lon="5.1042">
        <ele>889.84</ele>
        <time>2019-03-31T12:14:14Z</time>
      </trkpt>
      <trkpt lat="44.84805" lon="5.10418">
        <ele>889.84</ele>
        <time>2019-03-31T12:14:16Z</time>
      </trkpt>
      <trkpt lat="44.84814" lon="5.10393">
        <ele>887.43</ele>
        <time>2019-03-31T12:14:34Z</time>
      </trkpt>
      <trkpt lat="44.8482" lon="5.10369">
        <ele>884.55</ele>
        <time>2019-03-31T12:14:50Z</time>
      </trkpt>
      <trkpt lat="44.84827" lon="5.10338">
        <ele>881.19</ele>
        <time>2019-03-31T12:15:08Z</time>
      </trkpt>
      <trkpt lat="44.84832" lon="5.10313">
        <ele>878.3</ele>
        <time>2019-03-31T12:15:25Z</time>
      </trkpt>
      <trkpt lat="44.84836" lon="5.1029">
        <ele>875.42</ele>
        <time>2019-03-31T12:15:40Z</time>
      </trkpt>
      <trkpt lat="44.84841" lon="5.10271">
        <ele>872.05</ele>
        <time>2019-03-31T12:15:53Z</time>
      </trkpt>
      <trkpt lat="44.84853" lon="5.10243">
        <ele>868.69</ele>
        <time>2019-03-31T12:16:11Z</time>
      </trkpt>
      <trkpt lat="44.8486" lon="5.10223">
        <ele>865.32</ele>
        <time>2019-03-31T12:16:24Z</time>
      </trkpt>
      <trkpt lat="44.84862" lon="5.10201">
        <ele>862.44</ele>
        <time>2019-03-31T12:16:37Z</time>
      </trkpt>
      <trkpt lat="44.8486" lon="5.10179">
        <ele>860.04</ele>
        <time>2019-03-31T12:16:51Z</time>
      </trkpt>
      <trkpt lat="44.84856" lon="5.10152">
        <ele>856.67</ele>
        <time>2019-03-31T12:17:08Z</time>
      </trkpt>
      <trkpt lat="44.84849" lon="5.10132">
        <ele>854.27</ele>
        <time>2019-03-31T12:17:25Z</time>
      </trkpt>
      <trkpt lat="44.84839" lon="5.10119">
        <ele>851.87</ele>
        <time>2019-03-31T12:17:41Z</time>
      </trkpt>
      <trkpt lat="44.84841" lon="5.10105">
        <ele>849.94</ele>
        <time>2019-03-31T12:17:54Z</time>
      </trkpt>
      <trkpt lat="44.84843" lon="5.10096">
        <ele>849.46</ele>
        <time>2019-03-31T12:18:16Z</time>
      </trkpt>
      <trkpt lat="44.84842" lon="5.10092">
        <ele>848.5</ele>
        <time>2019-03-31T12:18:30Z</time>
      </trkpt>
      <trkpt lat="44.84838" lon="5.10084">
        <ele>846.58</ele>
        <time>2019-03-31T12:18:45Z</time>
      </trkpt>
      <trkpt lat="44.8483" lon="5.10073">
        <ele>844.66</ele>
        <time>2019-03-31T12:19:00Z</time>
      </trkpt>
      <trkpt lat="44.8482" lon="5.10055">
        <ele>842.25</ele>
        <time>2019-03-31T12:19:17Z</time>
      </trkpt>
      <trkpt lat="44.84815" lon="5.10038">
        <ele>840.33</ele>
        <time>2019-03-31T12:19:32Z</time>
      </trkpt>
      <trkpt lat="44.84809" lon="5.10018">
        <ele>837.45</ele>
        <time>2019-03-31T12:19:47Z</time>
      </trkpt>
      <trkpt lat="44.84806" lon="5.10009">
        <ele>835.52</ele>
        <time>2019-03-31T12:19:59Z</time>
      </trkpt>
      <trkpt lat="44.84804" lon="5.10002">
        <ele>833.6</ele>
        <time>2019-03-31T12:20:07Z</time>
      </trkpt>
      <trkpt lat="44.84802" lon="5.09994">
        <ele>832.16</ele>
        <time>2019-03-31T12:20:13Z</time>
      </trkpt>
      <trkpt lat="44.848" lon="5.09985">
        <ele>830.72</ele>
        <time>2019-03-31T12:20:19Z</time>
      </trkpt>
      <trkpt lat="44.84796" lon="5.09964">
        <ele>827.35</ele>
        <time>2019-03-31T12:20:35Z</time>
      </trkpt>
      <trkpt lat="44.84794" lon="5.09949">
        <ele>823.99</ele>
        <time>2019-03-31T12:20:48Z</time>
      </trkpt>
      <trkpt lat="44.84792" lon="5.09927">
        <ele>820.62</ele>
        <time>2019-03-31T12:21:02Z</time>
      </trkpt>
      <trkpt lat="44.8479" lon="5.09908">
        <ele>817.74</ele>
        <time>2019-03-31T12:21:15Z</time>
      </trkpt>
      <trkpt lat="44.84787" lon="5.09895">
        <ele>815.34</ele>
        <time>2019-03-31T12:21:24Z</time>
      </trkpt>
      <trkpt lat="44.84786" lon="5.0989">
        <ele>814.37</ele>
        <time>2019-03-31T12:21:28Z</time>
      </trkpt>
      <trkpt lat="44.84779" lon="5.09869">
        <ele>811.01</ele>
        <time>2019-03-31T12:21:42Z</time>
      </trkpt>
      <trkpt lat="44.84778" lon="5.09864">
        <ele>810.05</ele>
        <time>2019-03-31T12:21:47Z</time>
      </trkpt>
      <trkpt lat="44.84774" lon="5.09844">
        <ele>806.68</ele>
        <time>2019-03-31T12:22:02Z</time>
      </trkpt>
      <trkpt lat="44.84776" lon="5.09827">
        <ele>804.28</ele>
        <time>2019-03-31T12:22:19Z</time>
      </trkpt>
      <trkpt lat="44.84777" lon="5.09823">
        <ele>804.28</ele>
        <time>2019-03-31T12:22:28Z</time>
      </trkpt>
      <trkpt lat="44.8478" lon="5.09819">
        <ele>803.8</ele>
        <time>2019-03-31T12:22:32Z</time>
      </trkpt>
      <trkpt lat="44.84785" lon="5.09809">
        <ele>800.92</ele>
        <time>2019-03-31T12:22:48Z</time>
      </trkpt>
      <trkpt lat="44.84794" lon="5.09796">
        <ele>798.03</ele>
        <time>2019-03-31T12:23:03Z</time>
      </trkpt>
      <trkpt lat="44.84797" lon="5.09789">
        <ele>796.11</ele>
        <time>2019-03-31T12:23:16Z</time>
      </trkpt>
      <trkpt lat="44.84792" lon="5.09791">
        <ele>796.11</ele>
        <time>2019-03-31T12:23:25Z</time>
      </trkpt>
      <trkpt lat="44.84789" lon="5.0979">
        <ele>796.11</ele>
        <time>2019-03-31T12:23:28Z</time>
      </trkpt>
      <trkpt lat="44.84787" lon="5.09787">
        <ele>796.11</ele>
        <time>2019-03-31T12:23:31Z</time>
      </trkpt>
      <trkpt lat="44.84783" lon="5.09773">
        <ele>792.74</ele>
        <time>2019-03-31T12:23:41Z</time>
      </trkpt>
      <trkpt lat="44.84781" lon="5.09761">
        <ele>789.38</ele>
        <time>2019-03-31T12:23:52Z</time>
      </trkpt>
      <trkpt lat="44.84781" lon="5.09756">
        <ele>788.42</ele>
        <time>2019-03-31T12:24:04Z</time>
      </trkpt>
      <trkpt lat="44.84785" lon="5.09752">
        <ele>786.98</ele>
        <time>2019-03-31T12:24:23Z</time>
      </trkpt>
      <trkpt lat="44.84786" lon="5.09752">
        <ele>786.98</ele>
        <time>2019-03-31T12:24:24Z</time>
      </trkpt>
      <trkpt lat="44.84795" lon="5.09747">
        <ele>785.53</ele>
        <time>2019-03-31T12:24:37Z</time>
      </trkpt>
      <trkpt lat="44.84798" lon="5.09736">
        <ele>783.13</ele>
        <time>2019-03-31T12:24:49Z</time>
      </trkpt>
      <trkpt lat="44.84799" lon="5.09726">
        <ele>781.21</ele>
        <time>2019-03-31T12:25:03Z</time>
      </trkpt>
      <trkpt lat="44.84802" lon="5.09716">
        <ele>778.81</ele>
        <time>2019-03-31T12:25:19Z</time>
      </trkpt>
      <trkpt lat="44.84814" lon="5.09712">
        <ele>778.81</ele>
        <time>2019-03-31T12:25:33Z</time>
      </trkpt>
      <trkpt lat="44.84822" lon="5.09706">
        <ele>778.81</ele>
        <time>2019-03-31T12:25:47Z</time>
      </trkpt>
      <trkpt lat="44.84838" lon="5.09697">
        <ele>778.81</ele>
        <time>2019-03-31T12:26:03Z</time>
      </trkpt>
      <trkpt lat="44.84854" lon="5.09693">
        <ele>778.81</ele>
        <time>2019-03-31T12:26:16Z</time>
      </trkpt>
      <trkpt lat="44.84871" lon="5.09686">
        <ele>778.81</ele>
        <time>2019-03-31T12:26:30Z</time>
      </trkpt>
      <trkpt lat="44.84881" lon="5.09681">
        <ele>778.81</ele>
        <time>2019-03-31T12:26:38Z</time>
      </trkpt>
      <trkpt lat="44.84883" lon="5.09679">
        <ele>778.81</ele>
        <time>2019-03-31T12:26:40Z</time>
      </trkpt>
      <trkpt lat="44.84886" lon="5.09677">
        <ele>778.81</ele>
        <time>2019-03-31T12:26:53Z</time>
      </trkpt>
      <trkpt lat="44.84891" lon="5.09678">
        <ele>780.25</ele>
        <time>2019-03-31T12:26:59Z</time>
      </trkpt>
      <trkpt lat="44.84895" lon="5.09675">
        <ele>780.25</ele>
        <time>2019-03-31T12:27:06Z</time>
      </trkpt>
      <trkpt lat="44.84903" lon="5.09668">
        <ele>780.25</ele>
        <time>2019-03-31T12:27:15Z</time>
      </trkpt>
      <trkpt lat="44.84921" lon="5.09665">
        <ele>780.73</ele>
        <time>2019-03-31T12:27:31Z</time>
      </trkpt>
      <trkpt lat="44.84933" lon="5.09661">
        <ele>777.84</ele>
        <time>2019-03-31T12:27:44Z</time>
      </trkpt>
      <trkpt lat="44.84944" lon="5.09657">
        <ele>776.88</ele>
        <time>2019-03-31T12:28:00Z</time>
      </trkpt>
      <trkpt lat="44.84949" lon="5.09649">
        <ele>773.52</ele>
        <time>2019-03-31T12:28:15Z</time>
      </trkpt>
      <trkpt lat="44.84955" lon="5.09648">
        <ele>772.08</ele>
        <time>2019-03-31T12:28:28Z</time>
      </trkpt>
      <trkpt lat="44.84961" lon="5.09641">
        <ele>772.08</ele>
        <time>2019-03-31T12:28:43Z</time>
      </trkpt>
      <trkpt lat="44.84963" lon="5.09639">
        <ele>771.6</ele>
        <time>2019-03-31T12:28:58Z</time>
      </trkpt>
      <trkpt lat="44.84961" lon="5.09635">
        <ele>771.11</ele>
        <time>2019-03-31T12:29:16Z</time>
      </trkpt>
      <trkpt lat="44.84958" lon="5.09628">
        <ele>767.75</ele>
        <time>2019-03-31T12:29:31Z</time>
      </trkpt>
      <trkpt lat="44.84961" lon="5.09616">
        <ele>766.79</ele>
        <time>2019-03-31T12:29:46Z</time>
      </trkpt>
      <trkpt lat="44.84962" lon="5.09615">
        <ele>766.79</ele>
        <time>2019-03-31T12:29:47Z</time>
      </trkpt>
      <trkpt lat="44.84962" lon="5.09612">
        <ele>766.79</ele>
        <time>2019-03-31T12:29:49Z</time>
      </trkpt>
      <trkpt lat="44.84964" lon="5.09609">
        <ele>766.79</ele>
        <time>2019-03-31T12:29:51Z</time>
      </trkpt>
      <trkpt lat="44.84976" lon="5.09605">
        <ele>766.79</ele>
        <time>2019-03-31T12:30:06Z</time>
      </trkpt>
      <trkpt lat="44.84981" lon="5.09603">
        <ele>766.79</ele>
        <time>2019-03-31T12:30:11Z</time>
      </trkpt>
      <trkpt lat="44.84994" lon="5.09597">
        <ele>766.79</ele>
        <time>2019-03-31T12:30:23Z</time>
      </trkpt>
      <trkpt lat="44.85011" lon="5.09591">
        <ele>766.79</ele>
        <time>2019-03-31T12:30:38Z</time>
      </trkpt>
      <trkpt lat="44.85014" lon="5.09588">
        <ele>768.23</ele>
        <time>2019-03-31T12:30:45Z</time>
      </trkpt>
      <trkpt lat="44.85013" lon="5.09582">
        <ele>766.31</ele>
        <time>2019-03-31T12:30:52Z</time>
      </trkpt>
      <trkpt lat="44.85014" lon="5.09579">
        <ele>765.35</ele>
        <time>2019-03-31T12:31:04Z</time>
      </trkpt>
      <trkpt lat="44.85011" lon="5.09578">
        <ele>765.35</ele>
        <time>2019-03-31T12:32:21Z</time>
      </trkpt>
      <trkpt lat="44.85008" lon="5.09577">
        <ele>765.35</ele>
        <time>2019-03-31T12:32:25Z</time>
      </trkpt>
      <trkpt lat="44.85006" lon="5.09572">
        <ele>764.39</ele>
        <time>2019-03-31T12:32:30Z</time>
      </trkpt>
      <trkpt lat="44.85012" lon="5.09556">
        <ele>762.94</ele>
        <time>2019-03-31T12:32:46Z</time>
      </trkpt>
      <trkpt lat="44.85016" lon="5.0956">
        <ele>762.94</ele>
        <time>2019-03-31T12:33:01Z</time>
      </trkpt>
      <trkpt lat="44.85018" lon="5.09564">
        <ele>762.94</ele>
        <time>2019-03-31T12:33:19Z</time>
      </trkpt>
      <trkpt lat="44.85017" lon="5.09568">
        <ele>762.94</ele>
        <time>2019-03-31T12:34:52Z</time>
      </trkpt>
      <trkpt lat="44.85017" lon="5.09581">
        <ele>764.87</ele>
        <time>2019-03-31T12:35:06Z</time>
      </trkpt>
      <trkpt lat="44.85019" lon="5.09587">
        <ele>765.83</ele>
        <time>2019-03-31T12:35:17Z</time>
      </trkpt>
      <trkpt lat="44.85022" lon="5.09583">
        <ele>763.9</ele>
        <time>2019-03-31T12:35:32Z</time>
      </trkpt>
      <trkpt lat="44.85022" lon="5.09581">
        <ele>762.46</ele>
        <time>2019-03-31T12:35:52Z</time>
      </trkpt>
      <trkpt lat="44.85022" lon="5.09579">
        <ele>761.5</ele>
        <time>2019-03-31T12:36:09Z</time>
      </trkpt>
      <trkpt lat="44.85024" lon="5.09575">
        <ele>760.06</ele>
        <time>2019-03-31T12:36:26Z</time>
      </trkpt>
      <trkpt lat="44.85026" lon="5.09576">
        <ele>757.18</ele>
        <time>2019-03-31T12:36:43Z</time>
      </trkpt>
      <trkpt lat="44.8503" lon="5.09583">
        <ele>755.25</ele>
        <time>2019-03-31T12:36:59Z</time>
      </trkpt>
      <trkpt lat="44.85034" lon="5.0959">
        <ele>757.18</ele>
        <time>2019-03-31T12:37:15Z</time>
      </trkpt>
      <trkpt lat="44.85042" lon="5.09595">
        <ele>758.14</ele>
        <time>2019-03-31T12:37:33Z</time>
      </trkpt>
      <trkpt lat="44.85048" lon="5.09603">
        <ele>759.58</ele>
        <time>2019-03-31T12:37:49Z</time>
      </trkpt>
      <trkpt lat="44.85049" lon="5.09606">
        <ele>758.14</ele>
        <time>2019-03-31T12:37:54Z</time>
      </trkpt>
      <trkpt lat="44.85054" lon="5.09619">
        <ele>760.06</ele>
        <time>2019-03-31T12:38:11Z</time>
      </trkpt>
      <trkpt lat="44.8506" lon="5.09626">
        <ele>761.98</ele>
        <time>2019-03-31T12:38:26Z</time>
      </trkpt>
      <trkpt lat="44.85064" lon="5.09632">
        <ele>764.39</ele>
        <time>2019-03-31T12:38:41Z</time>
      </trkpt>
      <trkpt lat="44.85064" lon="5.09637">
        <ele>765.83</ele>
        <time>2019-03-31T12:38:58Z</time>
      </trkpt>
      <trkpt lat="44.85065" lon="5.09636">
        <ele>765.83</ele>
        <time>2019-03-31T12:39:22Z</time>
      </trkpt>
      <trkpt lat="44.85065" lon="5.09644">
        <ele>765.83</ele>
        <time>2019-03-31T12:39:50Z</time>
      </trkpt>
      <trkpt lat="44.85068" lon="5.09649">
        <ele>765.83</ele>
        <time>2019-03-31T12:40:03Z</time>
      </trkpt>
      <trkpt lat="44.85075" lon="5.09656">
        <ele>766.79</ele>
        <time>2019-03-31T12:40:17Z</time>
      </trkpt>
      <trkpt lat="44.85081" lon="5.09662">
        <ele>767.75</ele>
        <time>2019-03-31T12:40:31Z</time>
      </trkpt>
      <trkpt lat="44.85087" lon="5.09671">
        <ele>768.23</ele>
        <time>2019-03-31T12:40:49Z</time>
      </trkpt>
      <trkpt lat="44.85091" lon="5.09672">
        <ele>766.79</ele>
        <time>2019-03-31T12:41:05Z</time>
      </trkpt>
      <trkpt lat="44.85097" lon="5.09676">
        <ele>764.39</ele>
        <time>2019-03-31T12:41:19Z</time>
      </trkpt>
      <trkpt lat="44.85101" lon="5.09681">
        <ele>763.9</ele>
        <time>2019-03-31T12:41:33Z</time>
      </trkpt>
      <trkpt lat="44.85107" lon="5.09682">
        <ele>762.46</ele>
        <time>2019-03-31T12:41:49Z</time>
      </trkpt>
      <trkpt lat="44.85112" lon="5.0968">
        <ele>764.39</ele>
        <time>2019-03-31T12:41:56Z</time>
      </trkpt>
      <trkpt lat="44.85116" lon="5.09674">
        <ele>763.9</ele>
        <time>2019-03-31T12:42:11Z</time>
      </trkpt>
      <trkpt lat="44.85119" lon="5.09673">
        <ele>765.35</ele>
        <time>2019-03-31T12:42:26Z</time>
      </trkpt>
      <trkpt lat="44.85121" lon="5.09675">
        <ele>765.35</ele>
        <time>2019-03-31T12:42:47Z</time>
      </trkpt>
      <trkpt lat="44.85122" lon="5.09676">
        <ele>765.83</ele>
        <time>2019-03-31T12:43:08Z</time>
      </trkpt>
      <trkpt lat="44.85121" lon="5.09686">
        <ele>767.75</ele>
        <time>2019-03-31T12:43:23Z</time>
      </trkpt>
      <trkpt lat="44.85125" lon="5.09691">
        <ele>769.67</ele>
        <time>2019-03-31T12:43:37Z</time>
      </trkpt>
      <trkpt lat="44.85122" lon="5.09695">
        <ele>770.63</ele>
        <time>2019-03-31T12:43:53Z</time>
      </trkpt>
      <trkpt lat="44.85118" lon="5.09699">
        <ele>771.11</ele>
        <time>2019-03-31T12:44:04Z</time>
      </trkpt>
      <trkpt lat="44.85115" lon="5.097">
        <ele>770.15</ele>
        <time>2019-03-31T12:44:10Z</time>
      </trkpt>
      <trkpt lat="44.85116" lon="5.09705">
        <ele>771.11</ele>
        <time>2019-03-31T12:44:18Z</time>
      </trkpt>
      <trkpt lat="44.85111" lon="5.09714">
        <ele>772.08</ele>
        <time>2019-03-31T12:44:34Z</time>
      </trkpt>
      <trkpt lat="44.85111" lon="5.09724">
        <ele>774.48</ele>
        <time>2019-03-31T12:44:46Z</time>
      </trkpt>
      <trkpt lat="44.85111" lon="5.09731">
        <ele>776.88</ele>
        <time>2019-03-31T12:45:00Z</time>
      </trkpt>
      <trkpt lat="44.85114" lon="5.09731">
        <ele>776.88</ele>
        <time>2019-03-31T12:45:17Z</time>
      </trkpt>
      <trkpt lat="44.85121" lon="5.09734">
        <ele>779.77</ele>
        <time>2019-03-31T12:45:38Z</time>
      </trkpt>
      <trkpt lat="44.85123" lon="5.09736">
        <ele>782.17</ele>
        <time>2019-03-31T12:45:52Z</time>
      </trkpt>
      <trkpt lat="44.85128" lon="5.09737">
        <ele>785.53</ele>
        <time>2019-03-31T12:46:09Z</time>
      </trkpt>
      <trkpt lat="44.85131" lon="5.09733">
        <ele>786.5</ele>
        <time>2019-03-31T12:46:24Z</time>
      </trkpt>
      <trkpt lat="44.85132" lon="5.09733">
        <ele>785.05</ele>
        <time>2019-03-31T12:46:41Z</time>
      </trkpt>
      <trkpt lat="44.85132" lon="5.09735">
        <ele>786.5</ele>
        <time>2019-03-31T12:47:01Z</time>
      </trkpt>
      <trkpt lat="44.85128" lon="5.09736">
        <ele>786.5</ele>
        <time>2019-03-31T12:47:26Z</time>
      </trkpt>
      <trkpt lat="44.85127" lon="5.09736">
        <ele>785.05</ele>
        <time>2019-03-31T12:47:29Z</time>
      </trkpt>
      <trkpt lat="44.85122" lon="5.09736">
        <ele>782.17</ele>
        <time>2019-03-31T12:47:41Z</time>
      </trkpt>
      <trkpt lat="44.85119" lon="5.09731">
        <ele>780.25</ele>
        <time>2019-03-31T12:47:53Z</time>
      </trkpt>
      <trkpt lat="44.85114" lon="5.0973">
        <ele>776.88</ele>
        <time>2019-03-31T12:48:04Z</time>
      </trkpt>
      <trkpt lat="44.85113" lon="5.09724">
        <ele>773.52</ele>
        <time>2019-03-31T12:48:19Z</time>
      </trkpt>
      <trkpt lat="44.85111" lon="5.09715">
        <ele>771.6</ele>
        <time>2019-03-31T12:48:33Z</time>
      </trkpt>
      <trkpt lat="44.8511" lon="5.09712">
        <ele>769.19</ele>
        <time>2019-03-31T12:48:49Z</time>
      </trkpt>
      <trkpt lat="44.8511" lon="5.0971">
        <ele>767.27</ele>
        <time>2019-03-31T12:49:06Z</time>
      </trkpt>
      <trkpt lat="44.85111" lon="5.09702">
        <ele>766.79</ele>
        <time>2019-03-31T12:49:20Z</time>
      </trkpt>
      <trkpt lat="44.85114" lon="5.09688">
        <ele>765.35</ele>
        <time>2019-03-31T12:49:35Z</time>
      </trkpt>
      <trkpt lat="44.85116" lon="5.09678">
        <ele>765.35</ele>
        <time>2019-03-31T12:49:48Z</time>
      </trkpt>
      <trkpt lat="44.8512" lon="5.09675">
        <ele>764.87</ele>
        <time>2019-03-31T12:50:07Z</time>
      </trkpt>
      <trkpt lat="44.85122" lon="5.09677">
        <ele>764.87</ele>
        <time>2019-03-31T12:50:31Z</time>
      </trkpt>
      <trkpt lat="44.8512" lon="5.09682">
        <ele>766.31</ele>
        <time>2019-03-31T12:50:48Z</time>
      </trkpt>
      <trkpt lat="44.85123" lon="5.09687">
        <ele>768.23</ele>
        <time>2019-03-31T12:51:02Z</time>
      </trkpt>
      <trkpt lat="44.85121" lon="5.09684">
        <ele>768.23</ele>
        <time>2019-03-31T12:51:21Z</time>
      </trkpt>
      <trkpt lat="44.85119" lon="5.09682">
        <ele>767.27</ele>
        <time>2019-03-31T12:51:48Z</time>
      </trkpt>
      <trkpt lat="44.85117" lon="5.09678">
        <ele>767.27</ele>
        <time>2019-03-31T12:52:17Z</time>
      </trkpt>
      <trkpt lat="44.85111" lon="5.09678">
        <ele>763.42</ele>
        <time>2019-03-31T12:52:29Z</time>
      </trkpt>
      <trkpt lat="44.85111" lon="5.09677">
        <ele>761.98</ele>
        <time>2019-03-31T12:52:41Z</time>
      </trkpt>
      <trkpt lat="44.8511" lon="5.09676">
        <ele>761.02</ele>
        <time>2019-03-31T12:52:57Z</time>
      </trkpt>
      <trkpt lat="44.8511" lon="5.09679">
        <ele>762.94</ele>
        <time>2019-03-31T12:53:02Z</time>
      </trkpt>
      <trkpt lat="44.85107" lon="5.09683">
        <ele>763.42</ele>
        <time>2019-03-31T12:53:17Z</time>
      </trkpt>
      <trkpt lat="44.85098" lon="5.09677">
        <ele>764.39</ele>
        <time>2019-03-31T12:53:33Z</time>
      </trkpt>
      <trkpt lat="44.85095" lon="5.09672">
        <ele>764.39</ele>
        <time>2019-03-31T12:53:48Z</time>
      </trkpt>
      <trkpt lat="44.85098" lon="5.09673">
        <ele>762.94</ele>
        <time>2019-03-31T12:54:02Z</time>
      </trkpt>
      <trkpt lat="44.85098" lon="5.09669">
        <ele>761.5</ele>
        <time>2019-03-31T12:54:20Z</time>
      </trkpt>
      <trkpt lat="44.85099" lon="5.09668">
        <ele>759.58</ele>
        <time>2019-03-31T12:54:38Z</time>
      </trkpt>
      <trkpt lat="44.85095" lon="5.09666">
        <ele>759.1</ele>
        <time>2019-03-31T12:55:01Z</time>
      </trkpt>
      <trkpt lat="44.85097" lon="5.09671">
        <ele>760.54</ele>
        <time>2019-03-31T12:55:11Z</time>
      </trkpt>
      <trkpt lat="44.85095" lon="5.09675">
        <ele>763.9</ele>
        <time>2019-03-31T12:55:22Z</time>
      </trkpt>
      <trkpt lat="44.85092" lon="5.09673">
        <ele>765.35</ele>
        <time>2019-03-31T12:55:31Z</time>
      </trkpt>
      <trkpt lat="44.85087" lon="5.09665">
        <ele>765.83</ele>
        <time>2019-03-31T12:55:43Z</time>
      </trkpt>
      <trkpt lat="44.85087" lon="5.09659">
        <ele>765.83</ele>
        <time>2019-03-31T12:55:57Z</time>
      </trkpt>
      <trkpt lat="44.85088" lon="5.09659">
        <ele>763.9</ele>
        <time>2019-03-31T12:56:16Z</time>
      </trkpt>
      <trkpt lat="44.85089" lon="5.09661">
        <ele>763.9</ele>
        <time>2019-03-31T12:56:35Z</time>
      </trkpt>
      <trkpt lat="44.85093" lon="5.09662">
        <ele>763.42</ele>
        <time>2019-03-31T12:56:54Z</time>
      </trkpt>
      <trkpt lat="44.85094" lon="5.09665">
        <ele>763.42</ele>
        <time>2019-03-31T12:57:17Z</time>
      </trkpt>
      <trkpt lat="44.85089" lon="5.09665">
        <ele>763.42</ele>
        <time>2019-03-31T12:57:46Z</time>
      </trkpt>
      <trkpt lat="44.85085" lon="5.09665">
        <ele>764.87</ele>
        <time>2019-03-31T12:57:55Z</time>
      </trkpt>
      <trkpt lat="44.8508" lon="5.09661">
        <ele>766.79</ele>
        <time>2019-03-31T12:58:07Z</time>
      </trkpt>
      <trkpt lat="44.85074" lon="5.09653">
        <ele>767.75</ele>
        <time>2019-03-31T12:58:21Z</time>
      </trkpt>
      <trkpt lat="44.85072" lon="5.09651">
        <ele>767.75</ele>
        <time>2019-03-31T12:58:24Z</time>
      </trkpt>
      <trkpt lat="44.8507" lon="5.09648">
        <ele>766.31</ele>
        <time>2019-03-31T12:58:27Z</time>
      </trkpt>
      <trkpt lat="44.85067" lon="5.0964">
        <ele>765.35</ele>
        <time>2019-03-31T12:58:38Z</time>
      </trkpt>
      <trkpt lat="44.85065" lon="5.09632">
        <ele>764.39</ele>
        <time>2019-03-31T12:58:54Z</time>
      </trkpt>
      <trkpt lat="44.85062" lon="5.09629">
        <ele>762.46</ele>
        <time>2019-03-31T12:59:03Z</time>
      </trkpt>
      <trkpt lat="44.85056" lon="5.09621">
        <ele>761.02</ele>
        <time>2019-03-31T12:59:18Z</time>
      </trkpt>
      <trkpt lat="44.85052" lon="5.09611">
        <ele>759.1</ele>
        <time>2019-03-31T12:59:32Z</time>
      </trkpt>
      <trkpt lat="44.8505" lon="5.09605">
        <ele>758.62</ele>
        <time>2019-03-31T12:59:44Z</time>
      </trkpt>
      <trkpt lat="44.85048" lon="5.09601">
        <ele>760.06</ele>
        <time>2019-03-31T12:59:51Z</time>
      </trkpt>
      <trkpt lat="44.85044" lon="5.09594">
        <ele>758.62</ele>
        <time>2019-03-31T13:00:05Z</time>
      </trkpt>
      <trkpt lat="44.85038" lon="5.09593">
        <ele>758.14</ele>
        <time>2019-03-31T13:00:17Z</time>
      </trkpt>
      <trkpt lat="44.85035" lon="5.0959">
        <ele>757.66</ele>
        <time>2019-03-31T13:00:24Z</time>
      </trkpt>
      <trkpt lat="44.85033" lon="5.09582">
        <ele>755.73</ele>
        <time>2019-03-31T13:00:36Z</time>
      </trkpt>
      <trkpt lat="44.85034" lon="5.0958">
        <ele>753.81</ele>
        <time>2019-03-31T13:00:49Z</time>
      </trkpt>
      <trkpt lat="44.85034" lon="5.09573">
        <ele>751.41</ele>
        <time>2019-03-31T13:01:00Z</time>
      </trkpt>
      <trkpt lat="44.85036" lon="5.09566">
        <ele>750.45</ele>
        <time>2019-03-31T13:01:15Z</time>
      </trkpt>
      <trkpt lat="44.85035" lon="5.09561">
        <ele>750.45</ele>
        <time>2019-03-31T13:01:26Z</time>
      </trkpt>
      <trkpt lat="44.85033" lon="5.09559">
        <ele>753.81</ele>
        <time>2019-03-31T13:01:37Z</time>
      </trkpt>
      <trkpt lat="44.85031" lon="5.0955">
        <ele>756.21</ele>
        <time>2019-03-31T13:01:49Z</time>
      </trkpt>
      <trkpt lat="44.85029" lon="5.09542">
        <ele>759.58</ele>
        <time>2019-03-31T13:02:03Z</time>
      </trkpt>
      <trkpt lat="44.85023" lon="5.09544">
        <ele>761.98</ele>
        <time>2019-03-31T13:02:16Z</time>
      </trkpt>
      <trkpt lat="44.85023" lon="5.09552">
        <ele>761.98</ele>
        <time>2019-03-31T13:02:31Z</time>
      </trkpt>
      <trkpt lat="44.85022" lon="5.09557">
        <ele>761.98</ele>
        <time>2019-03-31T13:02:58Z</time>
      </trkpt>
      <trkpt lat="44.85023" lon="5.0956">
        <ele>761.98</ele>
        <time>2019-03-31T13:03:22Z</time>
      </trkpt>
      <trkpt lat="44.85023" lon="5.09561">
        <ele>762.46</ele>
        <time>2019-03-31T13:05:09Z</time>
      </trkpt>
      <trkpt lat="44.8502" lon="5.09562">
        <ele>762.46</ele>
        <time>2019-03-31T13:05:29Z</time>
      </trkpt>
      <trkpt lat="44.85016" lon="5.0956">
        <ele>762.94</ele>
        <time>2019-03-31T13:05:52Z</time>
      </trkpt>
      <trkpt lat="44.85013" lon="5.09557">
        <ele>763.42</ele>
        <time>2019-03-31T13:06:08Z</time>
      </trkpt>
      <trkpt lat="44.85013" lon="5.09555">
        <ele>763.42</ele>
        <time>2019-03-31T13:06:26Z</time>
      </trkpt>
      <trkpt lat="44.85013" lon="5.09553">
        <ele>763.42</ele>
        <time>2019-03-31T13:06:39Z</time>
      </trkpt>
      <trkpt lat="44.85015" lon="5.09545">
        <ele>763.42</ele>
        <time>2019-03-31T13:06:52Z</time>
      </trkpt>
      <trkpt lat="44.85015" lon="5.09543">
        <ele>763.42</ele>
        <time>2019-03-31T13:06:53Z</time>
      </trkpt>
      <trkpt lat="44.85016" lon="5.0954">
        <ele>762.46</ele>
        <time>2019-03-31T13:06:55Z</time>
      </trkpt>
      <trkpt lat="44.85016" lon="5.09517">
        <ele>760.06</ele>
        <time>2019-03-31T13:07:12Z</time>
      </trkpt>
      <trkpt lat="44.8501" lon="5.09492">
        <ele>758.62</ele>
        <time>2019-03-31T13:07:28Z</time>
      </trkpt>
      <trkpt lat="44.85005" lon="5.09467">
        <ele>757.18</ele>
        <time>2019-03-31T13:07:44Z</time>
      </trkpt>
      <trkpt lat="44.84997" lon="5.09442">
        <ele>755.73</ele>
        <time>2019-03-31T13:08:00Z</time>
      </trkpt>
      <trkpt lat="44.84993" lon="5.09424">
        <ele>754.77</ele>
        <time>2019-03-31T13:08:14Z</time>
      </trkpt>
      <trkpt lat="44.84986" lon="5.094">
        <ele>753.33</ele>
        <time>2019-03-31T13:08:29Z</time>
      </trkpt>
      <trkpt lat="44.84978" lon="5.09372">
        <ele>751.89</ele>
        <time>2019-03-31T13:08:47Z</time>
      </trkpt>
      <trkpt lat="44.84972" lon="5.09344">
        <ele>750.45</ele>
        <time>2019-03-31T13:09:04Z</time>
      </trkpt>
      <trkpt lat="44.84966" lon="5.09317">
        <ele>749.97</ele>
        <time>2019-03-31T13:09:21Z</time>
      </trkpt>
      <trkpt lat="44.84959" lon="5.09292">
        <ele>749.97</ele>
        <time>2019-03-31T13:09:38Z</time>
      </trkpt>
      <trkpt lat="44.8495" lon="5.0927">
        <ele>750.93</ele>
        <time>2019-03-31T13:09:55Z</time>
      </trkpt>
      <trkpt lat="44.84941" lon="5.09251">
        <ele>751.41</ele>
        <time>2019-03-31T13:10:09Z</time>
      </trkpt>
      <trkpt lat="44.84938" lon="5.09244">
        <ele>751.89</ele>
        <time>2019-03-31T13:10:14Z</time>
      </trkpt>
      <trkpt lat="44.84927" lon="5.09224">
        <ele>752.37</ele>
        <time>2019-03-31T13:10:31Z</time>
      </trkpt>
      <trkpt lat="44.84923" lon="5.09207">
        <ele>752.85</ele>
        <time>2019-03-31T13:10:43Z</time>
      </trkpt>
      <trkpt lat="44.84924" lon="5.09195">
        <ele>752.85</ele>
        <time>2019-03-31T13:10:58Z</time>
      </trkpt>
      <trkpt lat="44.84922" lon="5.0919">
        <ele>753.33</ele>
        <time>2019-03-31T13:11:10Z</time>
      </trkpt>
      <trkpt lat="44.84923" lon="5.09182">
        <ele>753.81</ele>
        <time>2019-03-31T13:11:27Z</time>
      </trkpt>
      <trkpt lat="44.84928" lon="5.09177">
        <ele>753.81</ele>
        <time>2019-03-31T13:11:42Z</time>
      </trkpt>
      <trkpt lat="44.84936" lon="5.09165">
        <ele>753.81</ele>
        <time>2019-03-31T13:12:00Z</time>
      </trkpt>
      <trkpt lat="44.84937" lon="5.09164">
        <ele>753.81</ele>
        <time>2019-03-31T13:12:02Z</time>
      </trkpt>
      <trkpt lat="44.84944" lon="5.09155">
        <ele>753.81</ele>
        <time>2019-03-31T13:12:16Z</time>
      </trkpt>
      <trkpt lat="44.84946" lon="5.09154">
        <ele>753.81</ele>
        <time>2019-03-31T13:12:29Z</time>
      </trkpt>
      <trkpt lat="44.84949" lon="5.09149">
        <ele>753.33</ele>
        <time>2019-03-31T13:16:07Z</time>
      </trkpt>
      <trkpt lat="44.84951" lon="5.0914">
        <ele>751.89</ele>
        <time>2019-03-31T13:16:16Z</time>
      </trkpt>
      <trkpt lat="44.84954" lon="5.09119">
        <ele>750.93</ele>
        <time>2019-03-31T13:16:33Z</time>
      </trkpt>
      <trkpt lat="44.84954" lon="5.09106">
        <ele>750.93</ele>
        <time>2019-03-31T13:16:48Z</time>
      </trkpt>
      <trkpt lat="44.84948" lon="5.09097">
        <ele>748.52</ele>
        <time>2019-03-31T13:17:03Z</time>
      </trkpt>
      <trkpt lat="44.84944" lon="5.09096">
        <ele>747.08</ele>
        <time>2019-03-31T13:17:08Z</time>
      </trkpt>
      <trkpt lat="44.84928" lon="5.09099">
        <ele>742.76</ele>
        <time>2019-03-31T13:17:24Z</time>
      </trkpt>
      <trkpt lat="44.84923" lon="5.091">
        <ele>741.79</ele>
        <time>2019-03-31T13:17:29Z</time>
      </trkpt>
      <trkpt lat="44.84915" lon="5.09096">
        <ele>738.91</ele>
        <time>2019-03-31T13:17:43Z</time>
      </trkpt>
      <trkpt lat="44.84915" lon="5.09095">
        <ele>738.91</ele>
        <time>2019-03-31T13:17:44Z</time>
      </trkpt>
      <trkpt lat="44.84924" lon="5.09083">
        <ele>736.03</ele>
        <time>2019-03-31T13:17:58Z</time>
      </trkpt>
      <trkpt lat="44.84937" lon="5.09068">
        <ele>733.14</ele>
        <time>2019-03-31T13:18:14Z</time>
      </trkpt>
      <trkpt lat="44.8495" lon="5.09055">
        <ele>729.78</ele>
        <time>2019-03-31T13:18:30Z</time>
      </trkpt>
      <trkpt lat="44.84957" lon="5.0905">
        <ele>728.34</ele>
        <time>2019-03-31T13:18:37Z</time>
      </trkpt>
      <trkpt lat="44.84968" lon="5.09039">
        <ele>724.97</ele>
        <time>2019-03-31T13:18:49Z</time>
      </trkpt>
      <trkpt lat="44.8497" lon="5.09037">
        <ele>724.01</ele>
        <time>2019-03-31T13:18:51Z</time>
      </trkpt>
      <trkpt lat="44.84979" lon="5.09029">
        <ele>721.61</ele>
        <time>2019-03-31T13:19:01Z</time>
      </trkpt>
      <trkpt lat="44.84981" lon="5.09027">
        <ele>721.13</ele>
        <time>2019-03-31T13:19:03Z</time>
      </trkpt>
      <trkpt lat="44.84985" lon="5.09017">
        <ele>718.72</ele>
        <time>2019-03-31T13:19:10Z</time>
      </trkpt>
      <trkpt lat="44.84991" lon="5.09009">
        <ele>715.36</ele>
        <time>2019-03-31T13:19:19Z</time>
      </trkpt>
      <trkpt lat="44.84993" lon="5.09005">
        <ele>714.4</ele>
        <time>2019-03-31T13:19:23Z</time>
      </trkpt>
      <trkpt lat="44.84996" lon="5.09002">
        <ele>712.95</ele>
        <time>2019-03-31T13:19:27Z</time>
      </trkpt>
      <trkpt lat="44.85001" lon="5.08994">
        <ele>709.59</ele>
        <time>2019-03-31T13:19:35Z</time>
      </trkpt>
      <trkpt lat="44.85004" lon="5.0899">
        <ele>709.11</ele>
        <time>2019-03-31T13:19:39Z</time>
      </trkpt>
      <trkpt lat="44.85006" lon="5.08986">
        <ele>708.63</ele>
        <time>2019-03-31T13:19:54Z</time>
      </trkpt>
      <trkpt lat="44.85007" lon="5.08985">
        <ele>708.63</ele>
        <time>2019-03-31T13:20:10Z</time>
      </trkpt>
      <trkpt lat="44.85012" lon="5.08983">
        <ele>707.19</ele>
        <time>2019-03-31T13:20:25Z</time>
      </trkpt>
      <trkpt lat="44.8502" lon="5.0898">
        <ele>706.23</ele>
        <time>2019-03-31T13:20:37Z</time>
      </trkpt>
      <trkpt lat="44.85028" lon="5.08967">
        <ele>704.78</ele>
        <time>2019-03-31T13:20:51Z</time>
      </trkpt>
      <trkpt lat="44.85037" lon="5.08959">
        <ele>702.86</ele>
        <time>2019-03-31T13:21:05Z</time>
      </trkpt>
      <trkpt lat="44.85042" lon="5.08953">
        <ele>699.98</ele>
        <time>2019-03-31T13:21:14Z</time>
      </trkpt>
      <trkpt lat="44.85042" lon="5.08953">
        <ele>699.98</ele>
        <time>2019-03-31T13:21:15Z</time>
      </trkpt>
      <trkpt lat="44.85047" lon="5.08946">
        <ele>696.61</ele>
        <time>2019-03-31T13:21:26Z</time>
      </trkpt>
      <trkpt lat="44.85049" lon="5.08938">
        <ele>693.25</ele>
        <time>2019-03-31T13:21:36Z</time>
      </trkpt>
      <trkpt lat="44.85061" lon="5.08932">
        <ele>689.88</ele>
        <time>2019-03-31T13:21:52Z</time>
      </trkpt>
      <trkpt lat="44.85066" lon="5.08929">
        <ele>686.52</ele>
        <time>2019-03-31T13:22:04Z</time>
      </trkpt>
      <trkpt lat="44.85067" lon="5.08929">
        <ele>686.52</ele>
        <time>2019-03-31T13:22:05Z</time>
      </trkpt>
      <trkpt lat="44.85072" lon="5.08927">
        <ele>683.15</ele>
        <time>2019-03-31T13:22:16Z</time>
      </trkpt>
      <trkpt lat="44.8508" lon="5.08926">
        <ele>679.79</ele>
        <time>2019-03-31T13:22:27Z</time>
      </trkpt>
      <trkpt lat="44.8508" lon="5.08925">
        <ele>680.27</ele>
        <time>2019-03-31T13:22:28Z</time>
      </trkpt>
      <trkpt lat="44.85095" lon="5.08924">
        <ele>676.42</ele>
        <time>2019-03-31T13:22:41Z</time>
      </trkpt>
      <trkpt lat="44.8511" lon="5.08926">
        <ele>673.06</ele>
        <time>2019-03-31T13:22:54Z</time>
      </trkpt>
      <trkpt lat="44.8512" lon="5.08926">
        <ele>670.66</ele>
        <time>2019-03-31T13:23:08Z</time>
      </trkpt>
      <trkpt lat="44.85134" lon="5.08927">
        <ele>668.25</ele>
        <time>2019-03-31T13:23:21Z</time>
      </trkpt>
      <trkpt lat="44.85137" lon="5.08919">
        <ele>664.89</ele>
        <time>2019-03-31T13:23:33Z</time>
      </trkpt>
      <trkpt lat="44.85141" lon="5.08914">
        <ele>661.52</ele>
        <time>2019-03-31T13:23:47Z</time>
      </trkpt>
      <trkpt lat="44.8515" lon="5.08914">
        <ele>659.6</ele>
        <time>2019-03-31T13:23:58Z</time>
      </trkpt>
      <trkpt lat="44.85156" lon="5.08913">
        <ele>656.24</ele>
        <time>2019-03-31T13:24:12Z</time>
      </trkpt>
      <trkpt lat="44.85159" lon="5.08908">
        <ele>652.87</ele>
        <time>2019-03-31T13:24:21Z</time>
      </trkpt>
      <trkpt lat="44.85168" lon="5.08905">
        <ele>649.51</ele>
        <time>2019-03-31T13:24:35Z</time>
      </trkpt>
      <trkpt lat="44.85173" lon="5.089">
        <ele>646.14</ele>
        <time>2019-03-31T13:24:47Z</time>
      </trkpt>
      <trkpt lat="44.85178" lon="5.08895">
        <ele>643.26</ele>
        <time>2019-03-31T13:24:56Z</time>
      </trkpt>
      <trkpt lat="44.85184" lon="5.0889">
        <ele>639.89</ele>
        <time>2019-03-31T13:25:06Z</time>
      </trkpt>
      <trkpt lat="44.85191" lon="5.08883">
        <ele>637.01</ele>
        <time>2019-03-31T13:25:18Z</time>
      </trkpt>
      <trkpt lat="44.85192" lon="5.08882">
        <ele>636.53</ele>
        <time>2019-03-31T13:25:19Z</time>
      </trkpt>
      <trkpt lat="44.85197" lon="5.08877">
        <ele>633.17</ele>
        <time>2019-03-31T13:25:28Z</time>
      </trkpt>
      <trkpt lat="44.85199" lon="5.08873">
        <ele>630.28</ele>
        <time>2019-03-31T13:25:39Z</time>
      </trkpt>
      <trkpt lat="44.852" lon="5.08873">
        <ele>629.8</ele>
        <time>2019-03-31T13:25:40Z</time>
      </trkpt>
      <trkpt lat="44.85206" lon="5.08869">
        <ele>628.84</ele>
        <time>2019-03-31T13:25:51Z</time>
      </trkpt>
      <trkpt lat="44.85217" lon="5.08872">
        <ele>626.44</ele>
        <time>2019-03-31T13:26:06Z</time>
      </trkpt>
      <trkpt lat="44.85232" lon="5.08872">
        <ele>623.55</ele>
        <time>2019-03-31T13:26:21Z</time>
      </trkpt>
      <trkpt lat="44.8524" lon="5.08867">
        <ele>622.11</ele>
        <time>2019-03-31T13:26:31Z</time>
      </trkpt>
      <trkpt lat="44.85248" lon="5.08854">
        <ele>618.75</ele>
        <time>2019-03-31T13:26:43Z</time>
      </trkpt>
      <trkpt lat="44.85259" lon="5.08839">
        <ele>615.86</ele>
        <time>2019-03-31T13:26:56Z</time>
      </trkpt>
      <trkpt lat="44.85271" lon="5.08819">
        <ele>613.94</ele>
        <time>2019-03-31T13:27:12Z</time>
      </trkpt>
      <trkpt lat="44.85273" lon="5.08816">
        <ele>613.46</ele>
        <time>2019-03-31T13:27:18Z</time>
      </trkpt>
      <trkpt lat="44.85273" lon="5.08806">
        <ele>612.98</ele>
        <time>2019-03-31T13:27:31Z</time>
      </trkpt>
      <trkpt lat="44.85276" lon="5.08798">
        <ele>612.98</ele>
        <time>2019-03-31T13:27:45Z</time>
      </trkpt>
      <trkpt lat="44.8528" lon="5.08795">
        <ele>612.02</ele>
        <time>2019-03-31T13:28:01Z</time>
      </trkpt>
      <trkpt lat="44.85283" lon="5.08792">
        <ele>612.02</ele>
        <time>2019-03-31T13:28:17Z</time>
      </trkpt>
      <trkpt lat="44.85285" lon="5.08789">
        <ele>611.54</ele>
        <time>2019-03-31T13:29:18Z</time>
      </trkpt>
      <trkpt lat="44.85289" lon="5.08785">
        <ele>611.54</ele>
        <time>2019-03-31T13:29:32Z</time>
      </trkpt>
      <trkpt lat="44.8529" lon="5.08783">
        <ele>611.54</ele>
        <time>2019-03-31T13:29:35Z</time>
      </trkpt>
      <trkpt lat="44.85293" lon="5.0878">
        <ele>612.5</ele>
        <time>2019-03-31T13:29:40Z</time>
      </trkpt>
      <trkpt lat="44.85301" lon="5.08771">
        <ele>613.94</ele>
        <time>2019-03-31T13:29:53Z</time>
      </trkpt>
      <trkpt lat="44.85311" lon="5.0876">
        <ele>615.86</ele>
        <time>2019-03-31T13:30:08Z</time>
      </trkpt>
      <trkpt lat="44.85322" lon="5.08748">
        <ele>617.3</ele>
        <time>2019-03-31T13:30:24Z</time>
      </trkpt>
      <trkpt lat="44.85328" lon="5.08741">
        <ele>618.75</ele>
        <time>2019-03-31T13:30:35Z</time>
      </trkpt>
      <trkpt lat="44.85337" lon="5.08731">
        <ele>621.15</ele>
        <time>2019-03-31T13:30:51Z</time>
      </trkpt>
      <trkpt lat="44.85346" lon="5.08718">
        <ele>623.07</ele>
        <time>2019-03-31T13:31:06Z</time>
      </trkpt>
      <trkpt lat="44.85351" lon="5.08706">
        <ele>624.51</ele>
        <time>2019-03-31T13:31:18Z</time>
      </trkpt>
      <trkpt lat="44.85351" lon="5.08704">
        <ele>624.51</ele>
        <time>2019-03-31T13:31:19Z</time>
      </trkpt>
      <trkpt lat="44.85355" lon="5.08695">
        <ele>624.51</ele>
        <time>2019-03-31T13:31:27Z</time>
      </trkpt>
      <trkpt lat="44.85361" lon="5.0868">
        <ele>625.96</ele>
        <time>2019-03-31T13:31:40Z</time>
      </trkpt>
      <trkpt lat="44.85367" lon="5.08664">
        <ele>626.92</ele>
        <time>2019-03-31T13:31:53Z</time>
      </trkpt>
      <trkpt lat="44.85374" lon="5.08645">
        <ele>628.84</ele>
        <time>2019-03-31T13:32:08Z</time>
      </trkpt>
      <trkpt lat="44.8538" lon="5.08633">
        <ele>629.8</ele>
        <time>2019-03-31T13:32:19Z</time>
      </trkpt>
      <trkpt lat="44.85381" lon="5.0863">
        <ele>629.8</ele>
        <time>2019-03-31T13:32:21Z</time>
      </trkpt>
      <trkpt lat="44.85388" lon="5.08614">
        <ele>630.28</ele>
        <time>2019-03-31T13:32:35Z</time>
      </trkpt>
      <trkpt lat="44.85396" lon="5.08598">
        <ele>631.72</ele>
        <time>2019-03-31T13:32:47Z</time>
      </trkpt>
      <trkpt lat="44.85398" lon="5.08594">
        <ele>632.2</ele>
        <time>2019-03-31T13:32:51Z</time>
      </trkpt>
      <trkpt lat="44.85399" lon="5.08592">
        <ele>632.68</ele>
        <time>2019-03-31T13:32:53Z</time>
      </trkpt>
      <trkpt lat="44.85408" lon="5.08577">
        <ele>634.13</ele>
        <time>2019-03-31T13:33:07Z</time>
      </trkpt>
      <trkpt lat="44.85417" lon="5.08565">
        <ele>637.97</ele>
        <time>2019-03-31T13:33:21Z</time>
      </trkpt>
      <trkpt lat="44.85418" lon="5.08564">
        <ele>637.97</ele>
        <time>2019-03-31T13:33:22Z</time>
      </trkpt>
      <trkpt lat="44.85428" lon="5.08552">
        <ele>640.38</ele>
        <time>2019-03-31T13:33:36Z</time>
      </trkpt>
      <trkpt lat="44.85436" lon="5.08537">
        <ele>641.34</ele>
        <time>2019-03-31T13:33:48Z</time>
      </trkpt>
      <trkpt lat="44.85449" lon="5.08522">
        <ele>640.38</ele>
        <time>2019-03-31T13:34:04Z</time>
      </trkpt>
      <trkpt lat="44.8545" lon="5.08521">
        <ele>640.38</ele>
        <time>2019-03-31T13:34:05Z</time>
      </trkpt>
      <trkpt lat="44.8546" lon="5.08516">
        <ele>637.01</ele>
        <time>2019-03-31T13:34:16Z</time>
      </trkpt>
      <trkpt lat="44.85471" lon="5.08512">
        <ele>634.13</ele>
        <time>2019-03-31T13:34:26Z</time>
      </trkpt>
      <trkpt lat="44.85485" lon="5.08506">
        <ele>630.28</ele>
        <time>2019-03-31T13:34:37Z</time>
      </trkpt>
      <trkpt lat="44.85498" lon="5.08499">
        <ele>626.92</ele>
        <time>2019-03-31T13:34:48Z</time>
      </trkpt>
      <trkpt lat="44.85515" lon="5.08492">
        <ele>624.51</ele>
        <time>2019-03-31T13:35:03Z</time>
      </trkpt>
      <trkpt lat="44.85536" lon="5.08482">
        <ele>622.59</ele>
        <time>2019-03-31T13:35:20Z</time>
      </trkpt>
      <trkpt lat="44.85549" lon="5.08477">
        <ele>621.63</ele>
        <time>2019-03-31T13:35:33Z</time>
      </trkpt>
      <trkpt lat="44.85561" lon="5.08467">
        <ele>621.15</ele>
        <time>2019-03-31T13:35:48Z</time>
      </trkpt>
      <trkpt lat="44.8557" lon="5.08461">
        <ele>622.59</ele>
        <time>2019-03-31T13:36:00Z</time>
      </trkpt>
      <trkpt lat="44.85584" lon="5.08451">
        <ele>623.55</ele>
        <time>2019-03-31T13:36:16Z</time>
      </trkpt>
      <trkpt lat="44.85595" lon="5.08441">
        <ele>624.51</ele>
        <time>2019-03-31T13:36:31Z</time>
      </trkpt>
      <trkpt lat="44.8561" lon="5.08431">
        <ele>624.51</ele>
        <time>2019-03-31T13:36:46Z</time>
      </trkpt>
      <trkpt lat="44.85626" lon="5.08431">
        <ele>621.15</ele>
        <time>2019-03-31T13:37:03Z</time>
      </trkpt>
      <trkpt lat="44.85637" lon="5.08434">
        <ele>617.78</ele>
        <time>2019-03-31T13:37:18Z</time>
      </trkpt>
      <trkpt lat="44.85652" lon="5.08435">
        <ele>614.9</ele>
        <time>2019-03-31T13:37:36Z</time>
      </trkpt>
      <trkpt lat="44.85664" lon="5.08438">
        <ele>612.98</ele>
        <time>2019-03-31T13:37:50Z</time>
      </trkpt>
      <trkpt lat="44.85666" lon="5.08439">
        <ele>612.02</ele>
        <time>2019-03-31T13:37:52Z</time>
      </trkpt>
      <trkpt lat="44.85681" lon="5.08445">
        <ele>609.13</ele>
        <time>2019-03-31T13:38:08Z</time>
      </trkpt>
      <trkpt lat="44.85687" lon="5.08445">
        <ele>608.65</ele>
        <time>2019-03-31T13:38:14Z</time>
      </trkpt>
      <trkpt lat="44.85705" lon="5.0845">
        <ele>606.73</ele>
        <time>2019-03-31T13:38:29Z</time>
      </trkpt>
      <trkpt lat="44.85711" lon="5.08449">
        <ele>606.25</ele>
        <time>2019-03-31T13:38:37Z</time>
      </trkpt>
      <trkpt lat="44.85714" lon="5.08449">
        <ele>606.25</ele>
        <time>2019-03-31T13:38:40Z</time>
      </trkpt>
      <trkpt lat="44.8572" lon="5.0845">
        <ele>605.77</ele>
        <time>2019-03-31T13:38:47Z</time>
      </trkpt>
      <trkpt lat="44.85731" lon="5.08447">
        <ele>605.29</ele>
        <time>2019-03-31T13:39:00Z</time>
      </trkpt>
      <trkpt lat="44.85747" lon="5.08444">
        <ele>604.81</ele>
        <time>2019-03-31T13:39:19Z</time>
      </trkpt>
      <trkpt lat="44.85761" lon="5.08438">
        <ele>602.4</ele>
        <time>2019-03-31T13:39:33Z</time>
      </trkpt>
      <trkpt lat="44.85774" lon="5.08433">
        <ele>601.44</ele>
        <time>2019-03-31T13:39:46Z</time>
      </trkpt>
      <trkpt lat="44.85779" lon="5.08431">
        <ele>600.96</ele>
        <time>2019-03-31T13:39:51Z</time>
      </trkpt>
      <trkpt lat="44.85799" lon="5.08427">
        <ele>599.52</ele>
        <time>2019-03-31T13:40:07Z</time>
      </trkpt>
      <trkpt lat="44.85817" lon="5.08416">
        <ele>599.04</ele>
        <time>2019-03-31T13:40:25Z</time>
      </trkpt>
      <trkpt lat="44.85829" lon="5.0841">
        <ele>598.56</ele>
        <time>2019-03-31T13:40:37Z</time>
      </trkpt>
      <trkpt lat="44.85843" lon="5.08406">
        <ele>598.08</ele>
        <time>2019-03-31T13:40:53Z</time>
      </trkpt>
      <trkpt lat="44.85856" lon="5.08402">
        <ele>597.6</ele>
        <time>2019-03-31T13:41:06Z</time>
      </trkpt>
      <trkpt lat="44.85868" lon="5.08401">
        <ele>596.15</ele>
        <time>2019-03-31T13:41:20Z</time>
      </trkpt>
      <trkpt lat="44.85887" lon="5.08404">
        <ele>594.23</ele>
        <time>2019-03-31T13:41:35Z</time>
      </trkpt>
      <trkpt lat="44.85902" lon="5.08407">
        <ele>590.39</ele>
        <time>2019-03-31T13:41:49Z</time>
      </trkpt>
      <trkpt lat="44.85916" lon="5.08413">
        <ele>587.5</ele>
        <time>2019-03-31T13:42:03Z</time>
      </trkpt>
      <trkpt lat="44.8593" lon="5.08416">
        <ele>586.06</ele>
        <time>2019-03-31T13:42:14Z</time>
      </trkpt>
      <trkpt lat="44.85939" lon="5.0842">
        <ele>584.62</ele>
        <time>2019-03-31T13:42:21Z</time>
      </trkpt>
      <trkpt lat="44.85951" lon="5.08425">
        <ele>583.66</ele>
        <time>2019-03-31T13:42:36Z</time>
      </trkpt>
      <trkpt lat="44.85956" lon="5.08428">
        <ele>584.14</ele>
        <time>2019-03-31T13:45:11Z</time>
      </trkpt>
      <trkpt lat="44.85969" lon="5.0843">
        <ele>583.66</ele>
        <time>2019-03-31T13:45:25Z</time>
      </trkpt>
      <trkpt lat="44.85972" lon="5.08429">
        <ele>582.7</ele>
        <time>2019-03-31T13:45:27Z</time>
      </trkpt>
      <trkpt lat="44.85986" lon="5.0843">
        <ele>582.7</ele>
        <time>2019-03-31T13:45:42Z</time>
      </trkpt>
      <trkpt lat="44.86001" lon="5.08433">
        <ele>583.66</ele>
        <time>2019-03-31T13:45:56Z</time>
      </trkpt>
      <trkpt lat="44.86008" lon="5.08431">
        <ele>585.1</ele>
        <time>2019-03-31T13:46:05Z</time>
      </trkpt>
      <trkpt lat="44.86022" lon="5.08431">
        <ele>586.06</ele>
        <time>2019-03-31T13:46:18Z</time>
      </trkpt>
      <trkpt lat="44.86033" lon="5.0843">
        <ele>586.54</ele>
        <time>2019-03-31T13:46:28Z</time>
      </trkpt>
      <trkpt lat="44.86039" lon="5.08432">
        <ele>587.02</ele>
        <time>2019-03-31T13:46:33Z</time>
      </trkpt>
      <trkpt lat="44.86053" lon="5.08434">
        <ele>587.98</ele>
        <time>2019-03-31T13:46:45Z</time>
      </trkpt>
      <trkpt lat="44.86065" lon="5.08435">
        <ele>588.46</ele>
        <time>2019-03-31T13:46:53Z</time>
      </trkpt>
      <trkpt lat="44.86083" lon="5.08441">
        <ele>590.39</ele>
        <time>2019-03-31T13:47:09Z</time>
      </trkpt>
      <trkpt lat="44.86096" lon="5.08442">
        <ele>590.39</ele>
        <time>2019-03-31T13:47:22Z</time>
      </trkpt>
      <trkpt lat="44.86103" lon="5.08444">
        <ele>590.87</ele>
        <time>2019-03-31T13:47:29Z</time>
      </trkpt>
      <trkpt lat="44.86114" lon="5.08442">
        <ele>591.35</ele>
        <time>2019-03-31T13:47:42Z</time>
      </trkpt>
      <trkpt lat="44.86127" lon="5.08453">
        <ele>592.31</ele>
        <time>2019-03-31T13:47:56Z</time>
      </trkpt>
      <trkpt lat="44.86139" lon="5.08459">
        <ele>590.87</ele>
        <time>2019-03-31T13:48:06Z</time>
      </trkpt>
      <trkpt lat="44.86154" lon="5.0847">
        <ele>587.98</ele>
        <time>2019-03-31T13:48:20Z</time>
      </trkpt>
      <trkpt lat="44.86163" lon="5.08474">
        <ele>585.58</ele>
        <time>2019-03-31T13:48:27Z</time>
      </trkpt>
      <trkpt lat="44.86176" lon="5.08481">
        <ele>582.7</ele>
        <time>2019-03-31T13:48:38Z</time>
      </trkpt>
      <trkpt lat="44.86187" lon="5.08487">
        <ele>579.33</ele>
        <time>2019-03-31T13:48:50Z</time>
      </trkpt>
      <trkpt lat="44.86198" lon="5.08495">
        <ele>576.93</ele>
        <time>2019-03-31T13:49:03Z</time>
      </trkpt>
      <trkpt lat="44.86199" lon="5.08496">
        <ele>576.45</ele>
        <time>2019-03-31T13:49:04Z</time>
      </trkpt>
      <trkpt lat="44.86212" lon="5.08506">
        <ele>574.04</ele>
        <time>2019-03-31T13:49:17Z</time>
      </trkpt>
      <trkpt lat="44.86227" lon="5.08515">
        <ele>572.6</ele>
        <time>2019-03-31T13:49:30Z</time>
      </trkpt>
      <trkpt lat="44.86246" lon="5.08523">
        <ele>571.16</ele>
        <time>2019-03-31T13:49:44Z</time>
      </trkpt>
      <trkpt lat="44.86261" lon="5.08529">
        <ele>570.2</ele>
        <time>2019-03-31T13:49:58Z</time>
      </trkpt>
      <trkpt lat="44.86274" lon="5.08531">
        <ele>569.72</ele>
        <time>2019-03-31T13:50:11Z</time>
      </trkpt>
      <trkpt lat="44.8629" lon="5.08535">
        <ele>569.72</ele>
        <time>2019-03-31T13:50:23Z</time>
      </trkpt>
      <trkpt lat="44.86301" lon="5.08538">
        <ele>570.68</ele>
        <time>2019-03-31T13:50:33Z</time>
      </trkpt>
      <trkpt lat="44.86314" lon="5.08539">
        <ele>572.12</ele>
        <time>2019-03-31T13:50:45Z</time>
      </trkpt>
      <trkpt lat="44.86332" lon="5.08541">
        <ele>573.56</ele>
        <time>2019-03-31T13:50:59Z</time>
      </trkpt>
      <trkpt lat="44.86349" lon="5.08541">
        <ele>574.53</ele>
        <time>2019-03-31T13:51:13Z</time>
      </trkpt>
      <trkpt lat="44.86366" lon="5.08545">
        <ele>575.49</ele>
        <time>2019-03-31T13:51:28Z</time>
      </trkpt>
      <trkpt lat="44.86387" lon="5.08551">
        <ele>575.49</ele>
        <time>2019-03-31T13:51:41Z</time>
      </trkpt>
      <trkpt lat="44.86397" lon="5.08555">
        <ele>575.01</ele>
        <time>2019-03-31T13:51:52Z</time>
      </trkpt>
      <trkpt lat="44.864" lon="5.08558">
        <ele>574.04</ele>
        <time>2019-03-31T13:51:55Z</time>
      </trkpt>
      <trkpt lat="44.86413" lon="5.08567">
        <ele>571.64</ele>
        <time>2019-03-31T13:52:09Z</time>
      </trkpt>
      <trkpt lat="44.86427" lon="5.08575">
        <ele>569.72</ele>
        <time>2019-03-31T13:52:23Z</time>
      </trkpt>
      <trkpt lat="44.86442" lon="5.08581">
        <ele>568.28</ele>
        <time>2019-03-31T13:52:36Z</time>
      </trkpt>
      <trkpt lat="44.86464" lon="5.08588">
        <ele>567.8</ele>
        <time>2019-03-31T13:52:51Z</time>
      </trkpt>
      <trkpt lat="44.86465" lon="5.08588">
        <ele>567.8</ele>
        <time>2019-03-31T13:52:52Z</time>
      </trkpt>
      <trkpt lat="44.86478" lon="5.08589">
        <ele>567.32</ele>
        <time>2019-03-31T13:53:05Z</time>
      </trkpt>
      <trkpt lat="44.86479" lon="5.08589">
        <ele>567.32</ele>
        <time>2019-03-31T13:53:06Z</time>
      </trkpt>
      <trkpt lat="44.86494" lon="5.08586">
        <ele>566.35</ele>
        <time>2019-03-31T13:53:18Z</time>
      </trkpt>
      <trkpt lat="44.86509" lon="5.08581">
        <ele>565.39</ele>
        <time>2019-03-31T13:53:32Z</time>
      </trkpt>
      <trkpt lat="44.86521" lon="5.0858">
        <ele>564.43</ele>
        <time>2019-03-31T13:53:39Z</time>
      </trkpt>
      <trkpt lat="44.86542" lon="5.08571">
        <ele>563.47</ele>
        <time>2019-03-31T13:53:55Z</time>
      </trkpt>
      <trkpt lat="44.86556" lon="5.08561">
        <ele>562.99</ele>
        <time>2019-03-31T13:54:09Z</time>
      </trkpt>
      <trkpt lat="44.86564" lon="5.08554">
        <ele>562.51</ele>
        <time>2019-03-31T13:54:18Z</time>
      </trkpt>
      <trkpt lat="44.86577" lon="5.08546">
        <ele>562.51</ele>
        <time>2019-03-31T13:54:32Z</time>
      </trkpt>
      <trkpt lat="44.86581" lon="5.08543">
        <ele>562.51</ele>
        <time>2019-03-31T13:54:35Z</time>
      </trkpt>
      <trkpt lat="44.86598" lon="5.08532">
        <ele>562.03</ele>
        <time>2019-03-31T13:54:51Z</time>
      </trkpt>
      <trkpt lat="44.86612" lon="5.08522">
        <ele>561.55</ele>
        <time>2019-03-31T13:55:04Z</time>
      </trkpt>
      <trkpt lat="44.86626" lon="5.08512">
        <ele>561.07</ele>
        <time>2019-03-31T13:55:18Z</time>
      </trkpt>
      <trkpt lat="44.86643" lon="5.08504">
        <ele>561.07</ele>
        <time>2019-03-31T13:55:33Z</time>
      </trkpt>
      <trkpt lat="44.86667" lon="5.08495">
        <ele>560.59</ele>
        <time>2019-03-31T13:55:49Z</time>
      </trkpt>
      <trkpt lat="44.86684" lon="5.08489">
        <ele>559.14</ele>
        <time>2019-03-31T13:56:03Z</time>
      </trkpt>
      <trkpt lat="44.86685" lon="5.08489">
        <ele>559.14</ele>
        <time>2019-03-31T13:56:04Z</time>
      </trkpt>
      <trkpt lat="44.86692" lon="5.08487">
        <ele>558.66</ele>
        <time>2019-03-31T13:56:09Z</time>
      </trkpt>
      <trkpt lat="44.86696" lon="5.08486">
        <ele>558.18</ele>
        <time>2019-03-31T13:56:12Z</time>
      </trkpt>
      <trkpt lat="44.86717" lon="5.08478">
        <ele>555.3</ele>
        <time>2019-03-31T13:56:27Z</time>
      </trkpt>
      <trkpt lat="44.86727" lon="5.08471">
        <ele>551.93</ele>
        <time>2019-03-31T13:56:38Z</time>
      </trkpt>
      <trkpt lat="44.86733" lon="5.08462">
        <ele>548.57</ele>
        <time>2019-03-31T13:56:47Z</time>
      </trkpt>
      <trkpt lat="44.86739" lon="5.08455">
        <ele>545.2</ele>
        <time>2019-03-31T13:56:55Z</time>
      </trkpt>
      <trkpt lat="44.86748" lon="5.08444">
        <ele>541.84</ele>
        <time>2019-03-31T13:57:06Z</time>
      </trkpt>
      <trkpt lat="44.86754" lon="5.08435">
        <ele>538.48</ele>
        <time>2019-03-31T13:57:16Z</time>
      </trkpt>
      <trkpt lat="44.86762" lon="5.08425">
        <ele>535.59</ele>
        <time>2019-03-31T13:57:26Z</time>
      </trkpt>
      <trkpt lat="44.86769" lon="5.08415">
        <ele>533.19</ele>
        <time>2019-03-31T13:57:34Z</time>
      </trkpt>
      <trkpt lat="44.86785" lon="5.08402">
        <ele>529.34</ele>
        <time>2019-03-31T13:57:49Z</time>
      </trkpt>
      <trkpt lat="44.86798" lon="5.08396">
        <ele>526.94</ele>
        <time>2019-03-31T13:58:02Z</time>
      </trkpt>
      <trkpt lat="44.86812" lon="5.08391">
        <ele>523.58</ele>
        <time>2019-03-31T13:58:15Z</time>
      </trkpt>
      <trkpt lat="44.86827" lon="5.08383">
        <ele>520.21</ele>
        <time>2019-03-31T13:58:28Z</time>
      </trkpt>
      <trkpt lat="44.86837" lon="5.08376">
        <ele>517.33</ele>
        <time>2019-03-31T13:58:37Z</time>
      </trkpt>
      <trkpt lat="44.86847" lon="5.08367">
        <ele>513.96</ele>
        <time>2019-03-31T13:58:48Z</time>
      </trkpt>
      <trkpt lat="44.86849" lon="5.08365">
        <ele>513.48</ele>
        <time>2019-03-31T13:58:50Z</time>
      </trkpt>
      <trkpt lat="44.86858" lon="5.08357">
        <ele>511.08</ele>
        <time>2019-03-31T13:58:57Z</time>
      </trkpt>
      <trkpt lat="44.86869" lon="5.08346">
        <ele>508.19</ele>
        <time>2019-03-31T13:59:07Z</time>
      </trkpt>
      <trkpt lat="44.86875" lon="5.08339">
        <ele>504.83</ele>
        <time>2019-03-31T13:59:15Z</time>
      </trkpt>
      <trkpt lat="44.86883" lon="5.08329">
        <ele>501.46</ele>
        <time>2019-03-31T13:59:26Z</time>
      </trkpt>
      <trkpt lat="44.8689" lon="5.08322">
        <ele>498.58</ele>
        <time>2019-03-31T13:59:36Z</time>
      </trkpt>
      <trkpt lat="44.869" lon="5.08313">
        <ele>495.22</ele>
        <time>2019-03-31T13:59:46Z</time>
      </trkpt>
      <trkpt lat="44.86909" lon="5.08302">
        <ele>492.33</ele>
        <time>2019-03-31T13:59:56Z</time>
      </trkpt>
      <trkpt lat="44.86924" lon="5.08298">
        <ele>488.97</ele>
        <time>2019-03-31T14:00:08Z</time>
      </trkpt>
      <trkpt lat="44.86936" lon="5.08291">
        <ele>486.08</ele>
        <time>2019-03-31T14:00:21Z</time>
      </trkpt>
      <trkpt lat="44.86953" lon="5.08283">
        <ele>482.72</ele>
        <time>2019-03-31T14:00:34Z</time>
      </trkpt>
      <trkpt lat="44.86969" lon="5.08276">
        <ele>480.32</ele>
        <time>2019-03-31T14:00:48Z</time>
      </trkpt>
      <trkpt lat="44.86981" lon="5.08266">
        <ele>476.95</ele>
        <time>2019-03-31T14:01:00Z</time>
      </trkpt>
      <trkpt lat="44.86989" lon="5.08251">
        <ele>473.59</ele>
        <time>2019-03-31T14:01:14Z</time>
      </trkpt>
      <trkpt lat="44.86994" lon="5.08241">
        <ele>470.7</ele>
        <time>2019-03-31T14:01:23Z</time>
      </trkpt>
      <trkpt lat="44.86997" lon="5.08228">
        <ele>467.34</ele>
        <time>2019-03-31T14:01:34Z</time>
      </trkpt>
      <trkpt lat="44.87005" lon="5.08213">
        <ele>463.97</ele>
        <time>2019-03-31T14:01:46Z</time>
      </trkpt>
      <trkpt lat="44.87007" lon="5.08211">
        <ele>463.49</ele>
        <time>2019-03-31T14:01:48Z</time>
      </trkpt>
      <trkpt lat="44.87008" lon="5.08208">
        <ele>462.53</ele>
        <time>2019-03-31T14:01:50Z</time>
      </trkpt>
      <trkpt lat="44.87018" lon="5.08199">
        <ele>459.65</ele>
        <time>2019-03-31T14:02:01Z</time>
      </trkpt>
      <trkpt lat="44.87034" lon="5.08186">
        <ele>455.8</ele>
        <time>2019-03-31T14:02:15Z</time>
      </trkpt>
      <trkpt lat="44.87042" lon="5.08178">
        <ele>455.32</ele>
        <time>2019-03-31T14:02:21Z</time>
      </trkpt>
      <trkpt lat="44.87051" lon="5.08166">
        <ele>451.96</ele>
        <time>2019-03-31T14:02:34Z</time>
      </trkpt>
      <trkpt lat="44.87062" lon="5.08151">
        <ele>448.59</ele>
        <time>2019-03-31T14:02:48Z</time>
      </trkpt>
      <trkpt lat="44.87073" lon="5.08138">
        <ele>445.23</ele>
        <time>2019-03-31T14:03:02Z</time>
      </trkpt>
      <trkpt lat="44.87081" lon="5.0813">
        <ele>441.86</ele>
        <time>2019-03-31T14:03:15Z</time>
      </trkpt>
      <trkpt lat="44.8709" lon="5.08127">
        <ele>438.98</ele>
        <time>2019-03-31T14:03:29Z</time>
      </trkpt>
      <trkpt lat="44.87098" lon="5.0813">
        <ele>437.54</ele>
        <time>2019-03-31T14:03:43Z</time>
      </trkpt>
      <trkpt lat="44.87109" lon="5.08138">
        <ele>434.17</ele>
        <time>2019-03-31T14:03:56Z</time>
      </trkpt>
      <trkpt lat="44.8712" lon="5.08145">
        <ele>430.81</ele>
        <time>2019-03-31T14:04:08Z</time>
      </trkpt>
      <trkpt lat="44.87128" lon="5.08154">
        <ele>427.44</ele>
        <time>2019-03-31T14:04:19Z</time>
      </trkpt>
      <trkpt lat="44.87138" lon="5.08166">
        <ele>424.08</ele>
        <time>2019-03-31T14:04:30Z</time>
      </trkpt>
      <trkpt lat="44.87141" lon="5.08171">
        <ele>421.19</ele>
        <time>2019-03-31T14:04:40Z</time>
      </trkpt>
      <trkpt lat="44.87145" lon="5.08162">
        <ele>417.83</ele>
        <time>2019-03-31T14:04:50Z</time>
      </trkpt>
      <trkpt lat="44.87147" lon="5.08151">
        <ele>415.43</ele>
        <time>2019-03-31T14:04:59Z</time>
      </trkpt>
      <trkpt lat="44.87145" lon="5.08136">
        <ele>411.58</ele>
        <time>2019-03-31T14:05:11Z</time>
      </trkpt>
      <trkpt lat="44.87144" lon="5.08121">
        <ele>408.22</ele>
        <time>2019-03-31T14:05:24Z</time>
      </trkpt>
      <trkpt lat="44.87143" lon="5.08108">
        <ele>405.33</ele>
        <time>2019-03-31T14:05:35Z</time>
      </trkpt>
      <trkpt lat="44.8714" lon="5.08093">
        <ele>401.97</ele>
        <time>2019-03-31T14:05:46Z</time>
      </trkpt>
      <trkpt lat="44.87139" lon="5.08075">
        <ele>399.08</ele>
        <time>2019-03-31T14:06:01Z</time>
      </trkpt>
      <trkpt lat="44.8714" lon="5.08073">
        <ele>398.6</ele>
        <time>2019-03-31T14:06:03Z</time>
      </trkpt>
      <trkpt lat="44.87142" lon="5.08069">
        <ele>397.64</ele>
        <time>2019-03-31T14:06:06Z</time>
      </trkpt>
      <trkpt lat="44.87153" lon="5.08054">
        <ele>393.8</ele>
        <time>2019-03-31T14:06:19Z</time>
      </trkpt>
      <trkpt lat="44.87164" lon="5.0804">
        <ele>390.91</ele>
        <time>2019-03-31T14:06:31Z</time>
      </trkpt>
      <trkpt lat="44.87178" lon="5.08014">
        <ele>388.03</ele>
        <time>2019-03-31T14:06:47Z</time>
      </trkpt>
      <trkpt lat="44.8719" lon="5.07992">
        <ele>385.63</ele>
        <time>2019-03-31T14:07:01Z</time>
      </trkpt>
      <trkpt lat="44.87193" lon="5.07979">
        <ele>385.15</ele>
        <time>2019-03-31T14:07:10Z</time>
      </trkpt>
      <trkpt lat="44.87202" lon="5.07957">
        <ele>382.26</ele>
        <time>2019-03-31T14:07:25Z</time>
      </trkpt>
      <trkpt lat="44.87211" lon="5.07936">
        <ele>380.34</ele>
        <time>2019-03-31T14:07:39Z</time>
      </trkpt>
      <trkpt lat="44.87212" lon="5.07932">
        <ele>379.86</ele>
        <time>2019-03-31T14:07:42Z</time>
      </trkpt>
      <trkpt lat="44.87227" lon="5.07906">
        <ele>377.94</ele>
        <time>2019-03-31T14:07:59Z</time>
      </trkpt>
      <trkpt lat="44.87231" lon="5.07901">
        <ele>377.45</ele>
        <time>2019-03-31T14:08:03Z</time>
      </trkpt>
      <trkpt lat="44.87233" lon="5.07899">
        <ele>377.45</ele>
        <time>2019-03-31T14:08:05Z</time>
      </trkpt>
      <trkpt lat="44.8725" lon="5.07885">
        <ele>376.01</ele>
        <time>2019-03-31T14:08:21Z</time>
      </trkpt>
      <trkpt lat="44.87273" lon="5.07875">
        <ele>372.65</ele>
        <time>2019-03-31T14:08:38Z</time>
      </trkpt>
      <trkpt lat="44.87291" lon="5.07863">
        <ele>369.28</ele>
        <time>2019-03-31T14:08:53Z</time>
      </trkpt>
      <trkpt lat="44.87311" lon="5.07844">
        <ele>367.36</ele>
        <time>2019-03-31T14:09:13Z</time>
      </trkpt>
      <trkpt lat="44.87326" lon="5.07824">
        <ele>364</ele>
        <time>2019-03-31T14:09:30Z</time>
      </trkpt>
      <trkpt lat="44.87338" lon="5.07818">
        <ele>362.07</ele>
        <time>2019-03-31T14:09:42Z</time>
      </trkpt>
      <trkpt lat="44.87351" lon="5.07818">
        <ele>360.63</ele>
        <time>2019-03-31T14:09:58Z</time>
      </trkpt>
      <trkpt lat="44.87353" lon="5.07816">
        <ele>360.15</ele>
        <time>2019-03-31T14:10:14Z</time>
      </trkpt>
      <trkpt lat="44.87357" lon="5.07814">
        <ele>360.15</ele>
        <time>2019-03-31T14:10:30Z</time>
      </trkpt>
      <trkpt lat="44.87363" lon="5.07816">
        <ele>360.15</ele>
        <time>2019-03-31T14:10:45Z</time>
      </trkpt>
      <trkpt lat="44.87365" lon="5.07819">
        <ele>359.67</ele>
        <time>2019-03-31T14:11:51Z</time>
      </trkpt>
      <trkpt lat="44.87375" lon="5.07821">
        <ele>359.67</ele>
        <time>2019-03-31T14:12:05Z</time>
      </trkpt>
      <trkpt lat="44.87382" lon="5.07821">
        <ele>359.67</ele>
        <time>2019-03-31T14:12:21Z</time>
      </trkpt>
      <trkpt lat="44.87384" lon="5.07824">
        <ele>359.67</ele>
        <time>2019-03-31T14:12:44Z</time>
      </trkpt>
      <trkpt lat="44.87451" lon="5.07719">
        <ele>363.1</ele>
        <time>2019-03-31T07:46:43Z</time>
      </trkpt>
    </trkseg>
  </trk>
</gpx>